Provisional Data: Young Woman's Creek near North Bend, PA


Please select a monitoring station.
Please select start date.
Please select start date.

Toggle Unit: C/F Toggle Unit: C/F
Sample Time Temperature (C) Temperature (F) Specific Conductivity (mS/cm) pH   Turbidity (NTU+) DO (mg/L)
8/11/2023 12:00:00 AM 16.6 61.88 0.042 7.01 3.38 9.25
8/11/2023 12:15:00 AM 16.57 61.826 0.042 7 3.01 9.25
8/11/2023 12:30:00 AM 16.54 61.772 0.042 7 3.2 9.26
8/11/2023 12:45:00 AM 16.51 61.718 0.042 6.99 3.35 9.29
8/11/2023 1:00:00 AM 16.48 61.664 0.042 7 3.31 9.29
8/11/2023 1:15:00 AM 16.45 61.61 0.042 7 3.25 9.3
8/11/2023 1:30:00 AM 16.41 61.538 0.042 7 3.3 9.31
8/11/2023 1:45:00 AM 16.39 61.502 0.042 7 3.4 9.32
8/11/2023 2:00:00 AM 16.35 61.43 0.042 6.99 3.31 9.33
8/11/2023 2:15:00 AM 16.32 61.376 0.042 6.99 3.21 9.34
8/11/2023 2:30:00 AM 16.28 61.304 0.042 6.97 3.14 9.35
8/11/2023 2:45:00 AM 16.25 61.25 0.042 7 3.2 9.35
8/11/2023 3:00:00 AM 16.22 61.196 0.042 6.99 3.27 9.37
8/11/2023 3:15:00 AM 16.19 61.142 0.042 6.99 3.33 9.36
8/11/2023 3:30:00 AM 16.16 61.088 0.042 6.99 3.14 9.38
8/11/2023 3:45:00 AM 16.12 61.016 0.042 6.99 3.13 9.39
8/11/2023 4:00:00 AM 16.08 60.944 0.042 7 2.95 9.39
8/11/2023 4:15:00 AM 16.04 60.872 0.042 6.96 3.31 9.4
8/11/2023 4:30:00 AM 16.01 60.818 0.042 6.99 3.02 9.41
8/11/2023 4:45:00 AM 15.97 60.746 0.042 6.99 3.11 9.42
8/11/2023 5:00:00 AM 15.94 60.692 0.042 6.99 3.17 9.43
8/11/2023 5:15:00 AM 15.91 60.638 0.042 6.99 3.33 9.44
8/11/2023 5:30:00 AM 15.88 60.584 0.042 6.98 3.26 9.45
8/11/2023 5:45:00 AM 15.85 60.53 0.042 6.98 3.08 9.45
8/11/2023 6:00:00 AM 15.83 60.494 0.043 6.99 3.22 9.46
8/11/2023 6:15:00 AM 15.8 60.44 0.043 6.97 3.08 9.46
8/11/2023 6:30:00 AM 15.78 60.404 0.042 6.97 3.11 9.47
8/11/2023 6:45:00 AM 15.75 60.35 0.042 6.97 3.27 9.49
8/11/2023 7:00:00 AM 15.74 60.332 0.043 6.98 3.24 9.5
8/11/2023 7:15:00 AM 15.71 60.278 0.042 6.97 3.53 9.53
8/11/2023 7:30:00 AM 15.7 60.26 0.042 6.99 3.16 9.56
8/11/2023 7:45:00 AM 15.68 60.224 0.042 7 3.12 9.58
8/11/2023 8:00:00 AM 15.66 60.188 0.042 7 3.3 9.59
8/11/2023 8:15:00 AM 15.65 60.17 0.042 6.99 3 9.61
8/11/2023 8:30:00 AM 15.63 60.134 0.042 7.01 3.03 9.62
8/11/2023 8:45:00 AM 15.61 60.098 0.042 7.01 2.79 9.63
8/11/2023 9:00:00 AM 15.62 60.116 0.042 7.01 2.97 9.65
8/11/2023 9:15:00 AM 15.63 60.134 0.042 7 2.92 9.68
8/11/2023 9:30:00 AM 15.66 60.188 0.042 7.02 3.13 9.69
8/11/2023 9:45:00 AM 15.7 60.26 0.042 7.02 3.01 9.73
8/11/2023 10:00:00 AM 15.74 60.332 0.042 7.04 3.06 9.73
8/11/2023 10:15:00 AM 15.8 60.44 0.042 7.05 2.84 9.75
8/11/2023 10:30:00 AM 15.87 60.566 0.042 7.06 2.95 9.77
8/11/2023 10:45:00 AM 15.95 60.71 0.042 7.06 3.06 9.75
8/11/2023 11:00:00 AM 16.03 60.854 0.042 7.1 2.95 9.77
8/11/2023 11:15:00 AM 16.12 61.016 0.041 7.11 3.08 9.76
8/11/2023 11:30:00 AM 16.21 61.178 0.041 7.07 3.52 9.76
8/11/2023 11:45:00 AM 16.35 61.43 0.041 7.13 3.13 9.79
8/11/2023 12:00:00 PM 16.44 61.592 0.041 7.14 3.09 9.75
8/11/2023 12:15:00 PM 16.54 61.772 0.041 7.14 3.05 9.73
8/11/2023 12:30:00 PM 16.73 62.114 0.041 7.15 3.04 9.71
8/11/2023 12:45:00 PM 16.96 62.528 0.041 7.16 3.34 9.72
8/11/2023 1:00:00 PM 17.11 62.798 0.041 7.18 3.17 9.68
8/11/2023 1:15:00 PM 17.32 63.176 0.041 7.19 3.16 9.67
8/11/2023 1:30:00 PM 17.58 63.644 0.041 7.22 3.17 9.66
8/11/2023 1:45:00 PM 17.63 63.734 0.041 7.22 3.06 9.61
8/11/2023 2:00:00 PM 17.7 63.86 0.041 7.22 3.17 9.58
8/11/2023 2:15:00 PM 17.82 64.076 0.041 7.21 3.95 9.55
8/11/2023 2:30:00 PM 17.93 64.274 0.041 7.23 2.93 9.53
8/11/2023 2:45:00 PM 17.97 64.346 0.041 7.23 3.14 9.48
8/11/2023 3:00:00 PM 18.18 64.724 0.041 7.22 2.89 9.5
8/11/2023 3:15:00 PM 18.21 64.778 0.041 7.17 3.33 9.44
8/11/2023 3:30:00 PM 18.35 65.03 0.041 7.23 3.09 9.43
8/11/2023 3:45:00 PM 18.42 65.156 0.041 7.23 3.23 9.42
8/11/2023 4:00:00 PM 18.49 65.282 0.041 7.17 2.97 9.38
8/11/2023 4:15:00 PM 18.54 65.372 0.041 7.23 3.07 9.34
8/11/2023 4:30:00 PM 18.56 65.408 0.041 7.2 2.85 9.28
8/11/2023 4:45:00 PM 18.59 65.462 0.041 7.14 3.11 9.24
8/11/2023 5:00:00 PM 18.6 65.48 0.041 7.19 3.11 9.21
8/11/2023 5:15:00 PM 18.61 65.498 0.041 7.16 3.25 9.17
8/11/2023 5:30:00 PM 18.58 65.444 0.041 7.1 2.99 9.12
8/11/2023 5:45:00 PM 18.55 65.39 0.041 7.15 3.18 9.09
8/11/2023 6:00:00 PM 18.52 65.336 0.041 7.07 3.21 9.06
8/11/2023 6:15:00 PM 18.46 65.228 0.041 7.11 2.99 9.04
8/11/2023 6:30:00 PM 18.39 65.102 0.041 7.08 3.52 9.02
8/11/2023 6:45:00 PM 18.33 64.994 0.041 7.06 3.26 9.02
8/11/2023 7:00:00 PM 18.26 64.868 0.042 7.09 3.17 9.01
8/11/2023 7:15:00 PM 18.2 64.76 0.042 7.04 3.23 9.01
8/11/2023 7:30:00 PM 18.14 64.652 0.042 7.03 3.22 9
8/11/2023 7:45:00 PM 18.09 64.562 0.042 7.04 3.12 9
8/11/2023 8:00:00 PM 18.04 64.472 0.042 7.06 3.05 9
8/11/2023 8:15:00 PM 17.99 64.382 0.042 7.06 3.11 8.99
8/11/2023 8:30:00 PM 17.94 64.292 0.042 7.04 3.14 8.98
8/11/2023 8:45:00 PM 17.9 64.22 0.042 7.03 3.63 8.98
8/11/2023 9:00:00 PM 17.85 64.13 0.042 7.03 3.17 9
8/11/2023 9:15:00 PM 17.81 64.058 0.042 7.03 3.34 9
8/11/2023 9:30:00 PM 17.76 63.968 0.042 7.01 3.21 9
8/11/2023 9:45:00 PM 17.71 63.878 0.042 6.97 3.28 9.01
8/11/2023 10:00:00 PM 17.66 63.788 0.042 7.03 3.19 9.03
8/11/2023 10:15:00 PM 17.61 63.698 0.042 7.02 3.15 9.03
8/11/2023 10:30:00 PM 17.56 63.608 0.042 7.02 3.09 9.05
8/11/2023 10:45:00 PM 17.5 63.5 0.042 7.01 3.28 9.06
8/11/2023 11:00:00 PM 17.45 63.41 0.042 6.98 3.26 9.08
8/11/2023 11:15:00 PM 17.39 63.302 0.043 7.02 3.06 9.09
8/11/2023 11:30:00 PM 17.33 63.194 0.043 7.01 3.07 9.1
8/11/2023 11:45:00 PM 17.27 63.086 0.043 7.01 3.13 9.12
8/12/2023 12:00:00 AM 17.21 62.978 0.043 7.01 3.29 9.14
8/12/2023 12:15:00 AM 17.15 62.87 0.043 7.01 3.33 9.14
8/12/2023 12:30:00 AM 17.09 62.762 0.043 7 3.5 9.16
8/12/2023 12:45:00 AM 17.03 62.654 0.043 7 3.2 9.17
8/12/2023 1:00:00 AM 16.98 62.564 0.043 7 3.34 9.18
8/12/2023 1:15:00 AM 16.92 62.456 0.043 6.95 3.14 9.19
8/12/2023 1:30:00 AM 16.86 62.348 0.043 6.95 3.35 9.21
8/12/2023 1:45:00 AM 16.8 62.24 0.043 6.99 3.04 9.23
8/12/2023 2:00:00 AM 16.75 62.15 0.043 6.99 3.15 9.24
8/12/2023 2:15:00 AM 16.7 62.06 0.043 6.98 3.26 9.25
8/12/2023 2:30:00 AM 16.65 61.97 0.043 6.94 3.23 9.26
8/12/2023 2:45:00 AM 16.6 61.88 0.043 6.98 3.16 9.27
8/12/2023 3:00:00 AM 16.55 61.79 0.043 6.97 3.12 9.29
8/12/2023 3:15:00 AM 16.51 61.718 0.043 6.95 3.17 9.29
8/12/2023 3:30:00 AM 16.46 61.628 0.043 6.98 3.19 9.3
8/12/2023 3:45:00 AM 16.42 61.556 0.043 6.99 3.1 9.31
8/12/2023 4:00:00 AM 16.37 61.466 0.043 6.97 3.24 9.32
8/12/2023 4:15:00 AM 16.33 61.394 0.043 6.98 3.14 9.34
8/12/2023 4:30:00 AM 16.29 61.322 0.043 6.93 3.08 9.33
8/12/2023 4:45:00 AM 16.24 61.232 0.043 6.97 3.11 9.35
8/12/2023 5:00:00 AM 16.2 61.16 0.043 6.97 3.24 9.36
8/12/2023 5:15:00 AM 16.15 61.07 0.043 6.97 3.2 9.39
8/12/2023 5:30:00 AM 16.1 60.98 0.043 6.97 3.07 9.4
8/12/2023 5:45:00 AM 16.06 60.908 0.043 6.97 3.32 9.41
8/12/2023 6:00:00 AM 16.02 60.836 0.043 6.96 3.22 9.4
8/12/2023 6:15:00 AM 15.97 60.746 0.043 6.96 3.33 9.43
8/12/2023 6:30:00 AM 15.92 60.656 0.043 6.96 3.38 9.43
8/12/2023 6:45:00 AM 15.88 60.584 0.043 6.92 3.29 9.45
8/12/2023 7:00:00 AM 15.85 60.53 0.043 6.93 3.33 9.48
8/12/2023 7:15:00 AM 15.83 60.494 0.043 6.95 3.2 9.5
8/12/2023 7:30:00 AM 15.79 60.422 0.043 6.95 3.56 9.52
8/12/2023 7:45:00 AM 15.76 60.368 0.043 6.96 3.52 9.54
8/12/2023 8:00:00 AM 15.73 60.314 0.043 6.96 3.48 9.58
8/12/2023 8:15:00 AM 15.74 60.332 0.043 6.97 3.35 9.65
8/12/2023 8:30:00 AM 15.74 60.332 0.043 6.96 3.44 9.67
8/12/2023 8:45:00 AM 15.74 60.332 0.043 6.99 3.35 9.63
8/12/2023 9:00:00 AM 15.73 60.314 0.043 6.98 3.8 9.62
8/12/2023 9:15:00 AM 15.73 60.314 0.043 6.94 3.88 9.65
8/12/2023 9:30:00 AM 15.75 60.35 0.043 7 6.22 9.69
8/12/2023 9:45:00 AM 15.78 60.404 0.042 7 6.7 9.77
8/12/2023 10:00:00 AM 15.82 60.476 0.042 7.03 5.36 9.8
8/12/2023 10:15:00 AM 15.86 60.548 0.042 7.04 6.35 9.81
8/12/2023 10:30:00 AM 15.91 60.638 0.042 7.05 5.24 9.8
8/12/2023 10:45:00 AM 15.98 60.764 0.042 7.06 7.31 9.83
8/12/2023 11:00:00 AM 16.07 60.926 0.042 7.09 6.96 9.83
8/12/2023 11:15:00 AM 16.2 61.16 0.042 7.11 7.47 9.84
8/12/2023 11:30:00 AM 16.33 61.394 0.042 7.08 5.66 9.81
8/12/2023 11:45:00 AM 16.49 61.682 0.042 7.14 6.82 9.77
8/12/2023 12:00:00 PM 16.66 61.988 0.041 7.15 6.37 9.76
8/12/2023 12:15:00 PM 16.81 62.258 0.041 7.17 6.72 9.77
8/12/2023 12:30:00 PM 16.97 62.546 0.041 7.19 5.84 9.75
8/12/2023 12:45:00 PM 17.15 62.87 0.041 7.18 5.37 9.73
8/12/2023 1:00:00 PM 17.35 63.23 0.041 7.22 6.42 9.71
8/12/2023 1:15:00 PM 17.59 63.662 0.041 7.23 7.21 9.68
8/12/2023 1:30:00 PM 17.67 63.806 0.041 7.24 6.59 9.62
8/12/2023 1:45:00 PM 17.82 64.076 0.041 7.19 5.27 9.62
8/12/2023 2:00:00 PM 17.87 64.166 0.041 7.22 7.24 9.58
8/12/2023 2:15:00 PM 17.97 64.346 0.041 7.24 7.19 9.53
8/12/2023 2:30:00 PM 18.12 64.616 0.041 7.23 6.02 9.5
8/12/2023 2:45:00 PM 18.18 64.724 0.041 7.17 7.63 9.44
8/12/2023 3:00:00 PM 18.33 64.994 0.041 7.24 7.27 9.47
8/12/2023 3:15:00 PM 18.43 65.174 0.041 7.19 7.77 9.46
8/12/2023 3:30:00 PM 18.53 65.354 0.041 7.26 7.32 9.45
8/12/2023 3:45:00 PM 18.54 65.372 0.041 7.23 8.11 9.39
8/12/2023 4:00:00 PM 18.52 65.336 0.041 7.23 8.89 9.36
8/12/2023 4:15:00 PM 18.49 65.282 0.041 7.2 8.39 9.27
8/12/2023 4:30:00 PM 18.45 65.21 0.041 7.17 9.32 9.15
8/12/2023 4:45:00 PM 18.4 65.12 0.041 7.13 8.03 9.06
8/12/2023 5:00:00 PM 18.36 65.048 0.041 7.11 8.55 9.02
8/12/2023 5:15:00 PM 18.32 64.976 0.041 7.03 9.09 8.98
8/12/2023 5:30:00 PM 18.28 64.904 0.041 7.07 9.61 8.96
8/12/2023 5:45:00 PM 18.25 64.85 0.042 7.02 10.76 8.95
8/12/2023 6:00:00 PM 18.21 64.778 0.041 7.01 6.34 8.94
8/12/2023 6:15:00 PM 18.17 64.706 0.041 7.05 6.02 8.93
8/12/2023 6:30:00 PM 18.13 64.634 0.041 7.02 6.15 8.93
8/12/2023 6:45:00 PM 18.09 64.562 0.041 7.02 6.2 8.93
8/12/2023 7:00:00 PM 18.05 64.49 0.041 6.95 5.91 8.93
8/12/2023 7:15:00 PM 18.01 64.418 0.041 7.02 6.86 8.94
8/12/2023 7:30:00 PM 17.98 64.364 0.042 7.01 6.52 8.95
8/12/2023 7:45:00 PM 17.97 64.346 0.041 7 5.21 8.96
8/12/2023 8:00:00 PM 17.96 64.328 0.041 7.01 6.25 8.96
8/12/2023 8:15:00 PM 17.94 64.292 0.041 6.93 5.1 8.95
8/12/2023 8:30:00 PM 17.92 64.256 0.041 6.94 6.44 8.96
8/12/2023 8:45:00 PM 17.91 64.238 0.041 6.98 7.7 8.95
8/12/2023 9:00:00 PM 17.89 64.202 0.041 6.94 7.18 8.95
8/12/2023 9:15:00 PM 17.86 64.148 0.041 6.96 9.38 8.95
8/12/2023 9:30:00 PM 17.83 64.094 0.041 6.95 11.41 8.96
8/12/2023 9:45:00 PM 17.8 64.04 0.041 6.94 9.87 8.97
8/12/2023 10:00:00 PM 17.77 63.986 0.041 6.92 13.17 8.99
8/12/2023 10:15:00 PM 17.74 63.932 0.042 6.93 12.06 8.99
8/12/2023 10:30:00 PM 17.71 63.878 0.042 6.92 13.18 9
8/12/2023 10:45:00 PM 17.67 63.806 0.042 6.96 10.14 9.02
8/12/2023 11:00:00 PM 17.63 63.734 0.042 6.97 11.7 9.03
8/12/2023 11:15:00 PM 17.6 63.68 0.042 6.95 10.21 9.03
8/12/2023 11:30:00 PM 17.56 63.608 0.042 6.96 12.03 9.04
8/12/2023 11:45:00 PM 17.53 63.554 0.042 6.96 12.37 9.05
8/13/2023 12:00:00 AM 17.49 63.482 0.042 6.96 12.68 9.06
8/13/2023 12:15:00 AM 17.46 63.428 0.042 6.94 13.01 9.08
8/13/2023 12:30:00 AM 17.43 63.374 0.042 6.95 15.47 9.08
8/13/2023 12:45:00 AM 17.39 63.302 0.042 6.94 21.7 9.08
8/13/2023 1:00:00 AM 17.35 63.23 0.042 6.96 16.03 9.09
8/13/2023 1:15:00 AM 17.32 63.176 0.042 6.96 16.88 9.11
8/13/2023 1:30:00 AM 17.28 63.104 0.042 6.95 15.63 9.12
8/13/2023 1:45:00 AM 17.24 63.032 0.042 6.94 16.86 9.13
8/13/2023 2:00:00 AM 17.2 62.96 0.042 6.96 17.44 9.14
8/13/2023 2:15:00 AM 17.16 62.888 0.042 6.95 18.96 9.15
8/13/2023 2:30:00 AM 17.12 62.816 0.042 6.96 17.8 9.17
8/13/2023 2:45:00 AM 17.07 62.726 0.042 6.92 21.38 9.18
8/13/2023 3:00:00 AM 17.04 62.672 0.042 6.95 19.5 9.18
8/13/2023 3:15:00 AM 16.99 62.582 0.042 6.91 20.59 9.19
8/13/2023 3:30:00 AM 16.95 62.51 0.042 6.93 22.24 9.2
8/13/2023 3:45:00 AM 16.91 62.438 0.042 6.94 22.68 9.22
8/13/2023 4:00:00 AM 16.87 62.366 0.042 6.92 20.24 9.23
8/13/2023 4:15:00 AM 16.83 62.294 0.042 6.94 14.14 9.23
8/13/2023 4:30:00 AM 16.8 62.24 0.042 6.94 19.27 9.25
8/13/2023 4:45:00 AM 16.76 62.168 0.042 6.94 20.51 9.26
8/13/2023 5:00:00 AM 16.73 62.114 0.042 6.9 25.8 9.27
8/13/2023 5:15:00 AM 16.69 62.042 0.042 6.93 26.24 9.27
8/13/2023 5:30:00 AM 16.66 61.988 0.042 6.92 23.49 9.28
8/13/2023 5:45:00 AM 16.62 61.916 0.042 6.91 20.94 9.29
8/13/2023 6:00:00 AM 16.59 61.862 0.042 6.91 23.36 9.31
8/13/2023 6:15:00 AM 16.56 61.808 0.042 6.92 25.39 9.31
8/13/2023 6:30:00 AM 16.54 61.772 0.042 6.92 26.76 9.33
8/13/2023 6:45:00 AM 16.51 61.718 0.042 6.9 24.7 9.33
8/13/2023 7:00:00 AM 16.48 61.664 0.042 6.91 26.64 9.34
8/13/2023 7:15:00 AM 16.46 61.628 0.042 6.93 24.47 9.36
8/13/2023 7:30:00 AM 16.44 61.592 0.042 6.93 26.63 9.39
8/13/2023 7:45:00 AM 16.43 61.574 0.042 6.93 24.74 9.41
8/13/2023 8:00:00 AM 16.42 61.556 0.042 6.95 25.15 9.45
8/13/2023 8:15:00 AM 16.42 61.556 0.042 6.95 25.61 9.49
8/13/2023 8:30:00 AM 16.42 61.556 0.042 6.96 26.25 9.52
8/13/2023 8:45:00 AM 16.42 61.556 0.042 6.97 24.86 9.56
8/13/2023 9:00:00 AM 16.44 61.592 0.042 6.98 26.41 9.58
8/13/2023 9:15:00 AM 16.45 61.61 0.042 6.98 25.27 9.59
8/13/2023 9:30:00 AM 16.47 61.646 0.042 6.99 26.71 9.62
8/13/2023 9:45:00 AM 16.5 61.7 0.042 6.99 26.04 9.61
8/13/2023 10:00:00 AM 16.52 61.736 0.042 7.01 26.09 9.58
8/13/2023 10:15:00 AM 16.56 61.808 0.042 7.03 27.82 9.63
8/13/2023 10:30:00 AM 16.6 61.88 0.042 7.04 30.09 9.64
8/13/2023 10:45:00 AM 16.66 61.988 0.042 7.04 30.02 9.65
8/13/2023 11:00:00 AM 16.73 62.114 0.042 7.07 30.36 9.65
8/13/2023 11:15:00 AM 16.79 62.222 0.042 7.08 29.35 9.63
8/13/2023 11:30:00 AM 16.87 62.366 0.042 7.09 25.77 9.62
8/13/2023 11:45:00 AM 16.97 62.546 0.041 7.09 29.54 9.6
8/13/2023 12:00:00 PM 17.04 62.672 0.041 7.09 29.03 9.6
8/13/2023 12:15:00 PM 17.13 62.834 0.041 7.11 28.28 9.56
8/13/2023 12:30:00 PM 17.29 63.122 0.041 7.11 28.25 9.55
8/13/2023 12:45:00 PM 17.38 63.284 0.041 7.11 29.08 9.53
8/13/2023 1:00:00 PM 17.54 63.572 0.041 7.13 29.66 9.58
8/13/2023 1:15:00 PM 17.63 63.734 0.041 7.14 27.56 9.54
8/13/2023 1:30:00 PM 17.84 64.112 0.041 7.16 29.63 9.54
8/13/2023 1:45:00 PM 18.1 64.58 0.041 7.18 29.14 9.55
8/13/2023 2:00:00 PM 18.32 64.976 0.041 7.2 30.63 9.53
8/13/2023 2:15:00 PM 18.32 64.976 0.041 7.19 26.06 9.46
8/13/2023 2:30:00 PM 18.38 65.084 0.041 7.19 28.22 9.45
8/13/2023 2:45:00 PM 18.38 65.084 0.041 7.2 28.15 9.43
8/13/2023 3:00:00 PM 18.45 65.21 0.041 7.2 37.39 9.43
8/13/2023 3:15:00 PM 18.55 65.39 0.041 7.17 31.13 9.43
8/13/2023 3:30:00 PM 18.58 65.444 0.041 7.21 38.9 9.42
8/13/2023 3:45:00 PM 18.6 65.48 0.041 7.2 32.62 9.37
8/13/2023 4:00:00 PM 18.54 65.372 0.041 7.17 30.71 9.32
8/13/2023 4:15:00 PM 18.56 65.408 0.041 7.15 38.13 9.3
8/13/2023 4:30:00 PM 18.58 65.444 0.041 7.15 39.18 9.28
8/13/2023 4:45:00 PM 18.6 65.48 0.041 7.17 40.27 9.27
8/13/2023 5:00:00 PM 18.61 65.498 0.041 7.15 39.63 9.24
8/13/2023 5:15:00 PM 18.58 65.444 0.041 7.14 39.07 9.19
8/13/2023 5:30:00 PM 18.58 65.444 0.041 7.1 37.49 9.16
8/13/2023 5:45:00 PM 18.58 65.444 0.041 7.07 41.69 9.15
8/13/2023 6:00:00 PM 18.56 65.408 0.041 7.07 42.65 9.13
8/13/2023 6:15:00 PM 18.54 65.372 0.042 7.07 44.4 9.08
8/13/2023 6:30:00 PM 18.51 65.318 0.042 7.05 46.11 9.06
8/13/2023 6:45:00 PM 18.48 65.264 0.042 7.04 43.55 9.06
8/13/2023 7:00:00 PM 18.47 65.246 0.042 7.07 41.52 9.06
8/13/2023 7:15:00 PM 18.45 65.21 0.042 7.04 40.86 9.04
8/13/2023 7:30:00 PM 18.44 65.192 0.042 7.01 45.58 9.01
8/13/2023 7:45:00 PM 18.43 65.174 0.042 7 38.86 9
8/13/2023 8:00:00 PM 18.42 65.156 0.042 7 47.36 8.98
8/13/2023 8:15:00 PM 18.4 65.12 0.042 7.01 44.96 8.97
8/13/2023 8:30:00 PM 18.38 65.084 0.042 7 42.56 8.96
8/13/2023 8:45:00 PM 18.35 65.03 0.042 6.97 48.55 8.95
8/13/2023 9:00:00 PM 18.32 64.976 0.042 7 36.95 8.95
8/13/2023 9:15:00 PM 18.28 64.904 0.042 6.98 55.92 8.96
8/13/2023 9:30:00 PM 18.24 64.832 0.043 7.01 52.09 8.97
8/13/2023 9:45:00 PM 18.21 64.778 0.043 6.99 46.13 8.97
8/13/2023 10:00:00 PM 18.16 64.688 0.043 7.01 55.32 8.98
8/13/2023 10:15:00 PM 18.13 64.634 0.043 6.97 47.44 8.98
8/13/2023 10:30:00 PM 18.08 64.544 0.043 7.01 55.18 9
8/13/2023 10:45:00 PM 18.03 64.454 0.043 6.99 59.47 9
8/13/2023 11:00:00 PM 17.99 64.382 0.043 6.98 55.81 9.02
8/13/2023 11:15:00 PM 17.94 64.292 0.043 6.98 42.21 9.04
8/13/2023 11:30:00 PM 17.9 64.22 0.043 7 62.29 9.04
8/13/2023 11:45:00 PM 17.85 64.13 0.043 6.99 47.52 9.05
8/14/2023 12:00:00 AM 17.81 64.058 0.043 7 62.82 9.06
8/14/2023 12:15:00 AM 17.76 63.968 0.043 6.97 74.79 9.07
8/14/2023 12:30:00 AM 17.72 63.896 0.043 6.99 65.58 9.08
8/14/2023 12:45:00 AM 17.68 63.824 0.043 6.99 55.39 9.08
8/14/2023 1:00:00 AM 17.63 63.734 0.043 6.98 63.67 9.09
8/14/2023 1:15:00 AM 17.59 63.662 0.043 6.98 76.03 9.1
8/14/2023 1:30:00 AM 17.54 63.572 0.043 6.99 43.63 9.11
8/14/2023 1:45:00 AM 17.5 63.5 0.043 6.99 69.93 9.12
8/14/2023 2:00:00 AM 17.45 63.41 0.043 6.94 52.85 9.13
8/14/2023 2:15:00 AM 17.4 63.32 0.043 6.99 35.99 9.15
8/14/2023 2:30:00 AM 17.35 63.23 0.043 6.99 52.66 9.16
8/14/2023 2:45:00 AM 17.3 63.14 0.043 6.98 59.33 9.17
8/14/2023 3:00:00 AM 17.25 63.05 0.043 6.96 39.46 9.18
8/14/2023 3:15:00 AM 17.2 62.96 0.043 6.98 36.08 9.19
8/14/2023 3:30:00 AM 17.15 62.87 0.043 6.97 34.73 9.21
8/14/2023 3:45:00 AM 17.1 62.78 0.043 6.98 31.7 9.21
8/14/2023 4:00:00 AM 17.06 62.708 0.043 6.97 50.79 9.22
8/14/2023 4:15:00 AM 17.02 62.636 0.043 6.97 38.65 9.22
8/14/2023 4:30:00 AM 16.97 62.546 0.043 6.98 50.81 9.23
8/14/2023 4:45:00 AM 16.93 62.474 0.043 6.97 31.46 9.25
8/14/2023 5:00:00 AM 16.88 62.384 0.043 6.96 40.23 9.26
8/14/2023 5:15:00 AM 16.84 62.312 0.043 6.95 41.23 9.26
8/14/2023 5:30:00 AM 16.8 62.24 0.043 6.96 54.73 9.27
8/14/2023 5:45:00 AM 16.76 62.168 0.043 6.96 59.16 9.28
8/14/2023 6:00:00 AM 16.72 62.096 0.043 6.95 41.32 9.29
8/14/2023 6:15:00 AM 16.68 62.024 0.043 6.96 32.58 9.29
8/14/2023 6:30:00 AM 16.63 61.934 0.043 6.96 59.82 9.3
8/14/2023 6:45:00 AM 16.6 61.88 0.043 6.95 45.06 9.32
8/14/2023 7:00:00 AM 16.56 61.808 0.043 6.93 36.12 9.35
8/14/2023 7:15:00 AM 16.53 61.754 0.043 6.94 37.23 9.37
8/14/2023 7:30:00 AM 16.51 61.718 0.043 6.97 35.21 9.4
8/14/2023 7:45:00 AM 16.49 61.682 0.043 6.93 35.23 9.41
8/14/2023 8:00:00 AM 16.47 61.646 0.043 6.97 35.52 9.46
8/14/2023 8:15:00 AM 16.46 61.628 0.043 6.95 40.98 9.5
8/14/2023 8:30:00 AM 16.45 61.61 0.043 6.99 28.47 9.53
8/14/2023 8:45:00 AM 16.44 61.592 0.043 6.95 44.11 9.55
8/14/2023 9:00:00 AM 16.44 61.592 0.043 6.99 32.4 9.57
8/14/2023 9:15:00 AM 16.45 61.61 0.043 7 30.54 9.61
8/14/2023 9:30:00 AM 16.47 61.646 0.043 7 29.4 9.65
8/14/2023 9:45:00 AM 16.49 61.682 0.043 7.02 28.1 9.68
8/14/2023 10:00:00 AM 16.52 61.736 0.042 7.04 35 9.7
8/14/2023 10:15:00 AM 16.55 61.79 0.042 6.99 37.71 9.7
8/14/2023 10:30:00 AM 16.59 61.862 0.042 7.05 21.24 9.71
8/14/2023 10:45:00 AM 16.66 61.988 0.042 7.04 37.83 9.74
8/14/2023 11:00:00 AM 16.72 62.096 0.042 7.08 28.99 9.73
8/14/2023 11:15:00 AM 16.82 62.276 0.042 7.06 32.32 9.73
8/14/2023 11:30:00 AM 16.94 62.492 0.042 7.11 29.84 9.76
8/14/2023 11:45:00 AM 17.04 62.672 0.042 7.11 30.25 9.77
8/14/2023 12:00:00 PM 17.13 62.834 0.042 7.14 30.57 9.78
8/14/2023 12:15:00 PM 17.27 63.086 0.042 7.16 31.58 9.77
8/14/2023 12:30:00 PM 17.42 63.356 0.041 7.16 25.8 9.73
8/14/2023 12:45:00 PM 17.59 63.662 0.041 7.18 28.42 9.69
8/14/2023 1:00:00 PM 17.78 64.004 0.041 7.18 30.51 9.64
8/14/2023 1:15:00 PM 18.03 64.454 0.041 7.2 33.44 9.6
8/14/2023 1:30:00 PM 18.24 64.832 0.041 7.21 23.1 9.57
8/14/2023 1:45:00 PM 18.4 65.12 0.041 7.21 21.63 9.55
8/14/2023 2:00:00 PM 18.6 65.48 0.041 7.23 30.61 9.55
8/14/2023 2:15:00 PM 18.68 65.624 0.041 7.26 35.05 9.52
8/14/2023 2:30:00 PM 18.63 65.534 0.041 7.25 34.46 9.44
8/14/2023 2:45:00 PM 18.58 65.444 0.041 7.23 36.13 9.41
8/14/2023 3:00:00 PM 18.55 65.39 0.041 7.2 37.19 9.42
8/14/2023 3:15:00 PM 18.56 65.408 0.041 7.19 31.58 9.41
8/14/2023 3:30:00 PM 18.57 65.426 0.041 7.2 33.38 9.39
8/14/2023 3:45:00 PM 18.56 65.408 0.041 7.17 33.26 9.3
8/14/2023 4:00:00 PM 18.56 65.408 0.041 7.15 40.02 9.24
8/14/2023 4:15:00 PM 18.57 65.426 0.041 7.12 36.61 9.21
8/14/2023 4:30:00 PM 18.56 65.408 0.041 7.11 38.91 9.17
8/14/2023 4:45:00 PM 18.54 65.372 0.041 7.07 35.04 9.13
8/14/2023 5:00:00 PM 18.51 65.318 0.042 7.08 31.8 9.13
8/14/2023 5:15:00 PM 18.49 65.282 0.042 7.07 32.63 9.1
8/14/2023 5:30:00 PM 18.45 65.21 0.042 7.06 37.48 9.08
8/14/2023 5:45:00 PM 18.4 65.12 0.042 7.04 37.58 9.08
8/14/2023 6:00:00 PM 18.36 65.048 0.042 7.06 42.28 9.06
8/14/2023 6:15:00 PM 18.32 64.976 0.042 7.01 35.27 9.04
8/14/2023 6:30:00 PM 18.28 64.904 0.042 6.99 35.27 9.02
8/14/2023 6:45:00 PM 18.25 64.85 0.042 7.01 46.18 9.01
8/14/2023 7:00:00 PM 18.22 64.796 0.042 6.96 43.39 9
8/14/2023 7:15:00 PM 18.2 64.76 0.042 6.98 11.69 8.97
8/14/2023 7:30:00 PM 18.18 64.724 0.042 6.96 6.77 8.97
8/14/2023 7:45:00 PM 18.16 64.688 0.042 6.98 7.66 8.96
8/14/2023 8:00:00 PM 18.14 64.652 0.042 6.97 6.98 8.94
8/14/2023 8:15:00 PM 18.13 64.634 0.042 6.98 7.06 8.94
8/14/2023 8:30:00 PM 18.11 64.598 0.042 6.99 6.56 8.93
8/14/2023 8:45:00 PM 18.09 64.562 0.042 6.99 7.31 8.92
8/14/2023 9:00:00 PM 18.08 64.544 0.042 6.99 15.04 8.91
8/14/2023 9:15:00 PM 18.06 64.508 0.042 6.97 6.89 8.91
8/14/2023 9:30:00 PM 18.04 64.472 0.042 6.99 7.09 8.91
8/14/2023 9:45:00 PM 18.02 64.436 0.042 6.95 7.74 8.92
8/14/2023 10:00:00 PM 18 64.4 0.042 6.97 10.74 8.91
8/14/2023 10:15:00 PM 17.98 64.364 0.042 6.95 7.57 8.92
8/14/2023 10:30:00 PM 17.95 64.31 0.042 6.95 6.81 8.93
8/14/2023 10:45:00 PM 17.92 64.256 0.042 6.95 8.08 8.94
8/14/2023 11:00:00 PM 17.9 64.22 0.042 6.94 7.45 8.94
8/14/2023 11:15:00 PM 17.87 64.166 0.042 6.96 10.48 8.95
8/14/2023 11:30:00 PM 17.84 64.112 0.042 6.96 7.18 8.97
8/14/2023 11:45:00 PM 17.82 64.076 0.042 6.92 7.75 8.97
8/15/2023 12:00:00 AM 17.79 64.022 0.042 6.95 9.9 8.97
8/15/2023 12:15:00 AM 17.76 63.968 0.042 6.89 12.71 8.98
8/15/2023 12:30:00 AM 17.74 63.932 0.042 6.95 9.29 8.99
8/15/2023 12:45:00 AM 17.7 63.86 0.042 6.93 10.53 8.98
8/15/2023 1:00:00 AM 17.67 63.806 0.042 6.94 11.48 8.99
8/15/2023 1:15:00 AM 17.65 63.77 0.042 6.9 11.08 8.98
8/15/2023 1:30:00 AM 17.61 63.698 0.042 6.94 10.1 9.01
8/15/2023 1:45:00 AM 17.59 63.662 0.042 6.93 11.98 8.99
8/15/2023 2:00:00 AM 17.56 63.608 0.042 6.92 15.05 9.02
8/15/2023 2:15:00 AM 17.53 63.554 0.042 6.93 20.18 9.02
8/15/2023 2:30:00 AM 17.5 63.5 0.042 6.92 18.73 9.01
8/15/2023 2:45:00 AM 17.47 63.446 0.042 6.92 9.02 9.04
8/15/2023 3:00:00 AM 17.45 63.41 0.043 6.91 10.96 9.03
8/15/2023 3:15:00 AM 17.41 63.338 0.043 6.91 16.75 9.05
8/15/2023 3:30:00 AM 17.38 63.284 0.043 6.87 16.25 9.06
8/15/2023 3:45:00 AM 17.35 63.23 0.043 6.9 13.31 9.06
8/15/2023 4:00:00 AM 17.31 63.158 0.043 6.9 9.66 9.08
8/15/2023 4:15:00 AM 17.28 63.104 0.043 6.88 11.09 9.09
8/15/2023 4:30:00 AM 17.25 63.05 0.043 6.85 16.36 9.08
8/15/2023 4:45:00 AM 17.23 63.014 0.043 6.85 16.1 9.09
8/15/2023 5:00:00 AM 17.19 62.942 0.043 6.9 10.79 9.1
8/15/2023 5:15:00 AM 17.17 62.906 0.043 6.89 16.99 9.1
8/15/2023 5:30:00 AM 17.13 62.834 0.043 6.84 18.76 9.1
8/15/2023 5:45:00 AM 17.11 62.798 0.043 6.89 10.79 9.12
8/15/2023 6:00:00 AM 17.07 62.726 0.042 6.88 13.8 9.14
8/15/2023 6:15:00 AM 17.04 62.672 0.042 6.86 12.79 9.15
8/15/2023 6:30:00 AM 17.01 62.618 0.042 6.86 22.3 9.15
8/15/2023 6:45:00 AM 16.98 62.564 0.042 6.89 19.63 9.16
8/15/2023 7:00:00 AM 16.95 62.51 0.042 6.89 17.05 9.17
8/15/2023 7:15:00 AM 16.92 62.456 0.042 6.89 19.92 9.2
8/15/2023 7:30:00 AM 16.9 62.42 0.042 6.9 13 9.22
8/15/2023 7:45:00 AM 16.87 62.366 0.042 6.9 14.92 9.25
8/15/2023 8:00:00 AM 16.85 62.33 0.042 6.91 11.58 9.27
8/15/2023 8:15:00 AM 16.83 62.294 0.042 6.88 13.41 9.27
8/15/2023 8:30:00 AM 16.82 62.276 0.042 6.92 10.99 9.34
8/15/2023 8:45:00 AM 16.82 62.276 0.042 6.96 12.87 9.41
8/15/2023 9:00:00 AM 16.83 62.294 0.042 6.98 12.25 9.45
8/15/2023 9:15:00 AM 16.84 62.312 0.042 6.96 17.94 9.43
8/15/2023 9:30:00 AM 16.86 62.348 0.042 7.01 17.43 9.51
8/15/2023 9:45:00 AM 16.89 62.402 0.042 7.03 11.72 9.55
8/15/2023 10:00:00 AM 16.91 62.438 0.041 7.04 10.45 9.53
8/15/2023 10:15:00 AM 16.92 62.456 0.041 7.05 17.64 9.53
8/15/2023 10:30:00 AM 16.94 62.492 0.041 7.04 13.22 9.54
8/15/2023 10:45:00 AM 16.94 62.492 0.041 7.06 13.87 9.51
8/15/2023 11:00:00 AM 16.94 62.492 0.041 7.04 14.38 9.49
8/15/2023 11:15:00 AM 16.95 62.51 0.041 7.03 17.88 9.48
8/15/2023 11:30:00 AM 16.96 62.528 0.041 7.05 18.81 9.49
8/15/2023 11:45:00 AM 16.99 62.582 0.041 7.05 18.62 9.5
8/15/2023 12:00:00 PM 17.01 62.618 0.041 7.05 17.78 9.56
8/15/2023 12:15:00 PM 17.04 62.672 0.041 7.06 10.02 9.54
8/15/2023 12:30:00 PM 17.06 62.708 0.041 7.08 13.98 9.56
8/15/2023 12:45:00 PM 17.12 62.816 0.041 7.05 13.44 9.59
8/15/2023 1:00:00 PM 17.2 62.96 0.041 7.11 18.15 9.61
8/15/2023 1:15:00 PM 17.28 63.104 0.041 7.13 19.96 9.62
8/15/2023 1:30:00 PM 17.33 63.194 0.041 7.13 25.25 9.61
8/15/2023 1:45:00 PM 17.36 63.248 0.041 7.1 22.57 9.6
8/15/2023 2:00:00 PM 17.37 63.266 0.041 7.12 19.61 9.56
8/15/2023 2:15:00 PM 17.43 63.374 0.041 7.09 26.74 9.55
8/15/2023 2:30:00 PM 17.58 63.644 0.041 7.14 26.06 9.6
8/15/2023 2:45:00 PM 17.74 63.932 0.041 7.15 26.14 9.57
8/15/2023 3:00:00 PM 17.91 64.238 0.041 7.16 27.36 9.53
8/15/2023 3:15:00 PM 18.01 64.418 0.041 7.15 35.15 9.48
8/15/2023 3:30:00 PM 18.01 64.418 0.041 7.15 43.52 9.43
8/15/2023 3:45:00 PM 18.01 64.418 0.041 7.14 28.61 9.43
8/15/2023 4:00:00 PM 18.06 64.508 0.041 7.13 23.52 9.45
8/15/2023 4:15:00 PM 18.1 64.58 0.041 7.16 33.53 9.42
8/15/2023 4:30:00 PM 18.07 64.526 0.041 7.1 26.15 9.3
8/15/2023 4:45:00 PM 18.08 64.544 0.041 7.1 21.14 9.21
8/15/2023 5:00:00 PM 18.15 64.67 0.039 7.06 8.73 9.11
8/15/2023 5:15:00 PM 18.19 64.742 0.039 6.96 9.44 9.11
8/15/2023 5:30:00 PM 18.16 64.688 0.04 7 8.44 9.06
8/15/2023 5:45:00 PM 18.13 64.634 0.04 6.95 7.84 8.99
8/15/2023 6:00:00 PM 18.11 64.598 0.04 6.9 8.42 9.01
8/15/2023 6:15:00 PM 18.04 64.472 0.04 6.97 8.71 8.97
8/15/2023 6:30:00 PM 17.97 64.346 0.04 6.96 12.64 8.98
8/15/2023 6:45:00 PM 17.94 64.292 0.04 6.97 9.98 8.95
8/15/2023 7:00:00 PM 17.91 64.238 0.04 6.96 9.74 9.01
8/15/2023 7:15:00 PM 17.87 64.166 0.04 6.96 9.31 8.98
8/15/2023 7:30:00 PM 17.83 64.094 0.04 6.9 11.16 9
8/15/2023 7:45:00 PM 17.79 64.022 0.041 6.95 9.96 8.98
8/15/2023 8:00:00 PM 17.75 63.95 0.041 6.93 11.65 8.96
8/15/2023 8:15:00 PM 17.71 63.878 0.041 6.92 13.22 8.95
8/15/2023 8:30:00 PM 17.66 63.788 0.041 6.87 13.43 8.96
8/15/2023 8:45:00 PM 17.62 63.716 0.041 6.91 13.9 8.96
8/15/2023 9:00:00 PM 17.58 63.644 0.041 6.91 14.11 8.98
8/15/2023 9:15:00 PM 17.53 63.554 0.041 6.85 16.77 8.99
8/15/2023 9:30:00 PM 17.49 63.482 0.041 6.91 13.32 9.02
8/15/2023 9:45:00 PM 17.44 63.392 0.042 6.91 13.88 9.02
8/15/2023 10:00:00 PM 17.39 63.302 0.042 6.85 12.77 9.04
8/15/2023 10:15:00 PM 17.35 63.23 0.042 6.9 16.82 9.06
8/15/2023 10:30:00 PM 17.3 63.14 0.042 6.85 11.71 9.05
8/15/2023 10:45:00 PM 17.25 63.05 0.042 6.92 12.35 9.09
8/15/2023 11:00:00 PM 17.21 62.978 0.042 6.87 12.42 9.12
8/15/2023 11:15:00 PM 17.16 62.888 0.042 6.93 13.2 9.11
8/15/2023 11:30:00 PM 17.11 62.798 0.042 6.93 12.36 9.17
8/15/2023 11:45:00 PM 17.06 62.708 0.042 6.93 12.65 9.15
8/16/2023 12:00:00 AM 17.02 62.636 0.042 6.94 10.5 9.18
8/16/2023 12:15:00 AM 16.97 62.546 0.042 6.87 10.5 9.18
8/16/2023 12:30:00 AM 16.92 62.456 0.042 6.89 9.92 9.21
8/16/2023 12:45:00 AM 16.88 62.384 0.042 6.94 9.24 9.21
8/16/2023 1:00:00 AM 16.84 62.312 0.042 6.94 9.32 9.23
8/16/2023 1:15:00 AM 16.79 62.222 0.042 6.88 10.88 9.24
8/16/2023 1:30:00 AM 16.76 62.168 0.042 6.95 10.46 9.24
8/16/2023 1:45:00 AM 16.71 62.078 0.042 6.93 9.61 9.25
8/16/2023 2:00:00 AM 16.68 62.024 0.042 6.91 11.99 9.22
8/16/2023 2:15:00 AM 16.65 61.97 0.042 6.94 9.82 9.28
8/16/2023 2:30:00 AM 16.61 61.898 0.042 6.93 8.82 9.28
8/16/2023 2:45:00 AM 16.58 61.844 0.042 6.87 8.23 9.28
8/16/2023 3:00:00 AM 16.55 61.79 0.042 6.93 7.51 9.28
8/16/2023 3:15:00 AM 16.51 61.718 0.042 6.86 6.98 9.29
8/16/2023 3:30:00 AM 16.47 61.646 0.042 6.93 8.66 9.3
8/16/2023 3:45:00 AM 16.45 61.61 0.042 6.89 7.63 9.28
8/16/2023 4:00:00 AM 16.41 61.538 0.042 6.88 8.54 9.29
8/16/2023 4:15:00 AM 16.38 61.484 0.042 6.86 7.73 9.3
8/16/2023 4:30:00 AM 16.35 61.43 0.042 6.86 8.57 9.32
8/16/2023 4:45:00 AM 16.33 61.394 0.042 6.89 7.69 9.31
8/16/2023 5:00:00 AM 16.3 61.34 0.042 6.86 7.24 9.32
8/16/2023 5:15:00 AM 16.27 61.286 0.042 6.91 8.24 9.32
8/16/2023 5:30:00 AM 16.24 61.232 0.042 6.9 7.89 9.33
8/16/2023 5:45:00 AM 16.22 61.196 0.042 6.9 8.04 9.34
8/16/2023 6:00:00 AM 16.19 61.142 0.042 6.87 7.83 9.33
8/16/2023 6:15:00 AM 16.16 61.088 0.042 6.87 7.14 9.34
8/16/2023 6:30:00 AM 16.13 61.034 0.042 6.87 7.26 9.35
8/16/2023 6:45:00 AM 16.11 60.998 0.042 6.83 7.58 9.36
8/16/2023 7:00:00 AM 16.09 60.962 0.042 6.89 7.28 9.38
8/16/2023 7:15:00 AM 16.07 60.926 0.042 6.87 7.04 9.39
8/16/2023 7:30:00 AM 16.05 60.89 0.042 6.89 7.51 9.43
8/16/2023 7:45:00 AM 16.04 60.872 0.042 6.89 7.2 9.44
8/16/2023 8:00:00 AM 16.03 60.854 0.042 6.89 6.87 9.46
8/16/2023 8:15:00 AM 16.02 60.836 0.042 6.88 6.73 9.45
8/16/2023 8:30:00 AM 16.02 60.836 0.042 6.89 7.29 9.48
8/16/2023 8:45:00 AM 16.01 60.818 0.042 6.89 7.08 9.5
8/16/2023 9:00:00 AM 16.02 60.836 0.042 6.88 6.92 9.51
8/16/2023 9:15:00 AM 16.02 60.836 0.042 6.9 7.24 9.57
8/16/2023 9:30:00 AM 16.03 60.854 0.042 6.84 6.79 9.59
8/16/2023 9:45:00 AM 16.05 60.89 0.042 6.9 7.25 9.62
8/16/2023 10:00:00 AM 16.06 60.908 0.042 6.89 6.53 9.62
8/16/2023 10:15:00 AM 16.08 60.944 0.042 6.88 6.61 9.65
8/16/2023 10:30:00 AM 16.1 60.98 0.042 6.95 6.63 9.67
8/16/2023 10:45:00 AM 16.12 61.016 0.042 6.91 6.89 9.62
8/16/2023 11:00:00 AM 16.16 61.088 0.042 6.92 6.98 9.63
8/16/2023 11:15:00 AM 16.22 61.196 0.041 6.89 7.9 9.67
8/16/2023 11:30:00 AM 16.32 61.376 0.041 6.92 6.76 9.65
8/16/2023 11:45:00 AM 16.38 61.484 0.041 6.96 6.73 9.71
8/16/2023 12:00:00 PM 16.43 61.574 0.041 6.96 6.82 9.69
8/16/2023 12:15:00 PM 16.49 61.682 0.041 6.98 7.43 9.74
8/16/2023 12:30:00 PM 16.52 61.736 0.041 6.94 6.58 9.71
8/16/2023 12:45:00 PM 16.58 61.844 0.041 6.99 6.93 9.7
8/16/2023 1:00:00 PM 16.66 61.988 0.041 6.99 6.56 9.69
8/16/2023 1:15:00 PM 16.83 62.294 0.041 6.94 6.51 9.69
8/16/2023 1:30:00 PM 16.95 62.51 0.041 7.01 6.87 9.66
8/16/2023 1:45:00 PM 16.94 62.492 0.041 7 6.46 9.56
8/16/2023 2:00:00 PM 17.06 62.708 0.041 6.95 6.42 9.64
8/16/2023 2:15:00 PM 17.07 62.726 0.041 7.01 6.85 9.51
8/16/2023 2:30:00 PM 16.97 62.546 0.041 6.98 7.14 9.46
8/16/2023 2:45:00 PM 17.07 62.726 0.041 6.99 7.12 9.52
8/16/2023 3:00:00 PM 17.28 63.104 0.041 6.98 7.34 9.54
8/16/2023 3:15:00 PM 17.22 62.996 0.041 7.01 6.85 9.52
8/16/2023 3:30:00 PM 17.24 63.032 0.041 7.03 6.68 9.54
8/16/2023 3:45:00 PM 17.24 63.032 0.041 7 6.51 9.5
8/16/2023 4:00:00 PM 17.23 63.014 0.041 6.99 6.62 9.43
8/16/2023 4:15:00 PM 17.17 62.906 0.041 6.98 6.49 9.38
8/16/2023 4:30:00 PM 17.16 62.888 0.041 7.02 6.76 9.44
8/16/2023 4:45:00 PM 17.15 62.87 0.041 6.99 6.49 9.4
8/16/2023 5:00:00 PM 17.15 62.87 0.041 6.98 6.58 9.38
8/16/2023 5:15:00 PM 17.14 62.852 0.041 6.97 6.8 9.4
8/16/2023 5:30:00 PM 17.16 62.888 0.041 7 6.15 9.45
8/16/2023 5:45:00 PM 17.18 62.924 0.041 7.01 7.09 9.46
8/16/2023 6:00:00 PM 17.17 62.906 0.041 6.93 6.75 9.43
8/16/2023 6:15:00 PM 17.16 62.888 0.041 7.01 6.94 9.42
8/16/2023 6:30:00 PM 17.15 62.87 0.041 7 6.03 9.4
8/16/2023 6:45:00 PM 17.14 62.852 0.041 6.97 6.72 9.38
8/16/2023 7:00:00 PM 17.13 62.834 0.041 6.98 6.15 9.35
8/16/2023 7:15:00 PM 17.11 62.798 0.041 6.97 6.62 9.31
8/16/2023 7:30:00 PM 17.07 62.726 0.041 6.96 6.23 9.3
8/16/2023 7:45:00 PM 17.04 62.672 0.042 6.95 6.12 9.28
8/16/2023 8:00:00 PM 17 62.6 0.042 6.9 6.16 9.27
8/16/2023 8:15:00 PM 16.97 62.546 0.042 6.94 6.24 9.26
8/16/2023 8:30:00 PM 16.94 62.492 0.042 6.93 6.35 9.26
8/16/2023 8:45:00 PM 16.91 62.438 0.042 6.95 7.57 9.24
8/16/2023 9:00:00 PM 16.88 62.384 0.042 6.89 4.96 9.27
8/16/2023 9:15:00 PM 16.85 62.33 0.042 6.94 4.8 9.28
8/16/2023 9:30:00 PM 16.82 62.276 0.042 6.94 4.66 9.29
8/16/2023 9:45:00 PM 16.79 62.222 0.042 6.88 4.75 9.29
8/16/2023 10:00:00 PM 16.76 62.168 0.042 6.91 6.21 9.29
8/16/2023 10:15:00 PM 16.74 62.132 0.042 6.94 4.45 9.31
8/16/2023 10:30:00 PM 16.71 62.078 0.042 6.94 5.81 9.31
8/16/2023 10:45:00 PM 16.69 62.042 0.042 6.95 4.37 9.31
8/16/2023 11:00:00 PM 16.66 61.988 0.042 6.95 4.41 9.32
8/16/2023 11:15:00 PM 16.64 61.952 0.042 6.94 4.63 9.33
8/16/2023 11:30:00 PM 16.62 61.916 0.042 6.94 4.13 9.33
8/16/2023 11:45:00 PM 16.59 61.862 0.042 6.94 4.41 9.33
8/17/2023 12:00:00 AM 16.56 61.808 0.042 6.93 5.45 9.34
8/17/2023 12:15:00 AM 16.53 61.754 0.042 6.95 4.58 9.34
8/17/2023 12:30:00 AM 16.5 61.7 0.042 6.94 4.25 9.33
8/17/2023 12:45:00 AM 16.46 61.628 0.042 6.95 4.42 9.37
8/17/2023 1:00:00 AM 16.42 61.556 0.042 6.95 4.16 9.38
8/17/2023 1:15:00 AM 16.39 61.502 0.042 6.95 4.48 9.38
8/17/2023 1:30:00 AM 16.36 61.448 0.042 6.94 4.36 9.38
8/17/2023 1:45:00 AM 16.32 61.376 0.042 6.91 4.49 9.39
8/17/2023 2:00:00 AM 16.29 61.322 0.042 6.95 4.34 9.4
8/17/2023 2:15:00 AM 16.26 61.268 0.042 6.9 4.47 9.39
8/17/2023 2:30:00 AM 16.24 61.232 0.042 6.9 4.51 9.41
8/17/2023 2:45:00 AM 16.2 61.16 0.042 6.95 4.54 9.42
8/17/2023 3:00:00 AM 16.18 61.124 0.042 6.94 4.4 9.41
8/17/2023 3:15:00 AM 16.15 61.07 0.042 6.93 4.32 9.44
8/17/2023 3:30:00 AM 16.12 61.016 0.042 6.92 4.47 9.46
8/17/2023 3:45:00 AM 16.09 60.962 0.042 6.95 4.31 9.47
8/17/2023 4:00:00 AM 16.07 60.926 0.042 6.94 4.25 9.43
8/17/2023 4:15:00 AM 16.04 60.872 0.042 6.94 4.34 9.46
8/17/2023 4:30:00 AM 16.01 60.818 0.042 6.94 4.37 9.46
8/17/2023 4:45:00 AM 15.98 60.764 0.042 6.94 4.29 9.47
8/17/2023 5:00:00 AM 15.97 60.746 0.042 6.93 4.53 9.46
8/17/2023 5:15:00 AM 15.94 60.692 0.042 6.94 4.57 9.48
8/17/2023 5:30:00 AM 15.92 60.656 0.042 6.94 4.25 9.47
8/17/2023 5:45:00 AM 15.9 60.62 0.042 6.92 4.95 9.5
8/17/2023 6:00:00 AM 15.88 60.584 0.042 6.89 4.5 9.5
8/17/2023 6:15:00 AM 15.86 60.548 0.042 6.93 4.83 9.5
8/17/2023 6:30:00 AM 15.83 60.494 0.042 6.93 4.52 9.51
8/17/2023 6:45:00 AM 15.82 60.476 0.042 6.92 4.59 9.53
8/17/2023 7:00:00 AM 15.8 60.44 0.042 6.92 5.14 9.54
8/17/2023 7:15:00 AM 15.78 60.404 0.042 6.93 4.49 9.57
8/17/2023 7:30:00 AM 15.78 60.404 0.042 6.89 4.45 9.58
8/17/2023 7:45:00 AM 15.77 60.386 0.042 6.91 4.42 9.6
8/17/2023 8:00:00 AM 15.75 60.35 0.042 6.9 4.56 9.61
8/17/2023 8:15:00 AM 15.76 60.368 0.041 6.91 4.43 9.65
8/17/2023 8:30:00 AM 15.77 60.386 0.041 6.92 6.92 9.68
8/17/2023 8:45:00 AM 15.78 60.404 0.041 6.96 5.19 9.71
8/17/2023 9:00:00 AM 15.79 60.422 0.041 6.93 5.83 9.75
8/17/2023 9:15:00 AM 15.81 60.458 0.041 6.98 4.71 9.76
8/17/2023 9:30:00 AM 15.84 60.512 0.041 6.94 4.75 9.78
8/17/2023 9:45:00 AM 15.86 60.548 0.041 6.96 4.58 9.8
8/17/2023 10:00:00 AM 15.91 60.638 0.041 7.01 6.24 9.83
8/17/2023 10:15:00 AM 15.95 60.71 0.041 7.02 6.55 9.82
8/17/2023 10:30:00 AM 16 60.8 0.041 7.03 5.24 9.83
8/17/2023 10:45:00 AM 16.06 60.908 0.041 7.04 6.79 9.76
8/17/2023 11:00:00 AM 16.11 60.998 0.041 7.04 4.65 9.74
8/17/2023 11:15:00 AM 16.2 61.16 0.041 7.05 4.89 9.8
8/17/2023 11:30:00 AM 16.31 61.358 0.04 7.09 5.3 9.81
8/17/2023 11:45:00 AM 16.42 61.556 0.04 7.07 7.96 9.76
8/17/2023 12:00:00 PM 16.5 61.7 0.04 7.1 4.76 9.79
8/17/2023 12:15:00 PM 16.57 61.826 0.04 7.11 15.27 9.76
8/17/2023 12:30:00 PM 16.65 61.97 0.04 7.12 8.44 9.74
8/17/2023 12:45:00 PM 16.72 62.096 0.04 7.11 5.04 9.73
8/17/2023 1:00:00 PM 16.79 62.222 0.04 7.13 7.32 9.7
8/17/2023 1:15:00 PM 16.88 62.384 0.04 7.13 11.95 9.72
8/17/2023 1:30:00 PM 17.01 62.618 0.04 7.12 10.84 9.72
8/17/2023 1:45:00 PM 17.24 63.032 0.04 7.17 9.55 9.72
8/17/2023 2:00:00 PM 17.37 63.266 0.04 7.19 7.38 9.67
8/17/2023 2:15:00 PM 17.45 63.41 0.04 7.19 6.61 9.65
8/17/2023 2:30:00 PM 17.48 63.464 0.04 7.17 5.7 9.58
8/17/2023 2:45:00 PM 17.49 63.482 0.04 7.18 30.98 9.58
8/17/2023 3:00:00 PM 17.56 63.608 0.04 7.15 54.48 9.55
8/17/2023 3:15:00 PM 17.69 63.842 0.04 7.16 22.86 9.55
8/17/2023 3:30:00 PM 17.77 63.986 0.04 7.16 7.69 9.53
8/17/2023 3:45:00 PM 17.77 63.986 0.04 7.18 28.06 9.47
8/17/2023 4:00:00 PM 17.8 64.04 0.04 7.18 23.82 9.48
8/17/2023 4:15:00 PM 17.78 64.004 0.04 7.12 11.12 9.4
8/17/2023 4:30:00 PM 17.85 64.13 0.04 7.15 13.92 9.41
8/17/2023 4:45:00 PM 17.83 64.094 0.04 7.15 11.24 9.37
8/17/2023 5:00:00 PM 17.82 64.076 0.04 7.08 8.48 9.31
8/17/2023 5:15:00 PM 17.79 64.022 0.04 7.09 9.24 9.23
8/17/2023 5:30:00 PM 17.77 63.986 0.04 7.03 9.78 9.2
8/17/2023 5:45:00 PM 17.76 63.968 0.04 7.07 8.66 9.22
8/17/2023 6:00:00 PM 17.75 63.95 0.04 7.01 9.22 9.16
8/17/2023 6:15:00 PM 17.75 63.95 0.04 7.03 5.94 9.09
8/17/2023 6:30:00 PM 17.72 63.896 0.04 6.98 6.56 9.08
8/17/2023 6:45:00 PM 17.73 63.914 0.04 6.99 6.82 9.05
8/17/2023 7:00:00 PM 17.78 64.004 0.039 6.99 4.76 9.04
8/17/2023 7:15:00 PM 17.85 64.13 0.038 6.96 6.5 9.02
8/17/2023 7:30:00 PM 17.8 64.04 0.039 6.93 5.63 8.99
8/17/2023 7:45:00 PM 17.75 63.95 0.039 6.94 5.2 8.94
8/17/2023 8:00:00 PM 17.7 63.86 0.039 6.92 5.04 8.94
8/17/2023 8:15:00 PM 17.66 63.788 0.039 6.9 5.1 8.95
8/17/2023 8:30:00 PM 17.63 63.734 0.039 6.91 5.45 8.94
8/17/2023 8:45:00 PM 17.6 63.68 0.04 6.92 5.54 8.95
8/17/2023 9:00:00 PM 17.57 63.626 0.04 6.88 5.29 8.96
8/17/2023 9:15:00 PM 17.54 63.572 0.04 6.92 5.21 8.97
8/17/2023 9:30:00 PM 17.51 63.518 0.04 6.88 5.88 8.98
8/17/2023 9:45:00 PM 17.48 63.464 0.04 6.89 5.33 8.99
8/17/2023 10:00:00 PM 17.45 63.41 0.04 6.92 5.7 9
8/17/2023 10:15:00 PM 17.41 63.338 0.04 6.91 5.49 9
8/17/2023 10:30:00 PM 17.37 63.266 0.04 6.87 6.36 9
8/17/2023 10:45:00 PM 17.33 63.194 0.04 6.91 5.45 9
8/17/2023 11:00:00 PM 17.29 63.122 0.04 6.86 5.42 9.01
8/17/2023 11:15:00 PM 17.26 63.068 0.04 6.93 5.84 9
8/17/2023 11:30:00 PM 17.22 62.996 0.04 6.86 6.7 9.03
8/17/2023 11:45:00 PM 17.19 62.942 0.04 6.92 7.35 9
8/18/2023 12:00:00 AM 17.15 62.87 0.041 6.89 6.84 9.05
8/18/2023 12:15:00 AM 17.11 62.798 0.041 6.92 6.15 9.05
8/18/2023 12:30:00 AM 17.08 62.744 0.041 6.91 4.95 9.09
8/18/2023 12:45:00 AM 17.04 62.672 0.041 6.87 5.65 9.05
8/18/2023 1:00:00 AM 17 62.6 0.041 6.9 4.88 9.1
8/18/2023 1:15:00 AM 16.97 62.546 0.041 6.94 5.81 9.11
8/18/2023 1:30:00 AM 16.91 62.438 0.041 6.91 5.25 9.13
8/18/2023 1:45:00 AM 16.85 62.33 0.041 6.9 5.63 9.11
8/18/2023 2:00:00 AM 16.79 62.222 0.041 6.91 4.69 9.18
8/18/2023 2:15:00 AM 16.72 62.096 0.041 6.91 5.38 9.15
8/18/2023 2:30:00 AM 16.65 61.97 0.041 6.91 4.88 9.16
8/18/2023 2:45:00 AM 16.59 61.862 0.041 6.94 9.1 9.19
8/18/2023 3:00:00 AM 16.53 61.754 0.041 6.96 4.95 9.17
8/18/2023 3:15:00 AM 16.47 61.646 0.041 6.95 4.83 9.21
8/18/2023 3:30:00 AM 16.41 61.538 0.041 6.94 6.22 9.23
8/18/2023 3:45:00 AM 16.36 61.448 0.041 6.95 5.06 9.23
8/18/2023 4:00:00 AM 16.3 61.34 0.041 6.93 4.54 9.22
8/18/2023 4:15:00 AM 16.25 61.25 0.041 6.92 4.62 9.27
8/18/2023 4:30:00 AM 16.21 61.178 0.041 6.89 4.65 9.26
8/18/2023 4:45:00 AM 16.16 61.088 0.041 6.94 4.8 9.31
8/18/2023 5:00:00 AM 16.12 61.016 0.041 6.92 606.57 9.29
8/18/2023 5:15:00 AM 16.08 60.944 0.041 6.94 4.99 9.32
8/18/2023 5:30:00 AM 16.03 60.854 0.041 6.93 4.53 9.35
8/18/2023 5:45:00 AM 15.99 60.782 0.041 6.87 5.26 9.34
8/18/2023 6:00:00 AM 15.95 60.71 0.041 6.92 4.6 9.36
8/18/2023 6:15:00 AM 15.91 60.638 0.041 6.87 5.27 9.38
8/18/2023 6:30:00 AM 15.88 60.584 0.041 6.92 4.69 9.39
8/18/2023 6:45:00 AM 15.85 60.53 0.041 6.9 4.56 9.4
8/18/2023 7:00:00 AM 15.8 60.44 0.041 6.91 5.68 9.43
8/18/2023 7:15:00 AM 15.76 60.368 0.041 6.86 4.5 9.44
8/18/2023 7:30:00 AM 15.73 60.314 0.041 6.92 4.73 9.46
8/18/2023 7:45:00 AM 15.71 60.278 0.041 6.9 4.66 9.51
8/18/2023 8:00:00 AM 15.7 60.26 0.04 6.94 4.39 9.55
8/18/2023 8:15:00 AM 15.69 60.242 0.041 6.92 4.58 9.54
8/18/2023 8:30:00 AM 15.67 60.206 0.041 6.88 4.35 9.54
8/18/2023 8:45:00 AM 15.65 60.17 0.04 6.91 4.56 9.51
8/18/2023 9:00:00 AM 15.65 60.17 0.04 6.93 4.62 9.6
8/18/2023 9:15:00 AM 15.65 60.17 0.04 6.93 4.33 9.65
8/18/2023 9:30:00 AM 15.66 60.188 0.04 6.9 4.29 9.66
8/18/2023 9:45:00 AM 15.64 60.152 0.04 6.91 4.41 9.64
8/18/2023 10:00:00 AM 15.63 60.134 0.04 6.95 4.59 9.64
8/18/2023 10:15:00 AM 15.62 60.116 0.04 6.95 4.22 9.63
8/18/2023 10:30:00 AM 15.63 60.134 0.04 6.93 4.35 9.66
8/18/2023 10:45:00 AM 15.63 60.134 0.04 6.96 4.3 9.67
8/18/2023 11:00:00 AM 15.67 60.206 0.04 6.94 4.53 9.69
8/18/2023 11:15:00 AM 15.7 60.26 0.04 6.93 4.4 9.7
8/18/2023 11:30:00 AM 15.76 60.368 0.04 7 4.59 9.72
8/18/2023 11:45:00 AM 15.85 60.53 0.04 6.99 4.14 9.72
8/18/2023 12:00:00 PM 15.93 60.674 0.04 7 4.56 9.75
8/18/2023 12:15:00 PM 16.03 60.854 0.04 7 4.03 9.76
8/18/2023 12:30:00 PM 16.16 61.088 0.04 6.98 4.15 9.73
8/18/2023 12:45:00 PM 16.32 61.376 0.04 7.04 4.5 9.74
8/18/2023 1:00:00 PM 16.38 61.484 0.039 7.08 4.49 9.76
8/18/2023 1:15:00 PM 16.46 61.628 0.039 7.06 4.14 9.74
8/18/2023 1:30:00 PM 16.55 61.79 0.039 7.09 4.27 9.73
8/18/2023 1:45:00 PM 16.61 61.898 0.039 7.08 4.09 9.72
8/18/2023 2:00:00 PM 16.69 62.042 0.04 7.04 4.26 9.71
8/18/2023 2:15:00 PM 16.75 62.15 0.039 7.08 4.3 9.66
8/18/2023 2:30:00 PM 16.86 62.348 0.039 7.08 4.21 9.66
8/18/2023 2:45:00 PM 16.8 62.24 0.039 7.08 4.4 9.62
8/18/2023 3:00:00 PM 16.83 62.294 0.039 7.08 4.34 9.63
8/18/2023 3:15:00 PM 16.94 62.492 0.039 7.09 4.23 9.65
8/18/2023 3:30:00 PM 16.89 62.402 0.039 7.09 4.47 9.6
8/18/2023 3:45:00 PM 16.98 62.564 0.039 7.06 4.54 9.6
8/18/2023 4:00:00 PM 16.93 62.474 0.039 7.06 4.19 9.56
8/18/2023 4:15:00 PM 16.97 62.546 0.039 7.11 4.33 9.58
8/18/2023 4:30:00 PM 16.99 62.582 0.039 7.06 4.4 9.56
8/18/2023 4:45:00 PM 16.98 62.564 0.039 7.07 4.13 9.52
8/18/2023 5:00:00 PM 16.95 62.51 0.039 7 3.97 9.5
8/18/2023 5:15:00 PM 16.93 62.474 0.039 7.02 4.33 9.49
8/18/2023 5:30:00 PM 16.89 62.402 0.04 7.01 4.34 9.46
8/18/2023 5:45:00 PM 16.87 62.366 0.04 7 4.16 9.43
8/18/2023 6:00:00 PM 16.83 62.294 0.04 6.97 4.08 9.38
8/18/2023 6:15:00 PM 16.8 62.24 0.04 6.96 4.14 9.35
8/18/2023 6:30:00 PM 16.77 62.186 0.04 7.01 4.28 9.34
8/18/2023 6:45:00 PM 16.74 62.132 0.04 6.94 4.11 9.33
8/18/2023 7:00:00 PM 16.71 62.078 0.04 6.99 4.04 9.33
8/18/2023 7:15:00 PM 16.67 62.006 0.04 6.98 4.22 9.32
8/18/2023 7:30:00 PM 16.63 61.934 0.04 6.97 3.99 9.31
8/18/2023 7:45:00 PM 16.59 61.862 0.04 6.96 3.85 9.33
8/18/2023 8:00:00 PM 16.55 61.79 0.04 6.96 4.15 9.31
8/18/2023 8:15:00 PM 16.49 61.682 0.04 6.96 4.03 9.31
8/18/2023 8:30:00 PM 16.44 61.592 0.04 6.9 4.29 9.31
8/18/2023 8:45:00 PM 16.36 61.448 0.041 6.96 4.4 9.34
8/18/2023 9:00:00 PM 16.28 61.304 0.041 6.91 4.62 9.36
8/18/2023 9:15:00 PM 16.22 61.196 0.041 6.96 4.26 9.35
8/18/2023 9:30:00 PM 16.15 61.07 0.041 6.87 4.64 9.38
8/18/2023 9:45:00 PM 16.08 60.944 0.041 6.95 3.91 9.39
8/18/2023 10:00:00 PM 16.01 60.818 0.041 6.96 3.98 9.41
8/18/2023 10:15:00 PM 15.94 60.692 0.041 6.94 4.15 9.43
8/18/2023 10:30:00 PM 15.87 60.566 0.041 6.9 4.22 9.45
8/18/2023 10:45:00 PM 15.8 60.44 0.041 6.88 4.26 9.48
8/18/2023 11:00:00 PM 15.75 60.35 0.041 6.95 3.88 9.46
8/18/2023 11:15:00 PM 15.67 60.206 0.041 6.94 4.26 9.51
8/18/2023 11:30:00 PM 15.62 60.116 0.041 6.88 4.31 9.53
8/18/2023 11:45:00 PM 15.57 60.026 0.041 6.89 3.94 9.56
8/19/2023 12:00:00 AM 15.53 59.954 0.041 6.93 4.14 9.55
8/19/2023 12:15:00 AM 15.48 59.864 0.041 6.88 3.91 9.55
8/19/2023 12:30:00 AM 15.41 59.738 0.041 6.9 4.02 9.58
8/19/2023 12:45:00 AM 15.34 59.612 0.041 6.89 4.05 9.61
8/19/2023 1:00:00 AM 15.29 59.522 0.041 6.89 3.97 9.6
8/19/2023 1:15:00 AM 15.23 59.414 0.041 6.93 4.05 9.62
8/19/2023 1:30:00 AM 15.15 59.27 0.041 6.86 4.59 9.64
8/19/2023 1:45:00 AM 15.07 59.126 0.041 6.93 4.21 9.69
8/19/2023 2:00:00 AM 15 59 0.041 6.9 4.44 9.69
8/19/2023 2:15:00 AM 14.93 58.874 0.041 6.85 4.08 9.71
8/19/2023 2:30:00 AM 14.87 58.766 0.041 6.91 4.03 9.72
8/19/2023 2:45:00 AM 14.8 58.64 0.041 6.9 4.24 9.75
8/19/2023 3:00:00 AM 14.73 58.514 0.041 6.84 4.15 9.76
8/19/2023 3:15:00 AM 14.65 58.37 0.041 6.87 4.12 9.81
8/19/2023 3:30:00 AM 14.59 58.262 0.041 6.87 3.98 9.82
8/19/2023 3:45:00 AM 14.53 58.154 0.041 6.89 4.15 9.82
8/19/2023 4:00:00 AM 14.45 58.01 0.041 6.88 4.14 9.85
8/19/2023 4:15:00 AM 14.39 57.902 0.041 6.88 4.21 9.87
8/19/2023 4:30:00 AM 14.33 57.794 0.041 6.89 4.42 9.89
8/19/2023 4:45:00 AM 14.27 57.686 0.041 6.88 4.34 9.9
8/19/2023 5:00:00 AM 14.2 57.56 0.041 6.88 3.97 9.92
8/19/2023 5:15:00 AM 14.15 57.47 0.041 6.84 4.18 9.93
8/19/2023 5:30:00 AM 14.09 57.362 0.041 6.84 4.14 9.95
8/19/2023 5:45:00 AM 14.03 57.254 0.041 6.82 4.23 9.97
8/19/2023 6:00:00 AM 13.98 57.164 0.041 6.86 4.37 9.97
8/19/2023 6:15:00 AM 13.92 57.056 0.041 6.87 4.48 9.99
8/19/2023 6:30:00 AM 13.87 56.966 0.041 6.87 4.2 10.02
8/19/2023 6:45:00 AM 13.82 56.876 0.041 6.87 4.06 10.03
8/19/2023 7:00:00 AM 13.79 56.822 0.041 6.86 4.4 10.03
8/19/2023 7:15:00 AM 13.75 56.75 0.041 6.86 4.19 10.07
8/19/2023 7:30:00 AM 13.73 56.714 0.041 6.83 4.14 10.09
8/19/2023 7:45:00 AM 14.04 57.272 0.04 6.88 4.4 9.98
8/19/2023 8:00:00 AM 14 57.2 0.04 6.87 4.18 10
8/19/2023 8:15:00 AM 13.98 57.164 0.04 6.89 5.3 10.02
8/19/2023 8:30:00 AM 13.94 57.092 0.04 6.9 4.05 10.05
8/19/2023 8:45:00 AM 13.92 57.056 0.04 6.9 4.23 10.05
8/19/2023 9:00:00 AM 13.9 57.02 0.04 6.89 4.03 10.06
8/19/2023 9:15:00 AM 13.9 57.02 0.04 6.87 4.53 10.07
8/19/2023 9:30:00 AM 13.91 57.038 0.04 6.92 3.92 10.08
8/19/2023 9:45:00 AM 13.92 57.056 0.04 6.93 4.05 10.1
8/19/2023 10:00:00 AM 13.95 57.11 0.04 6.93 4.03 10.1
8/19/2023 10:15:00 AM 13.99 57.182 0.04 6.94 4.3 10.13
8/19/2023 10:30:00 AM 14.05 57.29 0.04 6.96 4.35 10.15
8/19/2023 10:45:00 AM 14.11 57.398 0.04 6.96 4.07 10.15
8/19/2023 11:00:00 AM 14.18 57.524 0.04 7 3.93 10.15
8/19/2023 11:15:00 AM 14.27 57.686 0.04 6.98 4.11 10.16
8/19/2023 11:30:00 AM 14.38 57.884 0.039 7.03 4.51 10.16
8/19/2023 11:45:00 AM 14.5 58.1 0.039 7.01 4.63 10.17
8/19/2023 12:00:00 PM 14.65 58.37 0.039 7.05 4.15 10.16
8/19/2023 12:15:00 PM 14.81 58.658 0.039 7.04 3.92 10.15
8/19/2023 12:30:00 PM 14.98 58.964 0.039 7.07 4.09 10.13
8/19/2023 12:45:00 PM 15.17 59.306 0.039 7.11 4.52 10.13
8/19/2023 1:00:00 PM 15.36 59.648 0.039 7.12 5.82 10.11
8/19/2023 1:15:00 PM 15.56 60.008 0.039 7.12 4.41 10.09
8/19/2023 1:30:00 PM 15.75 60.35 0.039 7.14 4.67 10.06
8/19/2023 1:45:00 PM 15.94 60.692 0.039 7.16 4.14 10.03
8/19/2023 2:00:00 PM 16.09 60.962 0.039 7.15 4.82 10
8/19/2023 2:15:00 PM 16.25 61.25 0.039 7.19 6.39 9.97
8/19/2023 2:30:00 PM 16.38 61.484 0.039 7.22 7.84 9.95
8/19/2023 2:45:00 PM 16.5 61.7 0.039 7.2 5.26 9.9
8/19/2023 3:00:00 PM 16.57 61.826 0.039 7.15 8.6 9.87
8/19/2023 3:15:00 PM 16.63 61.934 0.039 7.2 7.9 9.83
8/19/2023 3:30:00 PM 16.68 62.024 0.039 7.19 9.06 9.81
8/19/2023 3:45:00 PM 16.72 62.096 0.039 7.16 11.31 9.76
8/19/2023 4:00:00 PM 16.76 62.168 0.039 7.18 5.66 9.74
8/19/2023 4:15:00 PM 16.77 62.186 0.039 7.16 10.71 9.71
8/19/2023 4:30:00 PM 16.8 62.24 0.039 7.16 13.05 9.67
8/19/2023 4:45:00 PM 16.81 62.258 0.039 7.12 8.37 9.64
8/19/2023 5:00:00 PM 16.81 62.258 0.039 7.12 8.15 9.6
8/19/2023 5:15:00 PM 16.81 62.258 0.039 7.12 10.19 9.57
8/19/2023 5:30:00 PM 16.8 62.24 0.039 7.05 13.25 9.54
8/19/2023 5:45:00 PM 16.78 62.204 0.039 7.07 15.53 9.53
8/19/2023 6:00:00 PM 16.76 62.168 0.039 7.04 17.25 9.5
8/19/2023 6:15:00 PM 16.72 62.096 0.039 7.08 11.33 9.49
8/19/2023 6:30:00 PM 16.68 62.024 0.039 7.02 12.02 9.49
8/19/2023 6:45:00 PM 16.65 61.97 0.039 7.06 9.74 9.47
8/19/2023 7:00:00 PM 16.63 61.934 0.04 7.05 4.78 9.45
8/19/2023 7:15:00 PM 16.6 61.88 0.04 7.05 6.52 9.44
8/19/2023 7:30:00 PM 16.58 61.844 0.04 7.04 41.22 9.44
8/19/2023 7:45:00 PM 16.56 61.808 0.04 7.02 10.57 9.44
8/19/2023 8:00:00 PM 16.54 61.772 0.04 7.04 15.52 9.42
8/19/2023 8:15:00 PM 16.52 61.736 0.04 7.03 67.28 9.41
8/19/2023 8:30:00 PM 16.49 61.682 0.04 7.02 6.7 9.39
8/19/2023 8:45:00 PM 16.46 61.628 0.04 7.01 12.12 9.39
8/19/2023 9:00:00 PM 16.43 61.574 0.04 6.97 5.65 9.4
8/19/2023 9:15:00 PM 16.39 61.502 0.04 7.01 27.15 9.4
8/19/2023 9:30:00 PM 16.35 61.43 0.04 7.01 5.13 9.42
8/19/2023 9:45:00 PM 16.31 61.358 0.04 7 6.61 9.42
8/19/2023 10:00:00 PM 16.26 61.268 0.04 6.98 5.83 9.42
8/19/2023 10:15:00 PM 16.21 61.178 0.04 7 13.55 9.43
8/19/2023 10:30:00 PM 16.16 61.088 0.04 6.95 5.76 9.45
8/19/2023 10:45:00 PM 16.11 60.998 0.04 6.96 8.19 9.46
8/19/2023 11:00:00 PM 16.06 60.908 0.04 6.99 6.82 9.48
8/19/2023 11:15:00 PM 16 60.8 0.04 6.99 6.07 9.49
8/19/2023 11:30:00 PM 15.95 60.71 0.04 6.99 99.45 9.5
8/19/2023 11:45:00 PM 15.89 60.602 0.04 6.98 4.88 9.51
8/20/2023 12:00:00 AM 15.83 60.494 0.04 6.98 37.42 9.53
8/20/2023 12:15:00 AM 15.77 60.386 0.04 6.97 63.1 9.55
8/20/2023 12:30:00 AM 15.71 60.278 0.04 6.99 7.17 9.57
8/20/2023 12:45:00 AM 15.65 60.17 0.04 6.99 12.31 9.58
8/20/2023 1:00:00 AM 15.59 60.062 0.04 6.98 7.3 9.59
8/20/2023 1:15:00 AM 15.53 59.954 0.04 6.98 6.64 9.6
8/20/2023 1:30:00 AM 15.47 59.846 0.041 6.92 11.09 9.61
8/20/2023 1:45:00 AM 15.41 59.738 0.041 6.98 9.49 9.63
8/20/2023 2:00:00 AM 15.34 59.612 0.041 6.94 11.75 9.65
8/20/2023 2:15:00 AM 15.28 59.504 0.041 6.96 5.57 9.67
8/20/2023 2:30:00 AM 15.22 59.396 0.041 6.97 6.7 9.68
8/20/2023 2:45:00 AM 15.15 59.27 0.041 6.95 12.02 9.7
8/20/2023 3:00:00 AM 15.1 59.18 0.041 6.96 141.45 9.71
8/20/2023 3:15:00 AM 15.04 59.072 0.041 6.96 84.86 9.73
8/20/2023 3:30:00 AM 14.99 58.982 0.041 6.96 10.95 9.74
8/20/2023 3:45:00 AM 14.93 58.874 0.041 6.95 26.24 9.74
8/20/2023 4:00:00 AM 14.87 58.766 0.041 6.9 33.52 9.76
8/20/2023 4:15:00 AM 14.81 58.658 0.041 6.94 8.44 9.78
8/20/2023 4:30:00 AM 14.76 58.568 0.041 6.93 39.75 9.79
8/20/2023 4:45:00 AM 14.71 58.478 0.04 6.89 81.2 9.81
8/20/2023 5:00:00 AM 14.67 58.406 0.04 6.93 6.53 9.82
8/20/2023 5:15:00 AM 14.62 58.316 0.04 6.92 6.04 9.83
8/20/2023 5:30:00 AM 14.58 58.244 0.04 6.92 139.48 9.84
8/20/2023 5:45:00 AM 14.53 58.154 0.04 6.92 86.84 9.86
8/20/2023 6:00:00 AM 14.49 58.082 0.04 6.92 7.06 9.87
8/20/2023 6:15:00 AM 14.44 57.992 0.04 6.91 13.19 9.88
8/20/2023 6:30:00 AM 14.4 57.92 0.04 6.91 10.79 9.89
8/20/2023 6:45:00 AM 14.37 57.866 0.04 6.87 5.71 9.91
8/20/2023 7:00:00 AM 14.33 57.794 0.04 6.91 5.26 9.93
8/20/2023 7:15:00 AM 14.3 57.74 0.04 6.89 5.38 9.95
8/20/2023 7:30:00 AM 14.27 57.686 0.04 6.89 4.71 9.98
8/20/2023 7:45:00 AM 14.24 57.632 0.04 6.93 5.25 10
8/20/2023 8:00:00 AM 14.22 57.596 0.04 6.93 7.15 10.02
8/20/2023 8:15:00 AM 14.19 57.542 0.04 6.94 9.3 10.05
8/20/2023 8:30:00 AM 14.17 57.506 0.04 6.92 13.17 10.07
8/20/2023 8:45:00 AM 14.15 57.47 0.04 6.95 4.78 10.09
8/20/2023 9:00:00 AM 14.13 57.434 0.04 6.95 7.5 10.1
8/20/2023 9:15:00 AM 14.12 57.416 0.04 6.96 6.96 10.12
8/20/2023 9:30:00 AM 14.11 57.398 0.04 6.97 7 10.16
8/20/2023 9:45:00 AM 14.13 57.434 0.04 6.96 8.49 10.17
8/20/2023 10:00:00 AM 14.15 57.47 0.04 6.95 6.45 10.18
8/20/2023 10:15:00 AM 14.18 57.524 0.04 6.99 10.39 10.19
8/20/2023 10:30:00 AM 14.24 57.632 0.04 7 10.01 10.21
8/20/2023 10:45:00 AM 14.29 57.722 0.04 7 4.41 10.23
8/20/2023 11:00:00 AM 14.37 57.866 0.039 7.03 5.7 10.23
8/20/2023 11:15:00 AM 14.46 58.028 0.039 7.04 6.02 10.23
8/20/2023 11:30:00 AM 14.57 58.226 0.039 7 8.44 10.22
8/20/2023 11:45:00 AM 14.7 58.46 0.039 7.07 9.91 10.21
8/20/2023 12:00:00 PM 14.85 58.73 0.039 7.09 6.03 10.21
8/20/2023 12:15:00 PM 15.02 59.036 0.039 7.07 7.7 10.19
8/20/2023 12:30:00 PM 15.2 59.36 0.039 7.12 6.42 10.17
8/20/2023 12:45:00 PM 15.4 59.72 0.039 7.13 13.64 10.17
8/20/2023 1:00:00 PM 15.61 60.098 0.039 7.16 8.56 10.17
8/20/2023 1:15:00 PM 15.8 60.44 0.039 7.19 4.29 10.14
8/20/2023 1:30:00 PM 16 60.8 0.039 7.2 20.17 10.1
8/20/2023 1:45:00 PM 16.21 61.178 0.039 7.19 5.36 10.05
8/20/2023 2:00:00 PM 16.37 61.466 0.039 7.17 8.39 10.01
8/20/2023 2:15:00 PM 16.54 61.772 0.039 7.23 11.3 9.99
8/20/2023 2:30:00 PM 16.68 62.024 0.039 7.22 5.37 9.94
8/20/2023 2:45:00 PM 16.78 62.204 0.039 7.22 4.74 9.91
8/20/2023 3:00:00 PM 16.88 62.384 0.039 7.17 30.77 9.86
8/20/2023 3:15:00 PM 16.94 62.492 0.039 7.22 81.52 9.82
8/20/2023 3:30:00 PM 17.01 62.618 0.039 7.21 9.84 9.79
8/20/2023 3:45:00 PM 17.08 62.744 0.039 7.2 109.65 9.75
8/20/2023 4:00:00 PM 17.13 62.834 0.039 7.2 34.54 9.72
8/20/2023 4:15:00 PM 17.15 62.87 0.039 7.2 7.41 9.66
8/20/2023 4:30:00 PM 17.15 62.87 0.039 7.18 11.63 9.64
8/20/2023 4:45:00 PM 17.16 62.888 0.039 7.1 89.45 9.64
8/20/2023 5:00:00 PM 17.16 62.888 0.039 7.16 65.84 9.63
8/20/2023 5:15:00 PM 17.17 62.906 0.039 7.14 7.25 9.62
8/20/2023 5:30:00 PM 17.18 62.924 0.039 7.14 5.82 9.61
8/20/2023 5:45:00 PM 17.18 62.924 0.039 7.07 7.53 9.56
8/20/2023 6:00:00 PM 17.17 62.906 0.039 7.11 5.36 9.52
8/20/2023 6:15:00 PM 17.14 62.852 0.039 7.09 6.22 9.48
8/20/2023 6:30:00 PM 17.11 62.798 0.039 7.05 5.66 9.43
8/20/2023 6:45:00 PM 17.09 62.762 0.039 7.04 6.29 9.4
8/20/2023 7:00:00 PM 17.08 62.744 0.039 7.03 5.75 9.37
8/20/2023 7:15:00 PM 17.07 62.726 0.039 7.01 5.93 9.35
8/20/2023 7:30:00 PM 17.07 62.726 0.04 7 6.42 9.32
8/20/2023 7:45:00 PM 17.07 62.726 0.04 6.98 4.98 9.31
8/20/2023 8:00:00 PM 17.06 62.708 0.04 6.97 7.59 9.3
8/20/2023 8:15:00 PM 17.05 62.69 0.04 6.97 7.3 9.28
8/20/2023 8:30:00 PM 17.04 62.672 0.04 6.97 7.43 9.27
8/20/2023 8:45:00 PM 17.02 62.636 0.04 6.96 7.39 9.23
8/20/2023 9:00:00 PM 17 62.6 0.04 6.94 6.05 9.25
8/20/2023 9:15:00 PM 16.98 62.564 0.04 6.96 6.62 9.26
8/20/2023 9:30:00 PM 16.96 62.528 0.04 6.94 6.63 9.22
8/20/2023 9:45:00 PM 16.93 62.474 0.04 6.94 8.34 9.22
8/20/2023 10:00:00 PM 16.91 62.438 0.04 6.95 6.26 9.23
8/20/2023 10:15:00 PM 16.88 62.384 0.041 6.95 6.6 9.25
8/20/2023 10:30:00 PM 16.85 62.33 0.041 6.96 7.15 9.27
8/20/2023 10:45:00 PM 16.82 62.276 0.041 6.96 7.66 9.26
8/20/2023 11:00:00 PM 16.79 62.222 0.041 6.96 7.9 9.28
8/20/2023 11:15:00 PM 16.76 62.168 0.041 6.96 7.57 9.28
8/20/2023 11:30:00 PM 16.73 62.114 0.041 6.96 7.83 9.31
8/20/2023 11:45:00 PM 16.69 62.042 0.041 6.95 6.27 9.28
8/21/2023 12:00:00 AM 16.66 61.988 0.041 6.96 7.72 9.32
8/21/2023 12:15:00 AM 16.62 61.916 0.041 6.91 6.67 9.35
8/21/2023 12:30:00 AM 16.58 61.844 0.041 6.96 7.24 9.36
8/21/2023 12:45:00 AM 16.55 61.79 0.041 6.96 7.25 9.39
8/21/2023 1:00:00 AM 16.51 61.718 0.041 6.96 8.69 9.38
8/21/2023 1:15:00 AM 16.47 61.646 0.041 6.96 8.92 9.36
8/21/2023 1:30:00 AM 16.44 61.592 0.041 6.9 9.02 9.42
8/21/2023 1:45:00 AM 16.4 61.52 0.041 6.95 6.19 9.42
8/21/2023 2:00:00 AM 16.36 61.448 0.041 6.95 4.54 9.41
8/21/2023 2:15:00 AM 16.33 61.394 0.041 6.95 5.39 9.44
8/21/2023 2:30:00 AM 16.29 61.322 0.041 6.92 7.67 9.45
8/21/2023 2:45:00 AM 16.25 61.25 0.041 6.95 8.83 9.44
8/21/2023 3:00:00 AM 16.21 61.178 0.041 6.95 10.13 9.47
8/21/2023 3:15:00 AM 16.16 61.088 0.041 6.94 7.3 9.48
8/21/2023 3:30:00 AM 16.13 61.034 0.041 6.95 8.78 9.48
8/21/2023 3:45:00 AM 16.09 60.962 0.041 6.96 3.06 9.51
8/21/2023 4:00:00 AM 16.06 60.908 0.041 6.95 2.82 9.51
8/21/2023 4:15:00 AM 16.03 60.854 0.041 6.91 2.89 9.52
8/21/2023 4:30:00 AM 16 60.8 0.041 6.95 2.8 9.53
8/21/2023 4:45:00 AM 15.96 60.728 0.041 6.93 2.8 9.53
8/21/2023 5:00:00 AM 15.93 60.674 0.041 6.92 2.71 9.54
8/21/2023 5:15:00 AM 15.9 60.62 0.041 6.94 2.92 9.56
8/21/2023 5:30:00 AM 15.86 60.548 0.041 6.94 2.92 9.57
8/21/2023 5:45:00 AM 15.84 60.512 0.041 6.9 2.89 9.57
8/21/2023 6:00:00 AM 15.8 60.44 0.041 6.94 2.81 9.58
8/21/2023 6:15:00 AM 15.78 60.404 0.041 6.93 2.86 9.58
8/21/2023 6:30:00 AM 15.74 60.332 0.041 6.91 2.94 9.6
8/21/2023 6:45:00 AM 15.71 60.278 0.041 6.93 2.87 9.61
8/21/2023 7:00:00 AM 15.68 60.224 0.041 6.89 2.99 9.62
8/21/2023 7:15:00 AM 15.66 60.188 0.041 6.95 3.09 9.65
8/21/2023 7:30:00 AM 15.63 60.134 0.041 6.92 2.93 9.67
8/21/2023 7:45:00 AM 15.62 60.116 0.041 6.94 2.82 9.7
8/21/2023 8:00:00 AM 15.61 60.098 0.041 6.95 2.87 9.73
8/21/2023 8:15:00 AM 15.6 60.08 0.041 6.91 2.7 9.77
8/21/2023 8:30:00 AM 15.6 60.08 0.041 6.94 2.8 9.78
8/21/2023 8:45:00 AM 15.6 60.08 0.041 6.97 2.79 9.82
8/21/2023 9:00:00 AM 15.6 60.08 0.04 6.97 2.79 9.84
8/21/2023 9:15:00 AM 15.61 60.098 0.04 6.97 2.7 9.86
8/21/2023 9:30:00 AM 15.62 60.116 0.04 6.93 2.68 9.87
8/21/2023 9:45:00 AM 15.63 60.134 0.04 6.95 2.63 9.89
8/21/2023 10:00:00 AM 15.66 60.188 0.04 6.98 2.69 9.91
8/21/2023 10:15:00 AM 15.7 60.26 0.04 6.98 2.79 9.94
8/21/2023 10:30:00 AM 15.75 60.35 0.04 6.99 2.66 9.97
8/21/2023 10:45:00 AM 15.81 60.458 0.04 7.02 2.67 9.99
8/21/2023 11:00:00 AM 15.88 60.584 0.04 7.03 2.69 10
8/21/2023 11:15:00 AM 15.96 60.728 0.04 7.03 2.8 10.01
8/21/2023 11:30:00 AM 16.04 60.872 0.04 7.04 2.75 10.01
8/21/2023 11:45:00 AM 16.13 61.034 0.04 7.1 2.74 10
8/21/2023 12:00:00 PM 16.26 61.268 0.04 7.1 2.83 9.98
8/21/2023 12:15:00 PM 16.4 61.52 0.039 7.11 2.61 9.98
8/21/2023 12:30:00 PM 16.54 61.772 0.039 7.11 2.82 9.96
8/21/2023 12:45:00 PM 16.68 62.024 0.039 7.17 2.78 9.96
8/21/2023 1:00:00 PM 16.81 62.258 0.039 7.16 2.98 9.93
8/21/2023 1:15:00 PM 16.83 62.294 0.039 7.12 2.83 9.86
8/21/2023 1:30:00 PM 16.88 62.384 0.039 7.16 2.87 9.84
8/21/2023 1:45:00 PM 16.97 62.546 0.039 7.15 2.78 9.85
8/21/2023 2:00:00 PM 17.1 62.78 0.039 7.16 2.8 9.85
8/21/2023 2:15:00 PM 17.28 63.104 0.039 7.19 2.82 9.82
8/21/2023 2:30:00 PM 17.45 63.41 0.039 7.21 2.73 9.82
8/21/2023 2:45:00 PM 17.55 63.59 0.039 7.21 2.77 9.76
8/21/2023 3:00:00 PM 17.63 63.734 0.039 7.21 2.85 9.73
8/21/2023 3:15:00 PM 17.69 63.842 0.039 7.17 2.86 9.67
8/21/2023 3:30:00 PM 17.78 64.004 0.039 7.2 2.79 9.66
8/21/2023 3:45:00 PM 17.94 64.292 0.039 7.22 2.79 9.65
8/21/2023 4:00:00 PM 17.99 64.382 0.039 7.22 2.85 9.6
8/21/2023 4:15:00 PM 18.07 64.526 0.039 7.21 2.88 9.56
8/21/2023 4:30:00 PM 18.12 64.616 0.039 7.19 2.91 9.52
8/21/2023 4:45:00 PM 18.16 64.688 0.039 7.2 2.82 9.49
8/21/2023 5:00:00 PM 18.19 64.742 0.039 7.18 2.89 9.47
8/21/2023 5:15:00 PM 18.2 64.76 0.039 7.16 2.79 9.44
8/21/2023 5:30:00 PM 18.2 64.76 0.039 7.13 2.9 9.41
8/21/2023 5:45:00 PM 18.19 64.742 0.039 7.08 2.77 9.36
8/21/2023 6:00:00 PM 18.17 64.706 0.039 7.11 3 9.34
8/21/2023 6:15:00 PM 18.15 64.67 0.039 7.07 2.85 9.3
8/21/2023 6:30:00 PM 18.12 64.616 0.039 7.06 2.82 9.28
8/21/2023 6:45:00 PM 18.1 64.58 0.04 7.03 2.72 9.26
8/21/2023 7:00:00 PM 18.08 64.544 0.04 7.04 2.82 9.23
8/21/2023 7:15:00 PM 18.05 64.49 0.04 7.02 2.93 9.21
8/21/2023 7:30:00 PM 18.03 64.454 0.04 7.01 2.9 9.18
8/21/2023 7:45:00 PM 18.01 64.418 0.04 6.97 2.9 9.16
8/21/2023 8:00:00 PM 17.99 64.382 0.04 6.97 2.88 9.13
8/21/2023 8:15:00 PM 17.96 64.328 0.04 6.96 3.04 9.12
8/21/2023 8:30:00 PM 17.93 64.274 0.04 6.93 2.82 9.1
8/21/2023 8:45:00 PM 17.9 64.22 0.041 6.91 2.99 9.11
8/21/2023 9:00:00 PM 17.86 64.148 0.041 6.94 2.92 9.09
8/21/2023 9:15:00 PM 17.83 64.094 0.041 6.9 3.01 9.1
8/21/2023 9:30:00 PM 17.8 64.04 0.041 6.91 2.99 9.11
8/21/2023 9:45:00 PM 17.76 63.968 0.041 6.96 3.07 9.07
8/21/2023 10:00:00 PM 17.73 63.914 0.041 6.91 3.05 9.11
8/21/2023 10:15:00 PM 17.69 63.842 0.041 6.93 2.85 9.13
8/21/2023 10:30:00 PM 17.66 63.788 0.041 6.94 2.85 9.14
8/21/2023 10:45:00 PM 17.63 63.734 0.041 6.98 2.86 9.15
8/21/2023 11:00:00 PM 17.59 63.662 0.041 6.97 2.91 9.16
8/21/2023 11:15:00 PM 17.55 63.59 0.041 6.97 2.99 9.17
8/21/2023 11:30:00 PM 17.51 63.518 0.041 6.99 2.96 9.18
8/21/2023 11:45:00 PM 17.47 63.446 0.041 6.98 2.93 9.19
8/22/2023 12:00:00 AM 17.42 63.356 0.041 6.94 2.86 9.2
8/22/2023 12:15:00 AM 17.38 63.284 0.041 6.97 3.1 9.21
8/22/2023 12:30:00 AM 17.33 63.194 0.041 6.98 2.86 9.22
8/22/2023 12:45:00 AM 17.29 63.122 0.041 6.98 2.84 9.23
8/22/2023 1:00:00 AM 17.24 63.032 0.041 6.98 2.86 9.23
8/22/2023 1:15:00 AM 17.19 62.942 0.041 6.93 2.95 9.26
8/22/2023 1:30:00 AM 17.15 62.87 0.041 6.97 2.88 9.26
8/22/2023 1:45:00 AM 17.11 62.798 0.041 6.99 2.93 9.26
8/22/2023 2:00:00 AM 17.07 62.726 0.041 6.98 2.87 9.27
8/22/2023 2:15:00 AM 17.03 62.654 0.041 6.99 2.89 9.29
8/22/2023 2:30:00 AM 16.99 62.582 0.041 6.99 2.91 9.29
8/22/2023 2:45:00 AM 16.95 62.51 0.041 6.98 2.85 9.3
8/22/2023 3:00:00 AM 16.91 62.438 0.041 6.99 2.96 9.28
8/22/2023 3:15:00 AM 16.87 62.366 0.041 6.97 2.91 9.33
8/22/2023 3:30:00 AM 16.83 62.294 0.041 6.94 2.95 9.32
8/22/2023 3:45:00 AM 16.79 62.222 0.041 6.99 2.9 9.32
8/22/2023 4:00:00 AM 16.74 62.132 0.041 6.99 2.99 9.34
8/22/2023 4:15:00 AM 16.7 62.06 0.041 6.97 2.94 9.36
8/22/2023 4:30:00 AM 16.66 61.988 0.041 6.99 2.92 9.36
8/22/2023 4:45:00 AM 16.61 61.898 0.041 6.97 2.87 9.38
8/22/2023 5:00:00 AM 16.56 61.808 0.041 6.98 2.88 9.38
8/22/2023 5:15:00 AM 16.51 61.718 0.041 6.98 2.9 9.39
8/22/2023 5:30:00 AM 16.46 61.628 0.041 6.94 2.92 9.41
8/22/2023 5:45:00 AM 16.39 61.502 0.041 6.97 2.86 9.41
8/22/2023 6:00:00 AM 16.33 61.394 0.041 6.98 2.84 9.42
8/22/2023 6:15:00 AM 16.27 61.286 0.041 6.97 3.06 9.45
8/22/2023 6:30:00 AM 16.21 61.178 0.041 6.98 2.95 9.44
8/22/2023 6:45:00 AM 16.14 61.052 0.041 6.98 2.97 9.48
8/22/2023 7:00:00 AM 16.08 60.944 0.041 6.98 3.3 9.5
8/22/2023 7:15:00 AM 16.02 60.836 0.041 6.98 3.09 9.53
8/22/2023 7:30:00 AM 15.96 60.728 0.041 6.97 3.22 9.56
8/22/2023 7:45:00 AM 15.9 60.62 0.041 6.98 5.01 9.6
8/22/2023 8:00:00 AM 15.85 60.53 0.041 6.96 3 9.62
8/22/2023 8:15:00 AM 15.8 60.44 0.041 6.98 3.45 9.64
8/22/2023 8:30:00 AM 15.75 60.35 0.041 6.98 2.92 9.65
8/22/2023 8:45:00 AM 15.7 60.26 0.041 6.96 3.39 9.68
8/22/2023 9:00:00 AM 15.67 60.206 0.041 6.98 2.83 9.71
8/22/2023 9:15:00 AM 15.65 60.17 0.041 7 2.99 9.72
8/22/2023 9:30:00 AM 15.64 60.152 0.041 6.98 2.77 9.74
8/22/2023 9:45:00 AM 15.63 60.134 0.04 6.99 3.79 9.76
8/22/2023 10:00:00 AM 15.63 60.134 0.04 7 3.99 9.76
8/22/2023 10:15:00 AM 15.63 60.134 0.04 6.97 4.03 9.79
8/22/2023 10:30:00 AM 15.65 60.17 0.04 7.02 2.82 9.78
8/22/2023 10:45:00 AM 15.68 60.224 0.04 7.03 2.75 9.8
8/22/2023 11:00:00 AM 15.72 60.296 0.04 7.03 3.32 9.82
8/22/2023 11:15:00 AM 15.79 60.422 0.04 7.05 2.89 9.85
8/22/2023 11:30:00 AM 15.86 60.548 0.04 7.07 2.93 9.87
8/22/2023 11:45:00 AM 15.96 60.728 0.04 7.09 2.86 9.89
8/22/2023 12:00:00 PM 16.07 60.926 0.04 7.1 2.73 9.89
8/22/2023 12:15:00 PM 16.2 61.16 0.04 7.11 2.78 9.87
8/22/2023 12:30:00 PM 16.35 61.43 0.04 7.11 2.85 9.86
8/22/2023 12:45:00 PM 16.51 61.718 0.039 7.14 2.8 9.85
8/22/2023 1:00:00 PM 16.69 62.042 0.039 7.15 2.8 9.84
8/22/2023 1:15:00 PM 16.88 62.384 0.039 7.17 2.72 9.8
8/22/2023 1:30:00 PM 17.06 62.708 0.039 7.19 2.87 9.78
8/22/2023 1:45:00 PM 17.23 63.014 0.039 7.2 3.12 9.76
8/22/2023 2:00:00 PM 17.41 63.338 0.039 7.21 2.85 9.73
8/22/2023 2:15:00 PM 17.55 63.59 0.039 7.21 3.15 9.71
8/22/2023 2:30:00 PM 17.65 63.77 0.039 7.18 2.92 9.69
8/22/2023 2:45:00 PM 17.73 63.914 0.039 7.23 3.42 9.67
8/22/2023 3:00:00 PM 17.8 64.04 0.039 7.19 2.82 9.61
8/22/2023 3:15:00 PM 17.84 64.112 0.039 7.22 2.95 9.59
8/22/2023 3:30:00 PM 17.88 64.184 0.039 7.22 2.84 9.58
8/22/2023 3:45:00 PM 17.89 64.202 0.039 7.22 2.86 9.53
8/22/2023 4:00:00 PM 17.89 64.202 0.039 7.21 2.86 9.5
8/22/2023 4:15:00 PM 17.88 64.184 0.039 7.2 2.93 9.47
8/22/2023 4:30:00 PM 17.89 64.202 0.039 7.19 2.82 9.45
8/22/2023 4:45:00 PM 17.88 64.184 0.039 7.16 2.93 9.42
8/22/2023 5:00:00 PM 17.87 64.166 0.039 7.16 2.91 9.37
8/22/2023 5:15:00 PM 17.85 64.13 0.039 7.14 2.91 9.34
8/22/2023 5:30:00 PM 17.82 64.076 0.04 7.13 2.85 9.31
8/22/2023 5:45:00 PM 17.77 63.986 0.04 7.12 2.86 9.31
8/22/2023 6:00:00 PM 17.71 63.878 0.04 7.1 2.8 9.29
8/22/2023 6:15:00 PM 17.65 63.77 0.04 7.09 2.92 9.26
8/22/2023 6:30:00 PM 17.57 63.626 0.04 7.09 2.97 9.26
8/22/2023 6:45:00 PM 17.5 63.5 0.04 7.07 2.93 9.25
8/22/2023 7:00:00 PM 17.43 63.374 0.04 7.08 3.85 9.25
8/22/2023 7:15:00 PM 17.36 63.248 0.04 7.07 2.95 9.25
8/22/2023 7:30:00 PM 17.29 63.122 0.04 7.05 2.9 9.26
8/22/2023 7:45:00 PM 17.23 63.014 0.04 7.05 3.17 9.27
8/22/2023 8:00:00 PM 17.17 62.906 0.04 7.06 2.99 9.24
8/22/2023 8:15:00 PM 17.12 62.816 0.04 7.02 2.98 9.25
8/22/2023 8:30:00 PM 17.07 62.726 0.04 7.03 2.92 9.24
8/22/2023 8:45:00 PM 17.02 62.636 0.04 6.97 3.08 9.25
8/22/2023 9:00:00 PM 16.98 62.564 0.04 7.03 3.08 9.26
8/22/2023 9:15:00 PM 16.92 62.456 0.04 7.01 2.97 9.26
8/22/2023 9:30:00 PM 16.87 62.366 0.041 7.02 3.07 9.28
8/22/2023 9:45:00 PM 16.82 62.276 0.041 7.01 2.88 9.29
8/22/2023 10:00:00 PM 16.77 62.186 0.041 7 2.98 9.31
8/22/2023 10:15:00 PM 16.71 62.078 0.041 6.97 2.92 9.32
8/22/2023 10:30:00 PM 16.65 61.97 0.041 7.01 2.92 9.34
8/22/2023 10:45:00 PM 16.58 61.844 0.041 7 3.01 9.35
8/22/2023 11:00:00 PM 16.52 61.736 0.041 6.99 2.97 9.36
8/22/2023 11:15:00 PM 16.46 61.628 0.041 6.99 2.88 9.37
8/22/2023 11:30:00 PM 16.39 61.502 0.041 6.99 2.99 9.4
8/22/2023 11:45:00 PM 16.32 61.376 0.041 6.99 2.87 9.41
8/23/2023 12:00:00 AM 16.25 61.25 0.041 7 3.06 9.43
8/23/2023 12:15:00 AM 16.18 61.124 0.041 6.99 3 9.43
8/23/2023 12:30:00 AM 16.11 60.998 0.041 6.99 2.91 9.46
8/23/2023 12:45:00 AM 16.05 60.89 0.041 6.98 2.89 9.47
8/23/2023 1:00:00 AM 15.99 60.782 0.041 6.99 2.96 9.49
8/23/2023 1:15:00 AM 15.92 60.656 0.041 6.99 2.97 9.5
8/23/2023 1:30:00 AM 15.87 60.566 0.041 6.98 3.1 9.51
8/23/2023 1:45:00 AM 15.81 60.458 0.041 6.97 2.85 9.52
8/23/2023 2:00:00 AM 15.76 60.368 0.041 6.97 2.93 9.54
8/23/2023 2:15:00 AM 15.71 60.278 0.041 6.97 2.88 9.56
8/23/2023 2:30:00 AM 15.66 60.188 0.041 6.91 3.04 9.55
8/23/2023 2:45:00 AM 15.61 60.098 0.041 6.94 2.84 9.58
8/23/2023 3:00:00 AM 15.57 60.026 0.041 6.91 2.87 9.58
8/23/2023 3:15:00 AM 15.52 59.936 0.041 6.95 2.98 9.59
8/23/2023 3:30:00 AM 15.47 59.846 0.041 6.94 3 9.62
8/23/2023 3:45:00 AM 15.42 59.756 0.041 6.95 2.87 9.63
8/23/2023 4:00:00 AM 15.36 59.648 0.041 6.94 2.92 9.63
8/23/2023 4:15:00 AM 15.31 59.558 0.041 6.88 2.82 9.65
8/23/2023 4:30:00 AM 15.26 59.468 0.041 6.93 2.77 9.64
8/23/2023 4:45:00 AM 15.21 59.378 0.041 6.92 2.78 9.67
8/23/2023 5:00:00 AM 15.16 59.288 0.041 6.91 2.88 9.68
8/23/2023 5:15:00 AM 15.12 59.216 0.041 6.93 2.81 9.7
8/23/2023 5:30:00 AM 15.08 59.144 0.041 6.89 2.86 9.7
8/23/2023 5:45:00 AM 15.04 59.072 0.041 6.92 2.89 9.72
8/23/2023 6:00:00 AM 15 59 0.041 6.92 2.95 9.72
8/23/2023 6:15:00 AM 14.97 58.946 0.041 6.91 2.86 9.74
8/23/2023 6:30:00 AM 14.93 58.874 0.041 6.92 2.94 9.74
8/23/2023 6:45:00 AM 14.9 58.82 0.041 6.91 3.05 9.76
8/23/2023 7:00:00 AM 14.88 58.784 0.041 6.91 2.99 9.78
8/23/2023 7:15:00 AM 14.85 58.73 0.041 6.92 2.91 9.81
8/23/2023 7:30:00 AM 14.82 58.676 0.041 6.93 2.99 9.82
8/23/2023 7:45:00 AM 14.8 58.64 0.041 6.93 2.91 9.84
8/23/2023 8:00:00 AM 14.79 58.622 0.041 6.95 2.87 9.88
8/23/2023 8:15:00 AM 14.78 58.604 0.041 6.96 3.16 9.93
8/23/2023 8:30:00 AM 14.79 58.622 0.041 6.97 2.94 9.98
8/23/2023 8:45:00 AM 14.79 58.622 0.041 6.98 3 9.98
8/23/2023 9:00:00 AM 14.79 58.622 0.041 6.99 2.81 9.99
8/23/2023 9:15:00 AM 14.79 58.622 0.041 6.99 2.88 9.98
8/23/2023 9:30:00 AM 14.81 58.658 0.04 7.01 2.89 10.03
8/23/2023 9:45:00 AM 14.82 58.676 0.04 7.01 2.83 10.04
8/23/2023 10:00:00 AM 14.81 58.658 0.04 7 2.93 10.01
8/23/2023 10:15:00 AM 14.82 58.676 0.04 7.02 2.83 9.99
8/23/2023 10:30:00 AM 14.86 58.748 0.04 7.02 2.87 10.09
8/23/2023 10:45:00 AM 14.9 58.82 0.04 7.06 2.82 10.11
8/23/2023 11:00:00 AM 14.96 58.928 0.04 7.04 2.94 10.15
8/23/2023 11:15:00 AM 15 59 0.04 7.09 2.9 10.16
8/23/2023 11:30:00 AM 15.06 59.108 0.04 7.11 2.86 10.17
8/23/2023 11:45:00 AM 15.12 59.216 0.04 7.11 2.84 10.17
8/23/2023 12:00:00 PM 15.22 59.396 0.04 7.13 2.74 10.19
8/23/2023 12:15:00 PM 15.32 59.576 0.039 7.16 2.83 10.2
8/23/2023 12:30:00 PM 15.36 59.648 0.039 7.17 2.95 10.17
8/23/2023 12:45:00 PM 15.39 59.702 0.039 7.15 2.76 10.11
8/23/2023 1:00:00 PM 15.43 59.774 0.039 7.16 2.81 10.06
8/23/2023 1:15:00 PM 15.46 59.828 0.039 7.13 2.77 10.01
8/23/2023 1:30:00 PM 15.46 59.828 0.04 7.13 2.8 9.97
8/23/2023 1:45:00 PM 15.46 59.828 0.04 7.07 2.89 9.94
8/23/2023 2:00:00 PM 15.46 59.828 0.04 7.11 2.9 9.92
8/23/2023 2:15:00 PM 15.48 59.864 0.04 7.09 2.81 9.91
8/23/2023 2:30:00 PM 15.5 59.9 0.04 7.05 2.82 9.93
8/23/2023 2:45:00 PM 15.53 59.954 0.04 7.11 2.77 9.93
8/23/2023 3:00:00 PM 15.55 59.99 0.04 7.1 2.92 9.91
8/23/2023 3:15:00 PM 15.58 60.044 0.039 7.05 2.93 9.94
8/23/2023 3:30:00 PM 15.61 60.098 0.039 7.09 2.78 9.95
8/23/2023 3:45:00 PM 15.63 60.134 0.039 7.12 2.83 9.94
8/23/2023 4:00:00 PM 15.65 60.17 0.039 7.13 2.96 9.94
8/23/2023 4:15:00 PM 15.69 60.242 0.039 7.14 2.82 9.93
8/23/2023 4:30:00 PM 15.72 60.296 0.039 7.1 2.83 9.93
8/23/2023 4:45:00 PM 15.75 60.35 0.039 7.15 2.82 9.95
8/23/2023 5:00:00 PM 15.79 60.422 0.039 7.16 2.83 9.94
8/23/2023 5:15:00 PM 15.8 60.44 0.039 7.15 2.93 9.91
8/23/2023 5:30:00 PM 15.82 60.476 0.039 7.14 2.96 9.86
8/23/2023 5:45:00 PM 15.83 60.494 0.039 7.13 2.88 9.82
8/23/2023 6:00:00 PM 15.83 60.494 0.04 7.1 2.85 9.77
8/23/2023 6:15:00 PM 15.83 60.494 0.04 7.09 2.92 9.73
8/23/2023 6:30:00 PM 15.83 60.494 0.04 7.06 2.84 9.68
8/23/2023 6:45:00 PM 15.83 60.494 0.04 7.04 3.02 9.63
8/23/2023 7:00:00 PM 15.82 60.476 0.04 7.02 2.92 9.62
8/23/2023 7:15:00 PM 15.82 60.476 0.04 7.01 2.85 9.59
8/23/2023 7:30:00 PM 15.81 60.458 0.04 7.02 2.81 9.57
8/23/2023 7:45:00 PM 15.8 60.44 0.04 6.97 2.89 9.55
8/23/2023 8:00:00 PM 15.79 60.422 0.04 7.01 3.02 9.53
8/23/2023 8:15:00 PM 15.78 60.404 0.04 6.95 3.02 9.53
8/23/2023 8:30:00 PM 15.77 60.386 0.04 6.99 3.08 9.53
8/23/2023 8:45:00 PM 15.76 60.368 0.04 6.99 3.12 9.53
8/23/2023 9:00:00 PM 15.75 60.35 0.041 6.99 3.03 9.53
8/23/2023 9:15:00 PM 15.74 60.332 0.041 6.99 2.98 9.54
8/23/2023 9:30:00 PM 15.74 60.332 0.041 6.98 3.04 9.52
8/23/2023 9:45:00 PM 15.73 60.314 0.041 6.93 2.9 9.52
8/23/2023 10:00:00 PM 15.72 60.296 0.041 6.99 2.93 9.51
8/23/2023 10:15:00 PM 15.71 60.278 0.041 6.99 2.85 9.52
8/23/2023 10:30:00 PM 15.71 60.278 0.041 6.98 2.91 9.5
8/23/2023 10:45:00 PM 15.7 60.26 0.041 6.98 3.01 9.52
8/23/2023 11:00:00 PM 15.69 60.242 0.041 6.98 2.89 9.51
8/23/2023 11:15:00 PM 15.68 60.224 0.041 6.97 2.88 9.51
8/23/2023 11:30:00 PM 15.68 60.224 0.041 6.97 2.87 9.52
8/23/2023 11:45:00 PM 15.67 60.206 0.041 6.97 2.89 9.52
8/24/2023 12:00:00 AM 15.67 60.206 0.041 6.96 3.05 9.51
8/24/2023 12:15:00 AM 15.66 60.188 0.041 6.94 2.97 9.51
8/24/2023 12:30:00 AM 15.65 60.17 0.041 6.97 2.84 9.51
8/24/2023 12:45:00 AM 15.64 60.152 0.041 6.95 2.91 9.52
8/24/2023 1:00:00 AM 15.63 60.134 0.041 6.98 2.91 9.53
8/24/2023 1:15:00 AM 15.62 60.116 0.041 6.96 2.88 9.54
8/24/2023 1:30:00 AM 15.61 60.098 0.041 6.97 2.9 9.54
8/24/2023 1:45:00 AM 15.61 60.098 0.041 6.96 3 9.54
8/24/2023 2:00:00 AM 15.6 60.08 0.041 6.94 2.87 9.55
8/24/2023 2:15:00 AM 15.59 60.062 0.041 6.95 2.86 9.54
8/24/2023 2:30:00 AM 15.58 60.044 0.041 6.94 2.91 9.54
8/24/2023 2:45:00 AM 15.57 60.026 0.041 6.93 2.84 9.54
8/24/2023 3:00:00 AM 15.56 60.008 0.041 6.97 2.89 9.53
8/24/2023 3:15:00 AM 15.55 59.99 0.041 6.96 3 9.54
8/24/2023 3:30:00 AM 15.55 59.99 0.041 6.96 2.84 9.53
8/24/2023 3:45:00 AM 15.54 59.972 0.041 6.95 2.92 9.52
8/24/2023 4:00:00 AM 15.53 59.954 0.041 6.92 2.96 9.52
8/24/2023 4:15:00 AM 15.53 59.954 0.041 6.95 3.95 9.52
8/24/2023 4:30:00 AM 15.53 59.954 0.041 6.94 4.03 9.49
8/24/2023 4:45:00 AM 15.52 59.936 0.041 6.93 3.68 9.48
8/24/2023 5:00:00 AM 15.5 59.9 0.041 6.93 3.54 9.48
8/24/2023 5:15:00 AM 15.5 59.9 0.041 6.93 3.4 9.49
8/24/2023 5:30:00 AM 15.49 59.882 0.041 6.93 3.24 9.51
8/24/2023 5:45:00 AM 15.48 59.864 0.041 6.94 3.14 9.5
8/24/2023 6:00:00 AM 15.47 59.846 0.041 6.94 3.27 9.5
8/24/2023 6:15:00 AM 15.45 59.81 0.041 6.9 3.2 9.51
8/24/2023 6:30:00 AM 15.45 59.81 0.041 6.94 3.13 9.51
8/24/2023 6:45:00 AM 15.44 59.792 0.041 6.93 3.17 9.51
8/24/2023 7:00:00 AM 15.43 59.774 0.041 6.88 3.13 9.53
8/24/2023 7:15:00 AM 15.43 59.774 0.041 6.94 3.2 9.54
8/24/2023 7:30:00 AM 15.43 59.774 0.041 6.94 3.15 9.55
8/24/2023 7:45:00 AM 15.43 59.774 0.041 6.94 2.95 9.6
8/24/2023 8:00:00 AM 15.43 59.774 0.041 6.91 2.96 9.63
8/24/2023 8:15:00 AM 15.44 59.792 0.041 6.92 2.96 9.66
8/24/2023 8:30:00 AM 15.44 59.792 0.041 6.97 3 9.65
8/24/2023 8:45:00 AM 15.44 59.792 0.041 6.96 2.94 9.67
8/24/2023 9:00:00 AM 15.44 59.792 0.041 6.97 2.91 9.67
8/24/2023 9:15:00 AM 15.45 59.81 0.041 6.98 3.18 9.69
8/24/2023 9:30:00 AM 15.46 59.828 0.041 6.99 2.81 9.7
8/24/2023 9:45:00 AM 15.47 59.846 0.041 6.99 2.97 9.7
8/24/2023 10:00:00 AM 15.48 59.864 0.041 7 2.96 9.71
8/24/2023 10:15:00 AM 15.48 59.864 0.041 6.97 2.89 9.73
8/24/2023 10:30:00 AM 15.5 59.9 0.041 7.01 2.89 9.74
8/24/2023 10:45:00 AM 15.51 59.918 0.041 7.02 2.96 9.77
8/24/2023 11:00:00 AM 15.53 59.954 0.041 6.98 2.98 9.79
8/24/2023 11:15:00 AM 15.54 59.972 0.041 7.04 2.94 9.77
8/24/2023 11:30:00 AM 15.55 59.99 0.041 7.04 2.92 9.8
8/24/2023 11:45:00 AM 15.58 60.044 0.041 7 2.93 9.81
8/24/2023 12:00:00 PM 15.62 60.116 0.041 7.05 2.91 9.86
8/24/2023 12:15:00 PM 15.66 60.188 0.041 7.07 2.87 9.88
8/24/2023 12:30:00 PM 15.71 60.278 0.04 7.1 3.05 9.92
8/24/2023 12:45:00 PM 15.81 60.458 0.04 7.11 2.9 9.95
8/24/2023 1:00:00 PM 15.95 60.71 0.04 7.08 3.07 9.96
8/24/2023 1:15:00 PM 16.1 60.98 0.04 7.17 2.98 9.98
8/24/2023 1:30:00 PM 16.21 61.178 0.04 7.19 3.29 9.97
8/24/2023 1:45:00 PM 16.26 61.268 0.04 7.19 2.95 9.92
8/24/2023 2:00:00 PM 16.26 61.268 0.04 7.16 3.09 9.86
8/24/2023 2:15:00 PM 16.25 61.25 0.04 7.15 2.89 9.77
8/24/2023 2:30:00 PM 16.24 61.232 0.04 7.05 3.08 9.73
8/24/2023 2:45:00 PM 16.23 61.214 0.04 7.08 2.97 9.68
8/24/2023 3:00:00 PM 16.22 61.196 0.04 7.06 3.13 9.65
8/24/2023 3:15:00 PM 16.24 61.232 0.04 7.08 3.09 9.66
8/24/2023 3:30:00 PM 16.25 61.25 0.04 7.04 3.24 9.63
8/24/2023 3:45:00 PM 16.27 61.286 0.04 6.99 3 9.62
8/24/2023 4:00:00 PM 16.29 61.322 0.04 7.05 2.93 9.58
8/24/2023 4:15:00 PM 16.32 61.376 0.04 7.04 2.96 9.57
8/24/2023 4:30:00 PM 16.33 61.394 0.04 6.99 3.02 9.56
8/24/2023 4:45:00 PM 16.33 61.394 0.04 6.95 2.86 9.53
8/24/2023 5:00:00 PM 16.33 61.394 0.04 7.01 2.99 9.5
8/24/2023 5:15:00 PM 16.33 61.394 0.041 6.95 3.07 9.5
8/24/2023 5:30:00 PM 16.32 61.376 0.041 6.96 3.02 9.49
8/24/2023 5:45:00 PM 16.31 61.358 0.041 6.97 2.96 9.47
8/24/2023 6:00:00 PM 16.31 61.358 0.041 6.9 2.97 9.49
8/24/2023 6:15:00 PM 16.31 61.358 0.041 6.97 3 9.47
8/24/2023 6:30:00 PM 16.31 61.358 0.041 6.95 2.93 9.48
8/24/2023 6:45:00 PM 16.3 61.34 0.041 6.96 3.14 9.49
8/24/2023 7:00:00 PM 16.31 61.358 0.041 6.93 3.05 9.47
8/24/2023 7:15:00 PM 16.3 61.34 0.041 6.94 3.19 9.45
8/24/2023 7:30:00 PM 16.3 61.34 0.041 6.92 3.01 9.43
8/24/2023 7:45:00 PM 16.29 61.322 0.041 6.91 3.03 9.4
8/24/2023 8:00:00 PM 16.28 61.304 0.041 6.91 3.04 9.39
8/24/2023 8:15:00 PM 16.27 61.286 0.041 6.87 3 9.39
8/24/2023 8:30:00 PM 16.26 61.268 0.041 6.87 3.12 9.36
8/24/2023 8:45:00 PM 16.26 61.268 0.041 6.83 3.05 9.36
8/24/2023 9:00:00 PM 16.25 61.25 0.041 6.89 3.01 9.35
8/24/2023 9:15:00 PM 16.25 61.25 0.041 6.88 3.06 9.37
8/24/2023 9:30:00 PM 16.24 61.232 0.042 6.87 3.03 9.36
8/24/2023 9:45:00 PM 16.23 61.214 0.042 6.86 2.98 9.35
8/24/2023 10:00:00 PM 16.22 61.196 0.042 6.86 3.03 9.34
8/24/2023 10:15:00 PM 16.21 61.178 0.042 6.84 3.03 9.33
8/24/2023 10:30:00 PM 16.19 61.142 0.042 6.77 3.06 9.33
8/24/2023 10:45:00 PM 16.19 61.142 0.042 6.84 2.98 9.34
8/24/2023 11:00:00 PM 16.18 61.124 0.042 6.78 3.06 9.34
8/24/2023 11:15:00 PM 16.17 61.106 0.042 6.8 2.97 9.33
8/24/2023 11:30:00 PM 16.16 61.088 0.042 6.86 2.99 9.35
8/24/2023 11:45:00 PM 16.15 61.07 0.042 6.85 2.95 9.35
8/25/2023 12:00:00 AM 16.15 61.07 0.042 6.85 2.97 9.35
8/25/2023 12:15:00 AM 16.14 61.052 0.042 6.84 2.99 9.35
8/25/2023 12:30:00 AM 16.13 61.034 0.042 6.84 3.15 9.35
8/25/2023 12:45:00 AM 16.12 61.016 0.042 6.84 3.06 9.35
8/25/2023 1:00:00 AM 16.11 60.998 0.042 6.83 3.11 9.36
8/25/2023 1:15:00 AM 16.11 60.998 0.042 6.85 3.03 9.35
8/25/2023 1:30:00 AM 16.1 60.98 0.042 6.85 3.02 9.34
8/25/2023 1:45:00 AM 16.09 60.962 0.042 6.84 3.04 9.37
8/25/2023 2:00:00 AM 16.1 60.98 0.042 6.84 3.21 9.38
8/25/2023 2:15:00 AM 16.13 61.034 0.041 6.83 3.64 9.37
8/25/2023 2:30:00 AM 16.19 61.142 0.041 6.84 4.18 9.33
8/25/2023 2:45:00 AM 16.2 61.16 0.041 6.8 4.84 9.27
8/25/2023 3:00:00 AM 16.21 61.178 0.041 6.82 4.64 9.22
8/25/2023 3:15:00 AM 16.2 61.16 0.041 6.82 4.14 9.21
8/25/2023 3:30:00 AM 16.19 61.142 0.041 6.81 4.29 9.24
8/25/2023 3:45:00 AM 16.18 61.124 0.041 6.73 4.25 9.27
8/25/2023 4:00:00 AM 16.18 61.124 0.041 6.78 4.62 9.28
8/25/2023 4:15:00 AM 16.16 61.088 0.041 6.8 4.21 9.28
8/25/2023 4:30:00 AM 16.14 61.052 0.041 6.81 4.3 9.29
8/25/2023 4:45:00 AM 16.12 61.016 0.041 6.8 4.56 9.31
8/25/2023 5:00:00 AM 16.11 60.998 0.041 6.79 4.49 9.31
8/25/2023 5:15:00 AM 16.09 60.962 0.041 6.78 4.73 9.34
8/25/2023 5:30:00 AM 16.08 60.944 0.041 6.79 4.82 9.34
8/25/2023 5:45:00 AM 16.06 60.908 0.041 6.73 4.74 9.34
8/25/2023 6:00:00 AM 16.05 60.89 0.041 6.76 4.82 9.35
8/25/2023 6:15:00 AM 16.03 60.854 0.041 6.8 4.93 9.35
8/25/2023 6:30:00 AM 16.02 60.836 0.041 6.8 5.08 9.36
8/25/2023 6:45:00 AM 16.01 60.818 0.041 6.72 5 9.36
8/25/2023 7:00:00 AM 16 60.8 0.041 6.81 5.2 9.38
8/25/2023 7:15:00 AM 15.99 60.782 0.041 6.78 4.85 9.4
8/25/2023 7:30:00 AM 15.99 60.782 0.041 6.81 5.16 9.41
8/25/2023 7:45:00 AM 15.99 60.782 0.041 6.8 5.42 9.43
8/25/2023 8:00:00 AM 15.99 60.782 0.041 6.8 5.16 9.46
8/25/2023 8:15:00 AM 15.99 60.782 0.041 6.82 4.65 9.46
8/25/2023 8:30:00 AM 15.98 60.764 0.041 6.81 4.92 9.49
8/25/2023 8:45:00 AM 15.98 60.764 0.041 6.82 4.61 9.51
8/25/2023 9:00:00 AM 15.98 60.764 0.041 6.8 4.62 9.49
8/25/2023 9:15:00 AM 15.98 60.764 0.041 6.82 4.64 9.51
8/25/2023 9:30:00 AM 15.98 60.764 0.04 6.73 5.35 9.49
8/25/2023 9:45:00 AM 15.98 60.764 0.04 6.78 6.65 9.52
8/25/2023 10:00:00 AM 15.98 60.764 0.04 6.81 4.39 9.55
8/25/2023 10:15:00 AM 16.01 60.818 0.04 6.83 4.13 9.6
8/25/2023 10:30:00 AM 16.03 60.854 0.04 6.81 4.52 9.6
8/25/2023 10:45:00 AM 16.04 60.872 0.04 6.84 4.14 9.63
8/25/2023 11:00:00 AM 16.06 60.908 0.04 6.8 4.11 9.64
8/25/2023 11:15:00 AM 16.08 60.944 0.04 6.85 3.71 9.68
8/25/2023 11:30:00 AM 16.11 60.998 0.04 6.78 4.31 9.67
8/25/2023 11:45:00 AM 16.11 60.998 0.04 6.87 4.08 9.67
8/25/2023 12:00:00 PM 16.16 61.088 0.04 6.81 4.34 9.74
8/25/2023 12:15:00 PM 16.2 61.16 0.04 6.92 3.99 9.76
8/25/2023 12:30:00 PM 16.28 61.304 0.04 6.9 4.36 9.8
8/25/2023 12:45:00 PM 16.34 61.412 0.04 6.93 4.59 9.78
8/25/2023 1:00:00 PM 16.4 61.52 0.04 6.98 3.7 9.78
8/25/2023 1:15:00 PM 16.51 61.718 0.04 7 3.59 9.79
8/25/2023 1:30:00 PM 16.68 62.024 0.039 7.04 4.01 9.82
8/25/2023 1:45:00 PM 16.72 62.096 0.039 7.06 3.79 9.75
8/25/2023 2:00:00 PM 16.74 62.132 0.039 7.05 3.95 9.7
8/25/2023 2:15:00 PM 16.77 62.186 0.039 7.03 3.87 9.71
8/25/2023 2:30:00 PM 16.82 62.276 0.039 7.08 4.19 9.71
8/25/2023 2:45:00 PM 16.93 62.474 0.039 7.09 3.74 9.74
8/25/2023 3:00:00 PM 17.02 62.636 0.039 7.09 3.73 9.71
8/25/2023 3:15:00 PM 17.04 62.672 0.039 7.1 3.76 9.67
8/25/2023 3:30:00 PM 17.07 62.726 0.039 7.08 4.22 9.63
8/25/2023 3:45:00 PM 17.1 62.78 0.039 7.08 3.65 9.63
8/25/2023 4:00:00 PM 17.17 62.906 0.039 7.01 3.69 9.6
8/25/2023 4:15:00 PM 17.16 62.888 0.039 7.07 3.63 9.54
8/25/2023 4:30:00 PM 17.17 62.906 0.04 7.06 3.64 9.49
8/25/2023 4:45:00 PM 17.17 62.906 0.04 7.05 3.7 9.48
8/25/2023 5:00:00 PM 17.16 62.888 0.04 7.01 3.64 9.4
8/25/2023 5:15:00 PM 17.15 62.87 0.04 7.01 3.89 9.37
8/25/2023 5:30:00 PM 17.14 62.852 0.04 6.98 3.78 9.34
8/25/2023 5:45:00 PM 17.14 62.852 0.04 6.97 3.62 9.34
8/25/2023 6:00:00 PM 17.15 62.87 0.04 6.96 3.68 9.32
8/25/2023 6:15:00 PM 17.16 62.888 0.04 6.96 4.02 9.33
8/25/2023 6:30:00 PM 17.17 62.906 0.04 6.89 3.7 9.33
8/25/2023 6:45:00 PM 17.18 62.924 0.04 6.9 3.7 9.32
8/25/2023 7:00:00 PM 17.18 62.924 0.04 6.89 3.98 9.28
8/25/2023 7:15:00 PM 17.17 62.906 0.041 6.93 3.69 9.22
8/25/2023 7:30:00 PM 17.17 62.906 0.041 6.91 3.61 9.22
8/25/2023 7:45:00 PM 17.16 62.888 0.041 6.86 3.35 9.2
8/25/2023 8:00:00 PM 17.15 62.87 0.041 6.89 3.78 9.19
8/25/2023 8:15:00 PM 17.14 62.852 0.041 6.86 3.62 9.18
8/25/2023 8:30:00 PM 17.13 62.834 0.041 6.87 3.61 9.16
8/25/2023 8:45:00 PM 17.13 62.834 0.041 6.86 3.62 9.16
8/25/2023 9:00:00 PM 17.12 62.816 0.041 6.85 3.67 9.14
8/25/2023 9:15:00 PM 17.11 62.798 0.041 6.85 3.88 9.14
8/25/2023 9:30:00 PM 17.11 62.798 0.041 6.84 3.6 9.16
8/25/2023 9:45:00 PM 17.1 62.78 0.041 6.84 3.58 9.15
8/25/2023 10:00:00 PM 17.09 62.762 0.042 6.83 3.73 9.16
8/25/2023 10:15:00 PM 17.08 62.744 0.042 6.83 3.64 9.16
8/25/2023 10:30:00 PM 17.06 62.708 0.042 6.82 3.67 9.16
8/25/2023 10:45:00 PM 17.05 62.69 0.042 6.82 3.48 9.16
8/25/2023 11:00:00 PM 17.04 62.672 0.042 6.83 3.45 9.17
8/25/2023 11:15:00 PM 17.03 62.654 0.042 6.82 3.36 9.18
8/25/2023 11:30:00 PM 17.01 62.618 0.042 6.82 3.62 9.18
8/25/2023 11:45:00 PM 17 62.6 0.042 6.81 3.31 9.18
8/26/2023 12:00:00 AM 16.99 62.582 0.042 6.8 3.42 9.17
8/26/2023 12:15:00 AM 16.97 62.546 0.042 6.77 3.4 9.17
8/26/2023 12:30:00 AM 16.96 62.528 0.042 6.81 3.44 9.18
8/26/2023 12:45:00 AM 16.94 62.492 0.042 6.81 3.56 9.19
8/26/2023 1:00:00 AM 16.93 62.474 0.042 6.81 3.33 9.19
8/26/2023 1:15:00 AM 16.91 62.438 0.042 6.75 3.34 9.19
8/26/2023 1:30:00 AM 16.89 62.402 0.042 6.77 3.38 9.2
8/26/2023 1:45:00 AM 16.87 62.366 0.042 6.8 3.32 9.2
8/26/2023 2:00:00 AM 16.85 62.33 0.042 6.81 3.23 9.21
8/26/2023 2:15:00 AM 16.83 62.294 0.042 6.8 3.25 9.21
8/26/2023 2:30:00 AM 16.82 62.276 0.042 6.81 3.32 9.21
8/26/2023 2:45:00 AM 16.8 62.24 0.043 6.75 3.27 9.22
8/26/2023 3:00:00 AM 16.78 62.204 0.043 6.8 3.28 9.23
8/26/2023 3:15:00 AM 16.77 62.186 0.043 6.81 3.39 9.22
8/26/2023 3:30:00 AM 16.74 62.132 0.043 6.8 3.28 9.22
8/26/2023 3:45:00 AM 16.73 62.114 0.043 6.8 3.29 9.24
8/26/2023 4:00:00 AM 16.71 62.078 0.043 6.8 3.46 9.25
8/26/2023 4:15:00 AM 16.68 62.024 0.043 6.79 3.37 9.24
8/26/2023 4:30:00 AM 16.67 62.006 0.043 6.79 3.33 9.24
8/26/2023 4:45:00 AM 16.65 61.97 0.043 6.78 3.29 9.24
8/26/2023 5:00:00 AM 16.63 61.934 0.043 6.79 3.35 9.26
8/26/2023 5:15:00 AM 16.61 61.898 0.043 6.79 3.31 9.27
8/26/2023 5:30:00 AM 16.59 61.862 0.043 6.79 3.42 9.27
8/26/2023 5:45:00 AM 16.57 61.826 0.043 6.81 5.76 9.28
8/26/2023 6:00:00 AM 16.56 61.808 0.043 6.83 3.4 9.26
8/26/2023 6:15:00 AM 16.54 61.772 0.043 6.85 3.41 9.26
8/26/2023 6:30:00 AM 16.52 61.736 0.043 6.82 3.49 9.29
8/26/2023 6:45:00 AM 16.5 61.7 0.043 6.86 3.5 9.29
8/26/2023 7:00:00 AM 16.49 61.682 0.043 6.88 3.35 9.32
8/26/2023 7:15:00 AM 16.48 61.664 0.043 6.89 3.42 9.35
8/26/2023 7:30:00 AM 16.46 61.628 0.043 6.91 3.32 9.36
8/26/2023 7:45:00 AM 16.45 61.61 0.042 6.92 3.32 9.38
8/26/2023 8:00:00 AM 16.43 61.574 0.042 6.93 3.55 9.39
8/26/2023 8:15:00 AM 16.42 61.556 0.042 6.93 3.35 9.42
8/26/2023 8:30:00 AM 16.41 61.538 0.042 6.9 3.36 9.45
8/26/2023 8:45:00 AM 16.41 61.538 0.042 6.97 3.36 9.48
8/26/2023 9:00:00 AM 16.4 61.52 0.042 6.92 3.39 9.52
8/26/2023 9:15:00 AM 16.42 61.556 0.042 6.94 3.53 9.58
8/26/2023 9:30:00 AM 16.43 61.574 0.042 6.99 3.29 9.61
8/26/2023 9:45:00 AM 16.45 61.61 0.042 6.99 3.32 9.62
8/26/2023 10:00:00 AM 16.48 61.664 0.042 7.01 3.34 9.63
8/26/2023 10:15:00 AM 16.52 61.736 0.042 7.03 3.25 9.65
8/26/2023 10:30:00 AM 16.54 61.772 0.041 7.05 3.26 9.66
8/26/2023 10:45:00 AM 16.58 61.844 0.041 7.05 3.35 9.68
8/26/2023 11:00:00 AM 16.62 61.916 0.041 7.06 3.24 9.7
8/26/2023 11:15:00 AM 16.66 61.988 0.041 7.08 3.34 9.7
8/26/2023 11:30:00 AM 16.72 62.096 0.041 7.09 3.27 9.74
8/26/2023 11:45:00 AM 16.77 62.186 0.041 7.1 3.21 9.73
8/26/2023 12:00:00 PM 16.81 62.258 0.041 7.06 3.28 9.73
8/26/2023 12:15:00 PM 16.85 62.33 0.041 7.11 3.36 9.71
8/26/2023 12:30:00 PM 16.92 62.456 0.041 7.13 3.59 9.75
8/26/2023 12:45:00 PM 17.01 62.618 0.04 7.15 3.94 9.76
8/26/2023 1:00:00 PM 17.06 62.708 0.04 7.15 3.56 9.73
8/26/2023 1:15:00 PM 17.19 62.942 0.04 7.16 3.45 9.74
8/26/2023 1:30:00 PM 17.27 63.086 0.04 7.18 3.32 9.71
8/26/2023 1:45:00 PM 17.41 63.338 0.04 7.19 3.32 9.68
8/26/2023 2:00:00 PM 17.53 63.554 0.04 7.19 3.32 9.68
8/26/2023 2:15:00 PM 17.65 63.77 0.04 7.2 3.3 9.65
8/26/2023 2:30:00 PM 17.64 63.752 0.04 7.2 3.21 9.61
8/26/2023 2:45:00 PM 17.64 63.752 0.04 7.12 3.31 9.54
8/26/2023 3:00:00 PM 17.71 63.878 0.04 7.18 3.44 9.53
8/26/2023 3:15:00 PM 17.86 64.148 0.04 7.19 3.2 9.53
8/26/2023 3:30:00 PM 17.98 64.364 0.04 7.18 3.27 9.5
8/26/2023 3:45:00 PM 18.1 64.58 0.04 7.2 3.38 9.49
8/26/2023 4:00:00 PM 18.12 64.616 0.04 7.21 4.17 9.46
8/26/2023 4:15:00 PM 18.2 64.76 0.04 7.2 3.32 9.44
8/26/2023 4:30:00 PM 18.2 64.76 0.04 7.2 3.28 9.38
8/26/2023 4:45:00 PM 18.24 64.832 0.04 7.19 3.32 9.36
8/26/2023 5:00:00 PM 18.24 64.832 0.04 7.13 3.3 9.31
8/26/2023 5:15:00 PM 18.25 64.85 0.04 7.15 3.31 9.27
8/26/2023 5:30:00 PM 18.26 64.868 0.04 7.14 3.36 9.25
8/26/2023 5:45:00 PM 18.23 64.814 0.04 7.12 3.3 9.2
8/26/2023 6:00:00 PM 18.21 64.778 0.04 7.06 3.24 9.2
8/26/2023 6:15:00 PM 18.17 64.706 0.041 7.05 3.24 9.19
8/26/2023 6:30:00 PM 18.11 64.598 0.041 7.08 3.31 9.16
8/26/2023 6:45:00 PM 18.04 64.472 0.041 7.06 3.27 9.14
8/26/2023 7:00:00 PM 17.98 64.364 0.041 7.05 3.25 9.11
8/26/2023 7:15:00 PM 17.95 64.31 0.041 7.03 3.51 9.09
8/26/2023 7:30:00 PM 17.89 64.202 0.041 7.02 3.36 9.08
8/26/2023 7:45:00 PM 17.85 64.13 0.041 7.01 3.29 9.06
8/26/2023 8:00:00 PM 17.8 64.04 0.041 7.01 3.34 9.04
8/26/2023 8:15:00 PM 17.76 63.968 0.041 6.99 3.26 9.04
8/26/2023 8:30:00 PM 17.71 63.878 0.041 7.01 3.78 9.04
8/26/2023 8:45:00 PM 17.68 63.824 0.041 7 3.37 9.01
8/26/2023 9:00:00 PM 17.64 63.752 0.041 6.99 3.24 9.04
8/26/2023 9:15:00 PM 17.61 63.698 0.042 7 3.23 9.04
8/26/2023 9:30:00 PM 17.58 63.644 0.042 7 3.27 9.05
8/26/2023 9:45:00 PM 17.55 63.59 0.042 6.99 3.35 9.05
8/26/2023 10:00:00 PM 17.52 63.536 0.042 6.99 3.24 9.06
8/26/2023 10:15:00 PM 17.5 63.5 0.042 6.99 3.47 9.06
8/26/2023 10:30:00 PM 17.47 63.446 0.042 6.99 4.62 9.06
8/26/2023 10:45:00 PM 17.44 63.392 0.042 6.99 3.42 9.07
8/26/2023 11:00:00 PM 17.42 63.356 0.042 6.93 3.84 9.06
8/26/2023 11:15:00 PM 17.39 63.302 0.042 6.98 3.23 9.08
8/26/2023 11:30:00 PM 17.36 63.248 0.042 6.98 3.41 9.1
8/26/2023 11:45:00 PM 17.33 63.194 0.042 6.98 3.53 9.08
8/27/2023 12:00:00 AM 17.29 63.122 0.042 6.98 3.38 9.1
8/27/2023 12:15:00 AM 17.26 63.068 0.042 6.98 3.38 9.1
8/27/2023 12:30:00 AM 17.23 63.014 0.042 6.97 3.34 9.12
8/27/2023 12:45:00 AM 17.2 62.96 0.042 6.95 3.26 9.14
8/27/2023 1:00:00 AM 17.17 62.906 0.042 6.93 3.35 9.13
8/27/2023 1:15:00 AM 17.13 62.834 0.042 6.98 3.3 9.14
8/27/2023 1:30:00 AM 17.1 62.78 0.042 6.97 3.4 9.14
8/27/2023 1:45:00 AM 17.06 62.708 0.042 6.97 3.32 9.15
8/27/2023 2:00:00 AM 17.03 62.654 0.042 6.97 3.26 9.16
8/27/2023 2:15:00 AM 16.99 62.582 0.042 6.97 3.24 9.16
8/27/2023 2:30:00 AM 16.95 62.51 0.042 6.97 3.18 9.18
8/27/2023 2:45:00 AM 16.91 62.438 0.042 6.97 3.22 9.19
8/27/2023 3:00:00 AM 16.87 62.366 0.042 6.97 3.34 9.19
8/27/2023 3:15:00 AM 16.83 62.294 0.042 6.97 3.27 9.19
8/27/2023 3:30:00 AM 16.78 62.204 0.042 6.96 3.2 9.22
8/27/2023 3:45:00 AM 16.74 62.132 0.042 6.96 3.25 9.22
8/27/2023 4:00:00 AM 16.69 62.042 0.042 6.96 3.23 9.23
8/27/2023 4:15:00 AM 16.64 61.952 0.042 6.97 3.46 9.24
8/27/2023 4:30:00 AM 16.6 61.88 0.042 6.96 3.35 9.24
8/27/2023 4:45:00 AM 16.56 61.808 0.042 6.96 3.25 9.27
8/27/2023 5:00:00 AM 16.52 61.736 0.042 6.96 3.17 9.27
8/27/2023 5:15:00 AM 16.48 61.664 0.042 6.95 3.16 9.28
8/27/2023 5:30:00 AM 16.44 61.592 0.042 6.96 3.24 9.29
8/27/2023 5:45:00 AM 16.41 61.538 0.042 6.94 3.2 9.31
8/27/2023 6:00:00 AM 16.37 61.466 0.042 6.92 3.28 9.32
8/27/2023 6:15:00 AM 16.33 61.394 0.042 6.96 3.4 9.33
8/27/2023 6:30:00 AM 16.3 61.34 0.042 6.94 3.28 9.35
8/27/2023 6:45:00 AM 16.27 61.286 0.042 6.94 3.27 9.35
8/27/2023 7:00:00 AM 16.24 61.232 0.042 6.96 3.32 9.36
8/27/2023 7:15:00 AM 16.22 61.196 0.042 6.95 3.31 9.4
8/27/2023 7:30:00 AM 16.2 61.16 0.042 6.96 3.39 9.41
8/27/2023 7:45:00 AM 16.18 61.124 0.042 6.97 3.18 9.45
8/27/2023 8:00:00 AM 16.16 61.088 0.042 6.96 3.28 9.47
8/27/2023 8:15:00 AM 16.14 61.052 0.042 6.98 3.25 9.48
8/27/2023 8:30:00 AM 16.13 61.034 0.042 6.95 3.18 9.53
8/27/2023 8:45:00 AM 16.13 61.034 0.042 6.99 3.24 9.57
8/27/2023 9:00:00 AM 16.14 61.052 0.042 6.96 3.17 9.61
8/27/2023 9:15:00 AM 16.15 61.07 0.042 6.98 3.23 9.64
8/27/2023 9:30:00 AM 16.18 61.124 0.042 7.01 3.32 9.67
8/27/2023 9:45:00 AM 16.19 61.142 0.042 7.02 3.23 9.68
8/27/2023 10:00:00 AM 16.23 61.214 0.041 7.03 3.08 9.69
8/27/2023 10:15:00 AM 16.27 61.286 0.041 7.04 3.11 9.73
8/27/2023 10:30:00 AM 16.3 61.34 0.041 7.05 3.23 9.75
8/27/2023 10:45:00 AM 16.35 61.43 0.041 7.06 3.08 9.77
8/27/2023 11:00:00 AM 16.42 61.556 0.041 7.08 3.23 9.78
8/27/2023 11:15:00 AM 16.5 61.7 0.041 7.1 3.3 9.76
8/27/2023 11:30:00 AM 16.56 61.808 0.041 7.1 3.19 9.76
8/27/2023 11:45:00 AM 16.61 61.898 0.041 7.12 3.21 9.76
8/27/2023 12:00:00 PM 16.66 61.988 0.041 7.13 3.11 9.75
8/27/2023 12:15:00 PM 16.78 62.204 0.041 7.13 3.29 9.74
8/27/2023 12:30:00 PM 16.91 62.438 0.041 7.15 3.23 9.75
8/27/2023 12:45:00 PM 16.99 62.582 0.041 7.16 3.31 9.71
8/27/2023 1:00:00 PM 17.16 62.888 0.041 7.09 3.39 9.72
8/27/2023 1:15:00 PM 17.38 63.284 0.04 7.18 3.26 9.73
8/27/2023 1:30:00 PM 17.41 63.338 0.04 7.18 3.27 9.66
8/27/2023 1:45:00 PM 17.53 63.554 0.04 7.19 3.29 9.66
8/27/2023 2:00:00 PM 17.49 63.482 0.041 7.17 3.15 9.56
8/27/2023 2:15:00 PM 17.46 63.428 0.041 7.1 3.25 9.49
8/27/2023 2:30:00 PM 17.55 63.59 0.041 7.14 3.22 9.52
8/27/2023 2:45:00 PM 17.75 63.95 0.04 7.16 3.34 9.53
8/27/2023 3:00:00 PM 17.84 64.112 0.04 7.18 3.28 9.49
8/27/2023 3:15:00 PM 17.8 64.04 0.04 7.16 3.34 9.42
8/27/2023 3:30:00 PM 17.76 63.968 0.041 7.15 3.2 9.34
8/27/2023 3:45:00 PM 17.86 64.148 0.041 7.14 3.22 9.41
8/27/2023 4:00:00 PM 17.85 64.13 0.041 7.1 3.24 9.41
8/27/2023 4:15:00 PM 17.93 64.274 0.04 7.16 3.31 9.45
8/27/2023 4:30:00 PM 17.97 64.346 0.04 7.17 3.25 9.4
8/27/2023 4:45:00 PM 18 64.4 0.04 7.17 3.28 9.37
8/27/2023 5:00:00 PM 18 64.4 0.041 7.15 3.17 9.32
8/27/2023 5:15:00 PM 18.01 64.418 0.041 7.14 3.23 9.27
8/27/2023 5:30:00 PM 18.01 64.418 0.041 7.11 3.18 9.27
8/27/2023 5:45:00 PM 17.99 64.382 0.041 7.13 3.16 9.27
8/27/2023 6:00:00 PM 17.95 64.31 0.041 7.11 3.25 9.2
8/27/2023 6:15:00 PM 17.91 64.238 0.041 7.02 3.33 9.18
8/27/2023 6:30:00 PM 17.87 64.166 0.041 7.06 3.33 9.15
8/27/2023 6:45:00 PM 17.82 64.076 0.041 7.03 3.17 9.14
8/27/2023 7:00:00 PM 17.77 63.986 0.041 7.06 3.28 9.13
8/27/2023 7:15:00 PM 17.72 63.896 0.041 7.06 3.21 9.11
8/27/2023 7:30:00 PM 17.68 63.824 0.041 6.96 3.34 9.07
8/27/2023 7:45:00 PM 17.63 63.734 0.041 7.04 3.29 9.08
8/27/2023 8:00:00 PM 17.58 63.644 0.041 7.03 3.42 9.11
8/27/2023 8:15:00 PM 17.54 63.572 0.041 7.02 3.45 9.09
8/27/2023 8:30:00 PM 17.49 63.482 0.041 7.01 3.31 9.09
8/27/2023 8:45:00 PM 17.45 63.41 0.042 7.01 3.36 9.09
8/27/2023 9:00:00 PM 17.41 63.338 0.042 7.01 3.49 9.1
8/27/2023 9:15:00 PM 17.37 63.266 0.042 7.01 3.46 9.11
8/27/2023 9:30:00 PM 17.33 63.194 0.042 7 3.43 9.1
8/27/2023 9:45:00 PM 17.29 63.122 0.042 7 3.36 9.12
8/27/2023 10:00:00 PM 17.25 63.05 0.042 7 3.33 9.14
8/27/2023 10:15:00 PM 17.2 62.96 0.042 6.99 3.65 9.14
8/27/2023 10:30:00 PM 17.15 62.87 0.042 6.92 3.6 9.15
8/27/2023 10:45:00 PM 17.1 62.78 0.042 7 3.57 9.16
8/27/2023 11:00:00 PM 17.05 62.69 0.042 6.99 3.33 9.17
8/27/2023 11:15:00 PM 17 62.6 0.042 6.99 3.32 9.17
8/27/2023 11:30:00 PM 16.95 62.51 0.042 6.98 3.53 9.19
8/27/2023 11:45:00 PM 16.89 62.402 0.042 6.98 3.6 9.19
8/28/2023 12:00:00 AM 16.84 62.312 0.042 6.97 3.67 9.2
8/28/2023 12:15:00 AM 16.78 62.204 0.042 6.93 3.81 9.21
8/28/2023 12:30:00 AM 16.73 62.114 0.042 6.98 3.42 9.24
8/28/2023 12:45:00 AM 16.67 62.006 0.042 6.98 3.53 9.25
8/28/2023 1:00:00 AM 16.62 61.916 0.042 6.97 3.47 9.25
8/28/2023 1:15:00 AM 16.57 61.826 0.042 6.97 3.25 9.25
8/28/2023 1:30:00 AM 16.52 61.736 0.042 6.92 3.44 9.29
8/28/2023 1:45:00 AM 16.48 61.664 0.042 6.96 3.55 9.28
8/28/2023 2:00:00 AM 16.44 61.592 0.042 6.97 3.34 9.31
8/28/2023 2:15:00 AM 16.39 61.502 0.042 6.9 3.43 9.31
8/28/2023 2:30:00 AM 16.35 61.43 0.042 6.97 3.39 9.33
8/28/2023 2:45:00 AM 16.31 61.358 0.042 6.96 3.44 9.3
8/28/2023 3:00:00 AM 16.26 61.268 0.042 6.96 3.37 9.34
8/28/2023 3:15:00 AM 16.22 61.196 0.042 6.96 3.41 9.33
8/28/2023 3:30:00 AM 16.18 61.124 0.042 6.96 3.28 9.36
8/28/2023 3:45:00 AM 16.13 61.034 0.042 6.96 3.26 9.37
8/28/2023 4:00:00 AM 16.1 60.98 0.042 6.92 3.4 9.38
8/28/2023 4:15:00 AM 16.07 60.926 0.042 6.95 3.51 9.38
8/28/2023 4:30:00 AM 16.03 60.854 0.042 6.95 3.2 9.39
8/28/2023 4:45:00 AM 16 60.8 0.042 6.94 3.13 9.39
8/28/2023 5:00:00 AM 15.98 60.764 0.042 6.95 3.21 9.4
8/28/2023 5:15:00 AM 15.94 60.692 0.042 6.94 3.36 9.4
8/28/2023 5:30:00 AM 15.92 60.656 0.042 6.94 3.17 9.39
8/28/2023 5:45:00 AM 15.9 60.62 0.042 6.94 3.81 9.4
8/28/2023 6:00:00 AM 15.87 60.566 0.042 6.9 3.51 9.39
8/28/2023 6:15:00 AM 15.85 60.53 0.042 6.94 3.66 9.41
8/28/2023 6:30:00 AM 15.83 60.494 0.042 6.93 3.55 9.43
8/28/2023 6:45:00 AM 15.81 60.458 0.042 6.93 3.32 9.43
8/28/2023 7:00:00 AM 15.79 60.422 0.042 6.93 3.33 9.44
8/28/2023 7:15:00 AM 15.78 60.404 0.042 6.94 3.32 9.43
8/28/2023 7:30:00 AM 15.77 60.386 0.042 6.93 3.36 9.44
8/28/2023 7:45:00 AM 15.76 60.368 0.042 6.94 3.55 9.48
8/28/2023 8:00:00 AM 15.76 60.368 0.042 6.95 3.52 9.49
8/28/2023 8:15:00 AM 15.76 60.368 0.042 6.96 3.57 9.52
8/28/2023 8:30:00 AM 15.76 60.368 0.042 6.96 3.49 9.56
8/28/2023 8:45:00 AM 15.75 60.35 0.042 6.98 3.32 9.55
8/28/2023 9:00:00 AM 15.76 60.368 0.042 6.96 3.2 9.6
8/28/2023 9:15:00 AM 15.76 60.368 0.042 7 3.04 9.62
8/28/2023 9:30:00 AM 15.78 60.404 0.042 7 3.04 9.62
8/28/2023 9:45:00 AM 15.79 60.422 0.042 7.01 3.12 9.68
8/28/2023 10:00:00 AM 15.81 60.458 0.042 7.02 3.08 9.69
8/28/2023 10:15:00 AM 15.82 60.476 0.042 7.02 3.1 9.7
8/28/2023 10:30:00 AM 15.84 60.512 0.042 7.02 3.22 9.71
8/28/2023 10:45:00 AM 15.86 60.548 0.042 7.04 3.3 9.77
8/28/2023 11:00:00 AM 15.88 60.584 0.042 7.05 3.27 9.72
8/28/2023 11:15:00 AM 15.88 60.584 0.042 7.04 3.26 9.71
8/28/2023 11:30:00 AM 15.89 60.602 0.042 7.03 3.17 9.67
8/28/2023 11:45:00 AM 15.89 60.602 0.042 7.02 3.18 9.65
8/28/2023 12:00:00 PM 15.89 60.602 0.042 7.02 3.05 9.62
8/28/2023 12:15:00 PM 15.91 60.638 0.042 7.01 3.26 9.64
8/28/2023 12:30:00 PM 15.92 60.656 0.042 7.02 3.08 9.67
8/28/2023 12:45:00 PM 15.97 60.746 0.041 7.03 3.08 9.75
8/28/2023 1:00:00 PM 16.04 60.872 0.041 7.07 3.22 9.82
8/28/2023 1:15:00 PM 16.11 60.998 0.041 7.08 3.23 9.82
8/28/2023 1:30:00 PM 16.16 61.088 0.041 7.09 3.35 9.84
8/28/2023 1:45:00 PM 16.17 61.106 0.041 7.06 3.07 9.77
8/28/2023 2:00:00 PM 16.19 61.142 0.041 7.08 3.22 9.73
8/28/2023 2:15:00 PM 16.22 61.196 0.041 7.05 3.08 9.76
8/28/2023 2:30:00 PM 16.25 61.25 0.041 7.08 3.27 9.72
8/28/2023 2:45:00 PM 16.26 61.268 0.041 7.07 3.37 9.71
8/28/2023 3:00:00 PM 16.28 61.304 0.041 7.06 3.19 9.65
8/28/2023 3:15:00 PM 16.29 61.322 0.041 7.02 3.24 9.6
8/28/2023 3:30:00 PM 16.33 61.394 0.041 7.04 3.33 9.67
8/28/2023 3:45:00 PM 16.38 61.484 0.041 6.99 3.37 9.74
8/28/2023 4:00:00 PM 16.42 61.556 0.041 7.06 4.09 9.73
8/28/2023 4:15:00 PM 16.5 61.7 0.041 7.07 3.37 9.75
8/28/2023 4:30:00 PM 16.56 61.808 0.041 7.08 3.42 9.72
8/28/2023 4:45:00 PM 16.58 61.844 0.041 7.08 3.35 9.71
8/28/2023 5:00:00 PM 16.63 61.934 0.041 7.1 3.44 9.69
8/28/2023 5:15:00 PM 16.64 61.952 0.041 7.09 3.1 9.69
8/28/2023 5:30:00 PM 16.65 61.97 0.041 7.08 3.24 9.62
8/28/2023 5:45:00 PM 16.66 61.988 0.041 7.05 3.23 9.59
8/28/2023 6:00:00 PM 16.67 62.006 0.041 7.05 3.3 9.53
8/28/2023 6:15:00 PM 16.67 62.006 0.041 6.98 3.24 9.51
8/28/2023 6:30:00 PM 16.69 62.042 0.041 7.04 3.11 9.54
8/28/2023 6:45:00 PM 16.7 62.06 0.041 7.04 3.14 9.53
8/28/2023 7:00:00 PM 16.71 62.078 0.041 7.03 3.2 9.51
8/28/2023 7:15:00 PM 16.71 62.078 0.041 6.96 3.25 9.46
8/28/2023 7:30:00 PM 16.7 62.06 0.041 6.99 3.19 9.42
8/28/2023 7:45:00 PM 16.69 62.042 0.041 6.98 3.27 9.37
8/28/2023 8:00:00 PM 16.68 62.024 0.042 6.93 3.32 9.33
8/28/2023 8:15:00 PM 16.67 62.006 0.042 6.95 3.33 9.31
8/28/2023 8:30:00 PM 16.66 61.988 0.042 6.94 3.34 9.32
8/28/2023 8:45:00 PM 16.65 61.97 0.042 6.92 3.39 9.29
8/28/2023 9:00:00 PM 16.63 61.934 0.042 6.92 3.51 9.29
8/28/2023 9:15:00 PM 16.62 61.916 0.042 6.9 3.27 9.29
8/28/2023 9:30:00 PM 16.61 61.898 0.042 6.88 3.15 9.28
8/28/2023 9:45:00 PM 16.59 61.862 0.042 6.9 3.13 9.3
8/28/2023 10:00:00 PM 16.58 61.844 0.042 6.87 3.32 9.3
8/28/2023 10:15:00 PM 16.56 61.808 0.042 6.9 3.37 9.29
8/28/2023 10:30:00 PM 16.55 61.79 0.042 6.91 3.03 9.29
8/28/2023 10:45:00 PM 16.53 61.754 0.042 6.92 3.38 9.29
8/28/2023 11:00:00 PM 16.51 61.718 0.042 6.87 3.21 9.29
8/28/2023 11:15:00 PM 16.5 61.7 0.042 6.94 3.63 9.27
8/28/2023 11:30:00 PM 16.48 61.664 0.042 6.92 3.41 9.31
8/28/2023 11:45:00 PM 16.46 61.628 0.042 6.94 3.12 9.31
8/29/2023 12:00:00 AM 16.45 61.61 0.042 6.93 3.31 9.3
8/29/2023 12:15:00 AM 16.43 61.574 0.043 6.95 3.14 9.33
8/29/2023 12:30:00 AM 16.41 61.538 0.043 6.92 3.22 9.32
8/29/2023 12:45:00 AM 16.39 61.502 0.043 6.9 3.16 9.34
8/29/2023 1:00:00 AM 16.37 61.466 0.043 6.94 3.52 9.34
8/29/2023 1:15:00 AM 16.35 61.43 0.043 6.95 3.19 9.33
8/29/2023 1:30:00 AM 16.34 61.412 0.043 6.94 3.2 9.36
8/29/2023 1:45:00 AM 16.33 61.394 0.043 6.93 3.15 9.35
8/29/2023 2:00:00 AM 16.31 61.358 0.043 6.93 3.2 9.34
8/29/2023 2:15:00 AM 16.3 61.34 0.043 6.92 3.09 9.36
8/29/2023 2:30:00 AM 16.29 61.322 0.043 6.9 3.11 9.36
8/29/2023 2:45:00 AM 16.28 61.304 0.043 6.94 3.19 9.36
8/29/2023 3:00:00 AM 16.27 61.286 0.043 6.87 3.15 9.37
8/29/2023 3:15:00 AM 16.25 61.25 0.043 6.94 3.14 9.36
8/29/2023 3:30:00 AM 16.24 61.232 0.043 6.92 3.08 9.37
8/29/2023 3:45:00 AM 16.23 61.214 0.043 6.93 3.28 9.37
8/29/2023 4:00:00 AM 16.22 61.196 0.043 6.91 3.24 9.37
8/29/2023 4:15:00 AM 16.21 61.178 0.043 6.93 3.04 9.38
8/29/2023 4:30:00 AM 16.2 61.16 0.043 6.9 2.97 9.37
8/29/2023 4:45:00 AM 16.18 61.124 0.043 6.92 3.18 9.38
8/29/2023 5:00:00 AM 16.17 61.106 0.043 6.92 3.05 9.38
8/29/2023 5:15:00 AM 16.16 61.088 0.043 6.93 3.06 9.38
8/29/2023 5:30:00 AM 16.14 61.052 0.043 6.92 3.04 9.38
8/29/2023 5:45:00 AM 16.13 61.034 0.043 6.93 3.21 9.39
8/29/2023 6:00:00 AM 16.12 61.016 0.043 6.89 3.47 9.39
8/29/2023 6:15:00 AM 16.11 60.998 0.043 6.89 3.27 9.39
8/29/2023 6:30:00 AM 16.1 60.98 0.043 6.92 3.13 9.39
8/29/2023 6:45:00 AM 16.09 60.962 0.043 6.92 3.03 9.39
8/29/2023 7:00:00 AM 16.08 60.944 0.043 6.92 3.17 9.4
8/29/2023 7:15:00 AM 16.07 60.926 0.043 6.87 3.23 9.42
8/29/2023 7:30:00 AM 16.08 60.944 0.043 6.93 3.18 9.47
8/29/2023 7:45:00 AM 16.08 60.944 0.043 6.94 3.12 9.5
8/29/2023 8:00:00 AM 16.08 60.944 0.043 6.93 3.13 9.5
8/29/2023 8:15:00 AM 16.08 60.944 0.043 6.9 3.14 9.5
8/29/2023 8:30:00 AM 16.08 60.944 0.043 6.88 3.14 9.53
8/29/2023 8:45:00 AM 16.09 60.962 0.043 6.93 3.07 9.54
8/29/2023 9:00:00 AM 16.1 60.98 0.043 6.93 3.03 9.56
8/29/2023 9:15:00 AM 16.12 61.016 0.043 6.87 3.07 9.61
8/29/2023 9:30:00 AM 16.13 61.034 0.043 6.95 2.98 9.62
8/29/2023 9:45:00 AM 16.16 61.088 0.043 6.91 3.2 9.66
8/29/2023 10:00:00 AM 16.18 61.124 0.043 6.97 3.13 9.68
8/29/2023 10:15:00 AM 16.21 61.178 0.043 6.96 3.03 9.66
8/29/2023 10:30:00 AM 16.22 61.196 0.043 6.96 3.02 9.62
8/29/2023 10:45:00 AM 16.24 61.232 0.043 6.91 3.07 9.64
8/29/2023 11:00:00 AM 16.27 61.286 0.042 6.97 2.99 9.66
8/29/2023 11:15:00 AM 16.32 61.376 0.042 7 3.03 9.72
8/29/2023 11:30:00 AM 16.33 61.394 0.042 6.99 3.05 9.68
8/29/2023 11:45:00 AM 16.36 61.448 0.042 7.01 3.06 9.67
8/29/2023 12:00:00 PM 16.38 61.484 0.042 7.01 3 9.65
8/29/2023 12:15:00 PM 16.39 61.502 0.042 6.95 3.09 9.63
8/29/2023 12:30:00 PM 16.42 61.556 0.042 7.01 2.97 9.68
8/29/2023 12:45:00 PM 16.44 61.592 0.042 7.02 3.07 9.66
8/29/2023 1:00:00 PM 16.46 61.628 0.042 7.01 3.12 9.65
8/29/2023 1:15:00 PM 16.47 61.646 0.042 7.01 3.03 9.62
8/29/2023 1:30:00 PM 16.49 61.682 0.042 6.98 3.17 9.64
8/29/2023 1:45:00 PM 16.52 61.736 0.042 6.99 3.02 9.63
8/29/2023 2:00:00 PM 16.55 61.79 0.042 6.97 3.04 9.67
8/29/2023 2:15:00 PM 16.61 61.898 0.042 7.04 3.27 9.7
8/29/2023 2:30:00 PM 16.67 62.006 0.042 7.06 3.09 9.73
8/29/2023 2:45:00 PM 16.69 62.042 0.042 7.06 3.11 9.69
8/29/2023 3:00:00 PM 16.71 62.078 0.042 7.05 3.18 9.6
8/29/2023 3:15:00 PM 16.72 62.096 0.042 7.04 3.05 9.6
8/29/2023 3:30:00 PM 16.74 62.132 0.042 7.02 2.97 9.59
8/29/2023 3:45:00 PM 16.77 62.186 0.042 7.06 2.99 9.61
8/29/2023 4:00:00 PM 16.83 62.294 0.042 7.07 3.17 9.65
8/29/2023 4:15:00 PM 16.87 62.366 0.042 7.08 3.11 9.64
8/29/2023 4:30:00 PM 16.89 62.402 0.042 7.08 3.05 9.61
8/29/2023 4:45:00 PM 16.91 62.438 0.042 7.05 3.07 9.56
8/29/2023 5:00:00 PM 16.91 62.438 0.042 7.05 3.06 9.49
8/29/2023 5:15:00 PM 16.94 62.492 0.042 7.05 2.98 9.51
8/29/2023 5:30:00 PM 16.96 62.528 0.042 7.04 3.14 9.49
8/29/2023 5:45:00 PM 16.98 62.564 0.042 6.97 3.13 9.42
8/29/2023 6:00:00 PM 16.97 62.546 0.042 7.02 3.22 9.37
8/29/2023 6:15:00 PM 16.97 62.546 0.042 6.93 3.14 9.34
8/29/2023 6:30:00 PM 16.97 62.546 0.042 6.93 3.12 9.29
8/29/2023 6:45:00 PM 16.97 62.546 0.042 6.93 3.07 9.3
8/29/2023 7:00:00 PM 16.97 62.546 0.042 6.96 3.04 9.29
8/29/2023 7:15:00 PM 16.98 62.564 0.042 6.96 3.2 9.29
8/29/2023 7:30:00 PM 16.97 62.546 0.042 6.88 3.06 9.28
8/29/2023 7:45:00 PM 16.97 62.546 0.042 6.9 3.07 9.24
8/29/2023 8:00:00 PM 16.95 62.51 0.042 6.93 3.11 9.22
8/29/2023 8:15:00 PM 16.94 62.492 0.043 6.88 3.15 9.2
8/29/2023 8:30:00 PM 16.92 62.456 0.043 6.9 3.28 9.19
8/29/2023 8:45:00 PM 16.91 62.438 0.043 6.9 3.18 9.18
8/29/2023 9:00:00 PM 16.9 62.42 0.043 6.88 3.14 9.18
8/29/2023 9:15:00 PM 16.89 62.402 0.043 6.81 3.55 9.18
8/29/2023 9:30:00 PM 16.88 62.384 0.043 6.88 3.14 9.18
8/29/2023 9:45:00 PM 16.87 62.366 0.043 6.83 3.23 9.17
8/29/2023 10:00:00 PM 16.86 62.348 0.043 6.83 3.17 9.18
8/29/2023 10:15:00 PM 16.85 62.33 0.043 6.84 3.15 9.18
8/29/2023 10:30:00 PM 16.84 62.312 0.043 6.86 3.24 9.17
8/29/2023 10:45:00 PM 16.83 62.294 0.043 6.85 3.2 9.17
8/29/2023 11:00:00 PM 16.82 62.276 0.043 6.84 3.28 9.17
8/29/2023 11:15:00 PM 16.82 62.276 0.043 6.78 3.27 9.16
8/29/2023 11:30:00 PM 16.81 62.258 0.043 6.8 3.49 9.16
8/29/2023 11:45:00 PM 16.81 62.258 0.043 6.84 3.27 9.16
8/30/2023 12:00:00 AM 16.8 62.24 0.043 6.84 3.2 9.16
8/30/2023 12:15:00 AM 16.79 62.222 0.043 6.83 3.14 9.16
8/30/2023 12:30:00 AM 16.78 62.204 0.043 6.84 3.12 9.16
8/30/2023 12:45:00 AM 16.78 62.204 0.043 6.82 3.14 9.16
8/30/2023 1:00:00 AM 16.77 62.186 0.043 6.84 3.11 9.16
8/30/2023 1:15:00 AM 16.76 62.168 0.043 6.82 3.12 9.16
8/30/2023 1:30:00 AM 16.76 62.168 0.043 6.84 3.22 9.17
8/30/2023 1:45:00 AM 16.76 62.168 0.043 6.84 3.37 9.16
8/30/2023 2:00:00 AM 16.75 62.15 0.043 6.83 3.3 9.15
8/30/2023 2:15:00 AM 16.75 62.15 0.043 6.83 3.27 9.16
8/30/2023 2:30:00 AM 16.74 62.132 0.043 6.83 3.27 9.16
8/30/2023 2:45:00 AM 16.73 62.114 0.043 6.81 3.32 9.15
8/30/2023 3:00:00 AM 16.72 62.096 0.043 6.82 3.21 9.17
8/30/2023 3:15:00 AM 16.71 62.078 0.043 6.82 3.45 9.16
8/30/2023 3:30:00 AM 16.7 62.06 0.043 6.82 3.33 9.17
8/30/2023 3:45:00 AM 16.69 62.042 0.043 6.75 3.28 9.16
8/30/2023 4:00:00 AM 16.68 62.024 0.043 6.82 3.19 9.17
8/30/2023 4:15:00 AM 16.67 62.006 0.044 6.79 3.41 9.17
8/30/2023 4:30:00 AM 16.66 61.988 0.044 6.81 3.29 9.18
8/30/2023 4:45:00 AM 16.65 61.97 0.044 6.81 3.12 9.17
8/30/2023 5:00:00 AM 16.63 61.934 0.044 6.84 3.16 9.19
8/30/2023 5:15:00 AM 16.62 61.916 0.044 6.85 3.17 9.2
8/30/2023 5:30:00 AM 16.6 61.88 0.044 6.88 3.19 9.21
8/30/2023 5:45:00 AM 16.59 61.862 0.044 6.9 3.38 9.21
8/30/2023 6:00:00 AM 16.56 61.808 0.044 6.91 3.33 9.22
8/30/2023 6:15:00 AM 16.53 61.754 0.044 6.9 3.18 9.23
8/30/2023 6:30:00 AM 16.51 61.718 0.044 6.93 3.4 9.22
8/30/2023 6:45:00 AM 16.49 61.682 0.044 6.94 3.25 9.23
8/30/2023 7:00:00 AM 16.47 61.646 0.043 6.95 3.32 9.26
8/30/2023 7:15:00 AM 16.45 61.61 0.043 6.89 3.18 9.28
8/30/2023 7:30:00 AM 16.43 61.574 0.043 6.97 3.28 9.29
8/30/2023 7:45:00 AM 16.42 61.556 0.043 6.96 3.18 9.29
8/30/2023 8:00:00 AM 16.41 61.538 0.043 6.97 3.21 9.33
8/30/2023 8:15:00 AM 16.41 61.538 0.043 6.99 3.14 9.36
8/30/2023 8:30:00 AM 16.41 61.538 0.043 6.97 3.26 9.4
8/30/2023 8:45:00 AM 16.4 61.52 0.043 6.99 3.07 9.42
8/30/2023 9:00:00 AM 16.41 61.538 0.043 6.98 3.17 9.46
8/30/2023 9:15:00 AM 16.42 61.556 0.043 7 3.28 9.49
8/30/2023 9:30:00 AM 16.43 61.574 0.043 7.01 3.14 9.49
8/30/2023 9:45:00 AM 16.44 61.592 0.043 7.03 3.13 9.52
8/30/2023 10:00:00 AM 16.47 61.646 0.043 7.04 3.28 9.56
8/30/2023 10:15:00 AM 16.49 61.682 0.042 7.04 3.41 9.58
8/30/2023 10:30:00 AM 16.51 61.718 0.042 7.04 3.13 9.59
8/30/2023 10:45:00 AM 16.53 61.754 0.042 7.06 3.19 9.59
8/30/2023 11:00:00 AM 16.59 61.862 0.042 7.07 3.37 9.61
8/30/2023 11:15:00 AM 16.65 61.97 0.042 7.06 3.29 9.62
8/30/2023 11:30:00 AM 16.71 62.078 0.042 7.09 3.44 9.62
8/30/2023 11:45:00 AM 16.76 62.168 0.042 7.09 3.18 9.61
8/30/2023 12:00:00 PM 16.84 62.312 0.042 7.1 3.07 9.64
8/30/2023 12:15:00 PM 16.88 62.384 0.042 7.04 3.18 9.62
8/30/2023 12:30:00 PM 16.97 62.546 0.042 7.12 3.18 9.6
8/30/2023 12:45:00 PM 17.12 62.816 0.042 7.12 3.18 9.63
8/30/2023 1:00:00 PM 17.32 63.176 0.042 7.14 3.08 9.63
8/30/2023 1:15:00 PM 17.46 63.428 0.041 7.17 3.21 9.63
8/30/2023 1:30:00 PM 17.45 63.41 0.041 7.17 3.24 9.57
8/30/2023 1:45:00 PM 17.58 63.644 0.041 7.16 3.31 9.59
8/30/2023 2:00:00 PM 17.65 63.77 0.041 7.2 3.31 9.57
8/30/2023 2:15:00 PM 17.87 64.166 0.041 7.15 3.23 9.58
8/30/2023 2:30:00 PM 17.98 64.364 0.041 7.21 3.13 9.57
8/30/2023 2:45:00 PM 18.07 64.526 0.041 7.23 3.2 9.53
8/30/2023 3:00:00 PM 18.09 64.562 0.041 7.23 3.14 9.49
8/30/2023 3:15:00 PM 18.08 64.544 0.041 7.23 3.32 9.46
8/30/2023 3:30:00 PM 18.12 64.616 0.041 7.23 3.22 9.44
8/30/2023 3:45:00 PM 18.09 64.562 0.041 7.22 3.32 9.42
8/30/2023 4:00:00 PM 18.11 64.598 0.041 7.23 3.31 9.41
8/30/2023 4:15:00 PM 18.1 64.58 0.041 7.19 3.26 9.4
8/30/2023 4:30:00 PM 18.09 64.562 0.041 7.22 3.18 9.37
8/30/2023 4:45:00 PM 18.06 64.508 0.041 7.2 3.33 9.32
8/30/2023 5:00:00 PM 18.03 64.454 0.041 7.11 3.28 9.29
8/30/2023 5:15:00 PM 17.99 64.382 0.041 7.17 3.13 9.25
8/30/2023 5:30:00 PM 17.96 64.328 0.041 7.14 3.11 9.21
8/30/2023 5:45:00 PM 17.92 64.256 0.041 7.08 3.26 9.21
8/30/2023 6:00:00 PM 17.88 64.184 0.041 7.13 3.01 9.2
8/30/2023 6:15:00 PM 17.85 64.13 0.041 7.12 3.17 9.2
8/30/2023 6:30:00 PM 17.8 64.04 0.041 7.11 3.18 9.19
8/30/2023 6:45:00 PM 17.76 63.968 0.042 7.1 3.22 9.14
8/30/2023 7:00:00 PM 17.71 63.878 0.042 7.08 3.22 9.12
8/30/2023 7:15:00 PM 17.66 63.788 0.042 7.02 3.13 9.1
8/30/2023 7:30:00 PM 17.62 63.716 0.042 7.03 3.15 9.09
8/30/2023 7:45:00 PM 17.57 63.626 0.042 7.05 3.06 9.07
8/30/2023 8:00:00 PM 17.52 63.536 0.042 7.03 4.05 9.06
8/30/2023 8:15:00 PM 17.48 63.464 0.042 7.03 3.24 9.07
8/30/2023 8:30:00 PM 17.44 63.392 0.042 7.02 3.27 9.07
8/30/2023 8:45:00 PM 17.4 63.32 0.042 7.02 3.24 9.07
8/30/2023 9:00:00 PM 17.37 63.266 0.042 7.01 3.31 9.08
8/30/2023 9:15:00 PM 17.32 63.176 0.042 7.01 3.15 9.08
8/30/2023 9:30:00 PM 17.29 63.122 0.042 7.01 3.33 9.08
8/30/2023 9:45:00 PM 17.25 63.05 0.042 7 3.28 9.1
8/30/2023 10:00:00 PM 17.22 62.996 0.042 7 3.25 9.09
8/30/2023 10:15:00 PM 17.2 62.96 0.042 7 3.25 9.1
8/30/2023 10:30:00 PM 17.17 62.906 0.042 7 3.28 9.11
8/30/2023 10:45:00 PM 17.14 62.852 0.043 6.95 3.25 9.11
8/30/2023 11:00:00 PM 17.1 62.78 0.043 6.99 3.42 9.12
8/30/2023 11:15:00 PM 17.06 62.708 0.043 7 3.16 9.14
8/30/2023 11:30:00 PM 17.03 62.654 0.043 6.96 3.14 9.13
8/30/2023 11:45:00 PM 16.99 62.582 0.043 7 3.3 9.15
8/31/2023 12:00:00 AM 16.96 62.528 0.043 6.99 3.21 9.16
8/31/2023 12:15:00 AM 16.92 62.456 0.043 7 3.32 9.17
8/31/2023 12:30:00 AM 16.89 62.402 0.043 6.99 3.09 9.17
8/31/2023 12:45:00 AM 16.85 62.33 0.043 6.98 3.37 9.18
8/31/2023 1:00:00 AM 16.82 62.276 0.043 6.99 3.4 9.19
8/31/2023 1:15:00 AM 16.79 62.222 0.043 6.95 3.14 9.2
8/31/2023 1:30:00 AM 16.76 62.168 0.043 6.97 3.29 9.21
8/31/2023 1:45:00 AM 16.73 62.114 0.043 6.99 3.09 9.21
8/31/2023 2:00:00 AM 16.69 62.042 0.043 6.98 3.27 9.22
8/31/2023 2:15:00 AM 16.65 61.97 0.043 6.98 3.17 9.23
8/31/2023 2:30:00 AM 16.6 61.88 0.043 7.02 3.44 9.19
8/31/2023 2:45:00 AM 16.55 61.79 0.043 7.01 3.17 9.23
8/31/2023 3:00:00 AM 16.51 61.718 0.043 6.95 3.07 9.26
8/31/2023 3:15:00 AM 16.45 61.61 0.043 6.99 3.28 9.26
8/31/2023 3:30:00 AM 16.39 61.502 0.043 6.99 3.42 9.28
8/31/2023 3:45:00 AM 16.34 61.412 0.043 6.99 3.13 9.3
8/31/2023 4:00:00 AM 16.28 61.304 0.043 6.93 3.24 9.3
8/31/2023 4:15:00 AM 16.22 61.196 0.043 6.99 3.26 9.32
8/31/2023 4:30:00 AM 16.15 61.07 0.043 6.98 3.41 9.33
8/31/2023 4:45:00 AM 16.09 60.962 0.043 6.98 3.25 9.35
8/31/2023 5:00:00 AM 16.02 60.836 0.043 6.98 3.35 9.36
8/31/2023 5:15:00 AM 15.96 60.728 0.043 6.98 3.18 9.38
8/31/2023 5:30:00 AM 15.89 60.602 0.043 6.97 3.21 9.39
8/31/2023 5:45:00 AM 15.82 60.476 0.043 6.97 3.2 9.4
8/31/2023 6:00:00 AM 15.76 60.368 0.043 6.97 3.06 9.41
8/31/2023 6:15:00 AM 15.7 60.26 0.043 6.89 3.84 9.43
8/31/2023 6:30:00 AM 15.64 60.152 0.043 6.96 3.18 9.45
8/31/2023 6:45:00 AM 15.58 60.044 0.043 6.95 3.4 9.47
8/31/2023 7:00:00 AM 15.51 59.918 0.043 6.95 3.13 9.48
8/31/2023 7:15:00 AM 15.44 59.792 0.043 6.94 3.06 9.52
8/31/2023 7:30:00 AM 15.38 59.684 0.043 6.94 2.98 9.55
8/31/2023 7:45:00 AM 15.32 59.576 0.043 6.95 3.14 9.57
8/31/2023 8:00:00 AM 15.26 59.468 0.043 6.94 3.1 9.59
8/31/2023 8:15:00 AM 15.2 59.36 0.043 6.93 3.17 9.63
8/31/2023 8:30:00 AM 15.15 59.27 0.043 6.94 3.52 9.64
8/31/2023 8:45:00 AM 15.1 59.18 0.043 6.94 3.03 9.67
8/31/2023 9:00:00 AM 15.05 59.09 0.043 6.95 3.12 9.7
8/31/2023 9:15:00 AM 15.02 59.036 0.043 6.95 3.15 9.71
8/31/2023 9:30:00 AM 15 59 0.043 6.96 3.21 9.73
8/31/2023 9:45:00 AM 14.99 58.982 0.043 6.96 3.42 9.77
8/31/2023 10:00:00 AM 14.98 58.964 0.043 6.96 3.21 9.77
8/31/2023 10:15:00 AM 14.99 58.982 0.043 6.97 3.31 9.8
8/31/2023 10:30:00 AM 15.01 59.018 0.043 6.97 3 9.82
8/31/2023 10:45:00 AM 15.03 59.054 0.043 6.98 3.24 9.83
8/31/2023 11:00:00 AM 15.08 59.144 0.042 7 3.1 9.85
8/31/2023 11:15:00 AM 15.14 59.252 0.042 7.01 3.3 9.88
8/31/2023 11:30:00 AM 15.22 59.396 0.042 7.03 4.33 9.89
8/31/2023 11:45:00 AM 15.33 59.594 0.042 7.04 3.14 9.89
8/31/2023 12:00:00 PM 15.46 59.828 0.042 7.06 2.99 9.9
8/31/2023 12:15:00 PM 15.6 60.08 0.042 7.07 3.11 9.89
8/31/2023 12:30:00 PM 15.77 60.386 0.042 7.08 3.16 9.89
8/31/2023 12:45:00 PM 15.96 60.728 0.042 7.11 3.06 9.87
8/31/2023 1:00:00 PM 16.16 61.088 0.042 7.11 3.05 9.86
8/31/2023 1:15:00 PM 16.37 61.466 0.042 7.14 3.07 9.86
8/31/2023 1:30:00 PM 16.58 61.844 0.041 7.14 3.56 9.82
8/31/2023 1:45:00 PM 16.78 62.204 0.041 7.16 3.16 9.8
8/31/2023 2:00:00 PM 16.98 62.564 0.041 7.17 3.18 9.78
8/31/2023 2:15:00 PM 17.16 62.888 0.041 7.19 3.11 9.75
8/31/2023 2:30:00 PM 17.31 63.158 0.041 7.2 3.02 9.72
8/31/2023 2:45:00 PM 17.4 63.32 0.041 7.15 3.3 9.7
8/31/2023 3:00:00 PM 17.44 63.392 0.041 7.21 3.28 9.66
8/31/2023 3:15:00 PM 17.44 63.392 0.041 7.2 3.2 9.64
8/31/2023 3:30:00 PM 17.45 63.41 0.041 7.21 3.16 9.62
8/31/2023 3:45:00 PM 17.45 63.41 0.042 7.2 3.09 9.58
8/31/2023 4:00:00 PM 17.36 63.248 0.041 7.19 3.36 9.54
8/31/2023 4:15:00 PM 17.35 63.23 0.042 7.17 3.15 9.51
8/31/2023 4:30:00 PM 17.34 63.212 0.042 7.16 3.21 9.49
8/31/2023 4:45:00 PM 17.33 63.194 0.042 7.14 3.42 9.45
8/31/2023 5:00:00 PM 17.32 63.176 0.042 7.14 3.03 9.42
8/31/2023 5:15:00 PM 17.31 63.158 0.042 7.12 3.05 9.38
8/31/2023 5:30:00 PM 17.28 63.104 0.042 7.12 3.05 9.37
8/31/2023 5:45:00 PM 17.26 63.068 0.042 7.1 3.03 9.33
8/31/2023 6:00:00 PM 17.21 62.978 0.042 7.09 3.1 9.33
8/31/2023 6:15:00 PM 17.15 62.87 0.042 7.09 3.15 9.31
8/31/2023 6:30:00 PM 17.08 62.744 0.042 7.08 3.18 9.3
8/31/2023 6:45:00 PM 17.01 62.618 0.042 7.07 3.11 9.31
8/31/2023 7:00:00 PM 16.92 62.456 0.042 7.07 3.11 9.31
8/31/2023 7:15:00 PM 16.83 62.294 0.042 7.06 3.12 9.32
8/31/2023 7:30:00 PM 16.74 62.132 0.042 7.06 3.25 9.31
8/31/2023 7:45:00 PM 16.65 61.97 0.042 7.04 3.15 9.32
8/31/2023 8:00:00 PM 16.55 61.79 0.042 7.03 3.02 9.32
8/31/2023 8:15:00 PM 16.47 61.646 0.042 7.02 3.2 9.34
8/31/2023 8:30:00 PM 16.38 61.484 0.042 7.01 3.18 9.35
8/31/2023 8:45:00 PM 16.3 61.34 0.042 7.02 3.44 9.36
8/31/2023 9:00:00 PM 16.22 61.196 0.042 7.01 3.25 9.37
8/31/2023 9:15:00 PM 16.15 61.07 0.042 7.02 3.52 9.4
8/31/2023 9:30:00 PM 16.08 60.944 0.042 6.99 3.25 9.41
8/31/2023 9:45:00 PM 16.02 60.836 0.042 7 3.12 9.42
8/31/2023 10:00:00 PM 15.96 60.728 0.042 7 3.11 9.44
8/31/2023 10:15:00 PM 15.89 60.602 0.043 6.99 3.21 9.44
8/31/2023 10:30:00 PM 15.83 60.494 0.043 7 3.08 9.46
8/31/2023 10:45:00 PM 15.77 60.386 0.043 6.99 3.1 9.48
8/31/2023 11:00:00 PM 15.71 60.278 0.043 6.98 3.22 9.49
8/31/2023 11:15:00 PM 15.64 60.152 0.043 6.99 3.78 9.51
8/31/2023 11:30:00 PM 15.58 60.044 0.043 6.91 3.12 9.52
8/31/2023 11:45:00 PM 15.52 59.936 0.043 6.97 3.08 9.54
9/1/2023 12:00:00 AM 15.46 59.828 0.043 6.93 3.11 9.55
9/1/2023 12:15:00 AM 15.39 59.702 0.043 6.96 3.19 9.56
9/1/2023 12:30:00 AM 15.33 59.594 0.043 6.97 3.34 9.59
9/1/2023 12:45:00 AM 15.26 59.468 0.043 6.96 3.3 9.61
9/1/2023 1:00:00 AM 15.19 59.342 0.043 6.94 3.2 9.63
9/1/2023 1:15:00 AM 15.12 59.216 0.043 6.95 3.52 9.64
9/1/2023 1:30:00 AM 15.05 59.09 0.043 6.94 3.23 9.66
9/1/2023 1:45:00 AM 14.98 58.964 0.043 6.95 3.18 9.67
9/1/2023 2:00:00 AM 14.91 58.838 0.043 6.94 3.2 9.7
9/1/2023 2:15:00 AM 14.84 58.712 0.043 6.93 3.13 9.71
9/1/2023 2:30:00 AM 14.76 58.568 0.043 6.91 3.32 9.73
9/1/2023 2:45:00 AM 14.69 58.442 0.043 6.93 3.3 9.75
9/1/2023 3:00:00 AM 14.61 58.298 0.043 6.92 3.06 9.78
9/1/2023 3:15:00 AM 14.54 58.172 0.043 6.92 3.14 9.79
9/1/2023 3:30:00 AM 14.47 58.046 0.043 6.91 2.99 9.8
9/1/2023 3:45:00 AM 14.4 57.92 0.043 6.9 3.16 9.82
9/1/2023 4:00:00 AM 14.32 57.776 0.043 6.89 3.28 9.84
9/1/2023 4:15:00 AM 14.25 57.65 0.043 6.9 3.12 9.86
9/1/2023 4:30:00 AM 14.18 57.524 0.043 6.9 3.11 9.89
9/1/2023 4:45:00 AM 14.11 57.398 0.043 6.88 3.08 9.9
9/1/2023 5:00:00 AM 14.04 57.272 0.043 6.89 3.12 9.93
9/1/2023 5:15:00 AM 13.97 57.146 0.043 6.89 3.06 9.94
9/1/2023 5:30:00 AM 13.9 57.02 0.043 6.88 3.22 9.95
9/1/2023 5:45:00 AM 13.83 56.894 0.043 6.88 3.06 9.98
9/1/2023 6:00:00 AM 13.76 56.768 0.043 6.87 3.08 10
9/1/2023 6:15:00 AM 13.7 56.66 0.043 6.83 3.28 10
9/1/2023 6:30:00 AM 13.63 56.534 0.043 6.88 3.21 10.02
9/1/2023 6:45:00 AM 13.56 56.408 0.043 6.87 3.06 10.04
9/1/2023 7:00:00 AM 13.5 56.3 0.043 6.88 3.12 10.08
9/1/2023 7:15:00 AM 13.43 56.174 0.043 6.87 3.04 10.1
9/1/2023 7:30:00 AM 13.38 56.084 0.043 6.88 3.06 10.13
9/1/2023 7:45:00 AM 13.32 55.976 0.043 6.89 2.97 10.16
9/1/2023 8:00:00 AM 13.26 55.868 0.043 6.88 3.18 10.19
9/1/2023 8:15:00 AM 13.21 55.778 0.043 6.89 3.11 10.22
9/1/2023 8:30:00 AM 13.16 55.688 0.043 6.9 2.96 10.24
9/1/2023 8:45:00 AM 13.11 55.598 0.043 6.9 3.02 10.25
9/1/2023 9:00:00 AM 13.07 55.526 0.043 6.89 3.06 10.28
9/1/2023 9:15:00 AM 13.05 55.49 0.043 6.87 3.01 10.3
9/1/2023 9:30:00 AM 13.04 55.472 0.043 6.92 3.03 10.31
9/1/2023 9:45:00 AM 13.06 55.508 0.043 6.93 3.04 10.34
9/1/2023 10:00:00 AM 13.08 55.544 0.043 6.93 3.32 10.35
9/1/2023 10:15:00 AM 13.11 55.598 0.043 6.95 3.1 10.38
9/1/2023 10:30:00 AM 13.15 55.67 0.043 6.96 2.92 10.38
9/1/2023 10:45:00 AM 13.22 55.796 0.042 6.97 3.15 10.4
9/1/2023 11:00:00 AM 13.3 55.94 0.042 6.99 3.02 10.4
9/1/2023 11:15:00 AM 13.41 56.138 0.042 7.01 3.01 10.42
9/1/2023 11:30:00 AM 13.53 56.354 0.042 7.02 3.32 10.42
9/1/2023 11:45:00 AM 13.67 56.606 0.042 7.05 2.94 10.42
9/1/2023 12:00:00 PM 13.83 56.894 0.042 7.07 2.98 10.41
9/1/2023 12:15:00 PM 14.02 57.236 0.042 7.08 3.07 10.4
9/1/2023 12:30:00 PM 14.21 57.578 0.042 7.11 3.05 10.39
9/1/2023 12:45:00 PM 14.43 57.974 0.042 7.12 2.96 10.36
9/1/2023 1:00:00 PM 14.66 58.388 0.042 7.09 2.95 10.33
9/1/2023 1:15:00 PM 14.92 58.856 0.042 7.16 3.04 10.29
9/1/2023 1:30:00 PM 15.16 59.288 0.042 7.15 2.95 10.25
9/1/2023 1:45:00 PM 15.41 59.738 0.041 7.2 2.96 10.2
9/1/2023 2:00:00 PM 15.65 60.17 0.041 7.18 2.97 10.15
9/1/2023 2:15:00 PM 15.88 60.584 0.041 7.23 2.96 10.14
9/1/2023 2:30:00 PM 16.06 60.908 0.041 7.23 3.03 10.1
9/1/2023 2:45:00 PM 16.2 61.16 0.041 7.23 3.02 10.06
9/1/2023 3:00:00 PM 16.3 61.34 0.041 7.24 2.97 10.02
9/1/2023 3:15:00 PM 16.36 61.448 0.041 7.23 2.89 9.99
9/1/2023 3:30:00 PM 16.39 61.502 0.041 7.22 3.12 9.95
9/1/2023 3:45:00 PM 16.39 61.502 0.041 7.15 3.06 9.92
9/1/2023 4:00:00 PM 16.35 61.43 0.042 7.12 3.12 9.88
9/1/2023 4:15:00 PM 16.34 61.412 0.041 7.2 2.92 9.84
9/1/2023 4:30:00 PM 16.36 61.448 0.042 7.18 3.03 9.8
9/1/2023 4:45:00 PM 16.38 61.484 0.042 7.17 2.94 9.74
9/1/2023 5:00:00 PM 16.39 61.502 0.042 7.06 2.94 9.7
9/1/2023 5:15:00 PM 16.41 61.538 0.042 7.15 3.12 9.67
9/1/2023 5:30:00 PM 16.42 61.556 0.042 7.13 2.96 9.64
9/1/2023 5:45:00 PM 16.41 61.538 0.042 7.12 3.14 9.62
9/1/2023 6:00:00 PM 16.39 61.502 0.042 7.1 3.17 9.58
9/1/2023 6:15:00 PM 16.36 61.448 0.042 7.09 3.08 9.54
9/1/2023 6:30:00 PM 16.32 61.376 0.042 7.09 3.04 9.52
9/1/2023 6:45:00 PM 16.27 61.286 0.042 7.02 3.29 9.53
9/1/2023 7:00:00 PM 16.22 61.196 0.042 7.07 3.32 9.52
9/1/2023 7:15:00 PM 16.16 61.088 0.042 7.07 3.24 9.51
9/1/2023 7:30:00 PM 16.1 60.98 0.042 7.03 3.17 9.52
9/1/2023 7:45:00 PM 16.03 60.854 0.042 7.06 3.14 9.52
9/1/2023 8:00:00 PM 15.97 60.746 0.042 7.04 3.02 9.52
9/1/2023 8:15:00 PM 15.9 60.62 0.042 7.03 3.12 9.51
9/1/2023 8:30:00 PM 15.83 60.494 0.042 6.97 3.01 9.53
9/1/2023 8:45:00 PM 15.76 60.368 0.042 7.02 3 9.54
9/1/2023 9:00:00 PM 15.71 60.278 0.042 7.01 3.06 9.55
9/1/2023 9:15:00 PM 15.65 60.17 0.042 6.98 3.06 9.55
9/1/2023 9:30:00 PM 15.6 60.08 0.043 7.01 3.17 9.55
9/1/2023 9:45:00 PM 15.55 59.99 0.043 7.01 3.97 9.57
9/1/2023 10:00:00 PM 15.51 59.918 0.043 7 3.46 9.58
9/1/2023 10:15:00 PM 15.46 59.828 0.043 6.93 3.19 9.58
9/1/2023 10:30:00 PM 15.42 59.756 0.043 6.99 3.36 9.6
9/1/2023 10:45:00 PM 15.37 59.666 0.043 7 3.2 9.6
9/1/2023 11:00:00 PM 15.33 59.594 0.043 6.99 3.1 9.62
9/1/2023 11:15:00 PM 15.29 59.522 0.043 6.91 3.25 9.63
9/1/2023 11:30:00 PM 15.24 59.432 0.043 6.98 3.06 9.64
9/1/2023 11:45:00 PM 15.2 59.36 0.043 6.99 3.05 9.65
9/2/2023 12:00:00 AM 15.15 59.27 0.043 6.98 3.08 9.65
9/2/2023 12:15:00 AM 15.11 59.198 0.043 6.99 3.09 9.66
9/2/2023 12:30:00 AM 15.06 59.108 0.043 6.98 3.14 9.67
9/2/2023 12:45:00 AM 15.01 59.018 0.043 6.95 3.15 9.68
9/2/2023 1:00:00 AM 14.96 58.928 0.043 6.98 3.02 9.7
9/2/2023 1:15:00 AM 14.91 58.838 0.043 6.9 3.26 9.7
9/2/2023 1:30:00 AM 14.86 58.748 0.043 6.98 3.36 9.71
9/2/2023 1:45:00 AM 14.8 58.64 0.043 6.97 3 9.72
9/2/2023 2:00:00 AM 14.75 58.55 0.043 6.96 3.2 9.74
9/2/2023 2:15:00 AM 14.69 58.442 0.043 6.97 3.05 9.75
9/2/2023 2:30:00 AM 14.63 58.334 0.043 6.96 3.16 9.75
9/2/2023 2:45:00 AM 14.58 58.244 0.043 6.93 3.07 9.77
9/2/2023 3:00:00 AM 14.52 58.136 0.043 6.96 2.99 9.79
9/2/2023 3:15:00 AM 14.46 58.028 0.043 6.92 2.95 9.81
9/2/2023 3:30:00 AM 14.4 57.92 0.043 6.9 3.11 9.81
9/2/2023 3:45:00 AM 14.34 57.812 0.043 6.94 3.03 9.83
9/2/2023 4:00:00 AM 14.28 57.704 0.043 6.89 3.07 9.84
9/2/2023 4:15:00 AM 14.22 57.596 0.043 6.94 3.06 9.85
9/2/2023 4:30:00 AM 14.16 57.488 0.043 6.93 3.23 9.87
9/2/2023 4:45:00 AM 14.1 57.38 0.043 6.92 3.06 9.89
9/2/2023 5:00:00 AM 14.04 57.272 0.043 6.92 3.12 9.91
9/2/2023 5:15:00 AM 13.97 57.146 0.043 6.92 3.12 9.91
9/2/2023 5:30:00 AM 13.91 57.038 0.043 6.86 3.05 9.93
9/2/2023 5:45:00 AM 13.85 56.93 0.043 6.87 3.07 9.96
9/2/2023 6:00:00 AM 13.79 56.822 0.043 6.87 2.91 9.96
9/2/2023 6:15:00 AM 13.73 56.714 0.043 6.88 3.15 9.98
9/2/2023 6:30:00 AM 13.67 56.606 0.043 6.86 2.92 9.99
9/2/2023 6:45:00 AM 13.61 56.498 0.043 6.9 3.04 10
9/2/2023 7:00:00 AM 13.56 56.408 0.043 6.89 4.13 10.03
9/2/2023 7:15:00 AM 13.5 56.3 0.043 6.89 3.32 10.05
9/2/2023 7:30:00 AM 13.45 56.21 0.043 6.89 3.02 10.08
9/2/2023 7:45:00 AM 13.4 56.12 0.043 6.91 3.01 10.11
9/2/2023 8:00:00 AM 13.35 56.03 0.043 6.91 3 10.14
9/2/2023 8:15:00 AM 13.31 55.958 0.043 6.85 3.04 10.17
9/2/2023 8:30:00 AM 13.27 55.886 0.043 6.91 3.15 10.2
9/2/2023 8:45:00 AM 13.24 55.832 0.043 6.9 3.47 10.22
9/2/2023 9:00:00 AM 13.22 55.796 0.043 6.93 2.99 10.25
9/2/2023 9:15:00 AM 13.2 55.76 0.043 6.92 3.07 10.25
9/2/2023 9:30:00 AM 13.2 55.76 0.043 6.93 2.89 10.27
9/2/2023 9:45:00 AM 13.21 55.778 0.043 6.93 3.1 10.28
9/2/2023 10:00:00 AM 13.24 55.832 0.043 6.95 3.05 10.3
9/2/2023 10:15:00 AM 13.28 55.904 0.043 6.96 2.92 10.31
9/2/2023 10:30:00 AM 13.32 55.976 0.043 6.97 2.98 10.33
9/2/2023 10:45:00 AM 13.39 56.102 0.043 6.98 3.56 10.34
9/2/2023 11:00:00 AM 13.46 56.228 0.043 6.99 2.99 10.34
9/2/2023 11:15:00 AM 13.58 56.444 0.042 7.02 2.96 10.36
9/2/2023 11:30:00 AM 13.7 56.66 0.042 7.04 3 10.38
9/2/2023 11:45:00 AM 13.83 56.894 0.042 7.05 2.94 10.39
9/2/2023 12:00:00 PM 13.99 57.182 0.042 7.08 2.87 10.37
9/2/2023 12:15:00 PM 14.18 57.524 0.042 7.09 2.97 10.36
9/2/2023 12:30:00 PM 14.4 57.92 0.042 7.06 3.01 10.33
9/2/2023 12:45:00 PM 14.63 58.334 0.042 7.13 2.95 10.3
9/2/2023 1:00:00 PM 14.89 58.802 0.042 7.16 2.98 10.26
9/2/2023 1:15:00 PM 15.09 59.162 0.042 7.18 2.95 10.23
9/2/2023 1:30:00 PM 15.36 59.648 0.042 7.16 3.11 10.2
9/2/2023 1:45:00 PM 15.58 60.044 0.041 7.22 3.2 10.16
9/2/2023 2:00:00 PM 15.86 60.548 0.041 7.23 2.84 10.11
9/2/2023 2:15:00 PM 16.12 61.016 0.041 7.24 3.26 10.06
9/2/2023 2:30:00 PM 16.32 61.376 0.041 7.25 3.13 10.03
9/2/2023 2:45:00 PM 16.49 61.682 0.041 7.18 3.21 9.97
9/2/2023 3:00:00 PM 16.61 61.898 0.041 7.17 2.97 9.93
9/2/2023 3:15:00 PM 16.68 62.024 0.041 7.23 2.97 9.88
9/2/2023 3:30:00 PM 16.75 62.15 0.041 7.24 3.11 9.87
9/2/2023 3:45:00 PM 16.75 62.15 0.041 7.24 2.96 9.82
9/2/2023 4:00:00 PM 16.73 62.114 0.041 7.24 3.14 9.77
9/2/2023 4:15:00 PM 16.75 62.15 0.042 7.22 3.68 9.73
9/2/2023 4:30:00 PM 16.76 62.168 0.042 7.21 3.15 9.68
9/2/2023 4:45:00 PM 16.78 62.204 0.042 7.2 3.12 9.65
9/2/2023 5:00:00 PM 16.81 62.258 0.042 7.18 3.39 9.61
9/2/2023 5:15:00 PM 16.83 62.294 0.042 7.16 3.84 9.56
9/2/2023 5:30:00 PM 16.85 62.33 0.042 7.14 3.14 9.52
9/2/2023 5:45:00 PM 16.86 62.348 0.042 7.12 3.23 9.49
9/2/2023 6:00:00 PM 16.87 62.366 0.042 7.1 3.24 9.49
9/2/2023 6:15:00 PM 16.87 62.366 0.042 7.1 2.95 9.49
9/2/2023 6:30:00 PM 16.87 62.366 0.042 7.09 2.96 9.47
9/2/2023 6:45:00 PM 16.86 62.348 0.042 7.06 3.35 9.46
9/2/2023 7:00:00 PM 16.84 62.312 0.042 7.06 2.98 9.42
9/2/2023 7:15:00 PM 16.82 62.276 0.042 7.04 2.95 9.38
9/2/2023 7:30:00 PM 16.79 62.222 0.042 7.03 3.04 9.35
9/2/2023 7:45:00 PM 16.76 62.168 0.042 6.92 3.01 9.32
9/2/2023 8:00:00 PM 16.72 62.096 0.042 7.01 3.27 9.31
9/2/2023 8:15:00 PM 16.69 62.042 0.043 6.99 2.99 9.29
9/2/2023 8:30:00 PM 16.65 61.97 0.043 6.99 3.15 9.29
9/2/2023 8:45:00 PM 16.62 61.916 0.043 6.97 3.21 9.28
9/2/2023 9:00:00 PM 16.6 61.88 0.043 6.92 3.07 9.28
9/2/2023 9:15:00 PM 16.57 61.826 0.043 6.96 3.2 9.29
9/2/2023 9:30:00 PM 16.56 61.808 0.043 6.95 3.01 9.28
9/2/2023 9:45:00 PM 16.55 61.79 0.043 6.96 3.18 9.28
9/2/2023 10:00:00 PM 16.54 61.772 0.043 6.96 3.06 9.29
9/2/2023 10:15:00 PM 16.53 61.754 0.043 6.95 3.08 9.29
9/2/2023 10:30:00 PM 16.52 61.736 0.043 6.94 3.02 9.27
9/2/2023 10:45:00 PM 16.51 61.718 0.043 6.94 3.17 9.28
9/2/2023 11:00:00 PM 16.5 61.7 0.043 6.93 3.29 9.27
9/2/2023 11:15:00 PM 16.49 61.682 0.043 6.89 2.94 9.28
9/2/2023 11:30:00 PM 16.48 61.664 0.043 6.94 3.18 9.29
9/2/2023 11:45:00 PM 16.47 61.646 0.043 6.94 3.18 9.28
9/3/2023 12:00:00 AM 16.47 61.646 0.043 6.95 3.24 9.29
9/3/2023 12:15:00 AM 16.46 61.628 0.043 6.95 3.08 9.29
9/3/2023 12:30:00 AM 16.46 61.628 0.043 6.95 3.43 9.29
9/3/2023 12:45:00 AM 16.45 61.61 0.043 6.94 3.14 9.28
9/3/2023 1:00:00 AM 16.44 61.592 0.043 6.95 3.1 9.27
9/3/2023 1:15:00 AM 16.44 61.592 0.043 6.94 3.5 9.28
9/3/2023 1:30:00 AM 16.43 61.574 0.043 6.94 3.2 9.28
9/3/2023 1:45:00 AM 16.41 61.538 0.043 6.95 3.01 9.28
9/3/2023 2:00:00 AM 16.4 61.52 0.043 6.94 3.14 9.29
9/3/2023 2:15:00 AM 16.38 61.484 0.043 6.95 3.03 9.29
9/3/2023 2:30:00 AM 16.36 61.448 0.044 6.95 3.08 9.28
9/3/2023 2:45:00 AM 16.35 61.43 0.044 6.95 3.06 9.3
9/3/2023 3:00:00 AM 16.32 61.376 0.044 6.94 3.15 9.3
9/3/2023 3:15:00 AM 16.3 61.34 0.044 6.93 2.98 9.3
9/3/2023 3:30:00 AM 16.27 61.286 0.044 6.95 2.99 9.31
9/3/2023 3:45:00 AM 16.24 61.232 0.044 6.95 3.19 9.32
9/3/2023 4:00:00 AM 16.22 61.196 0.044 6.95 3.01 9.31
9/3/2023 4:15:00 AM 16.19 61.142 0.044 6.95 3.1 9.33
9/3/2023 4:30:00 AM 16.16 61.088 0.044 6.9 3.13 9.34
9/3/2023 4:45:00 AM 16.14 61.052 0.044 6.95 3.02 9.34
9/3/2023 5:00:00 AM 16.12 61.016 0.044 6.95 3.01 9.33
9/3/2023 5:15:00 AM 16.1 60.98 0.044 6.95 3.27 9.34
9/3/2023 5:30:00 AM 16.08 60.944 0.044 6.94 3.08 9.34
9/3/2023 5:45:00 AM 16.06 60.908 0.044 6.95 3.08 9.35
9/3/2023 6:00:00 AM 16.04 60.872 0.044 6.94 3.05 9.37
9/3/2023 6:15:00 AM 16.02 60.836 0.044 6.91 2.98 9.36
9/3/2023 6:30:00 AM 16 60.8 0.044 6.96 2.96 9.37
9/3/2023 6:45:00 AM 15.98 60.764 0.044 6.95 3.01 9.37
9/3/2023 7:00:00 AM 15.96 60.728 0.044 6.95 3.1 9.38
9/3/2023 7:15:00 AM 15.95 60.71 0.044 6.96 3.12 9.4
9/3/2023 7:30:00 AM 15.93 60.674 0.044 6.96 3 9.41
9/3/2023 7:45:00 AM 15.91 60.638 0.044 6.96 3.23 9.45
9/3/2023 8:00:00 AM 15.9 60.62 0.044 6.96 3.05 9.47
9/3/2023 8:15:00 AM 15.89 60.602 0.044 6.98 2.95 9.51
9/3/2023 8:30:00 AM 15.88 60.584 0.044 6.99 3.04 9.53
9/3/2023 8:45:00 AM 15.88 60.584 0.044 6.94 3.04 9.57
9/3/2023 9:00:00 AM 15.88 60.584 0.043 6.99 5.46 9.59
9/3/2023 9:15:00 AM 15.88 60.584 0.043 7.02 3.16 9.64
9/3/2023 9:30:00 AM 15.87 60.566 0.043 7.02 3.19 9.63
9/3/2023 9:45:00 AM 15.88 60.584 0.043 6.99 3.24 9.64
9/3/2023 10:00:00 AM 15.89 60.602 0.043 7.01 3.12 9.65
9/3/2023 10:15:00 AM 15.9 60.62 0.043 7.01 3.05 9.65
9/3/2023 10:30:00 AM 15.93 60.674 0.043 7.01 3.16 9.67
9/3/2023 10:45:00 AM 15.99 60.782 0.043 7.02 3.19 9.7
9/3/2023 11:00:00 AM 16.06 60.908 0.043 7.03 3.08 9.71
9/3/2023 11:15:00 AM 16.15 61.07 0.043 7.05 3.28 9.73
9/3/2023 11:30:00 AM 16.25 61.25 0.043 7.06 3.06 9.74
9/3/2023 11:45:00 AM 16.37 61.466 0.043 7.08 3.03 9.74
9/3/2023 12:00:00 PM 16.51 61.718 0.043 7.09 2.96 9.72
9/3/2023 12:15:00 PM 16.67 62.006 0.043 7.1 3.26 9.69
9/3/2023 12:30:00 PM 16.85 62.33 0.042 7.13 2.91 9.7
9/3/2023 12:45:00 PM 17.05 62.69 0.042 7.13 2.94 9.67
9/3/2023 1:00:00 PM 17.29 63.122 0.042 7.17 3.12 9.67
9/3/2023 1:15:00 PM 17.52 63.536 0.042 7.18 2.96 9.65
9/3/2023 1:30:00 PM 17.76 63.968 0.042 7.21 3.26 9.63
9/3/2023 1:45:00 PM 18.01 64.418 0.042 7.18 3.07 9.58
9/3/2023 2:00:00 PM 18.24 64.832 0.042 7.23 2.96 9.55
9/3/2023 2:15:00 PM 18.46 65.228 0.042 7.25 3.07 9.52
9/3/2023 2:30:00 PM 18.64 65.552 0.042 7.2 3.16 9.46
9/3/2023 2:45:00 PM 18.81 65.858 0.042 7.26 3.26 9.45
9/3/2023 3:00:00 PM 18.91 66.038 0.042 7.27 3.25 9.41
9/3/2023 3:15:00 PM 18.94 66.092 0.042 7.27 3.25 9.38
9/3/2023 3:30:00 PM 18.93 66.074 0.042 7.27 3.52 9.35
9/3/2023 3:45:00 PM 18.91 66.038 0.042 7.26 3.46 9.32
9/3/2023 4:00:00 PM 18.86 65.948 0.042 7.24 3.47 9.26
9/3/2023 4:15:00 PM 18.85 65.93 0.042 7.22 3.23 9.21
9/3/2023 4:30:00 PM 18.85 65.93 0.042 7.17 3.19 9.18
9/3/2023 4:45:00 PM 18.85 65.93 0.042 7.17 3.2 9.15
9/3/2023 5:00:00 PM 18.85 65.93 0.042 7.17 3.4 9.09
9/3/2023 5:15:00 PM 18.85 65.93 0.042 7.15 3.18 9.04
9/3/2023 5:30:00 PM 18.85 65.93 0.042 7.13 3.6 9
9/3/2023 5:45:00 PM 18.84 65.912 0.043 7.11 3.51 8.98
9/3/2023 6:00:00 PM 18.82 65.876 0.043 7.11 3.58 8.96
9/3/2023 6:15:00 PM 18.79 65.82201 0.043 7.09 3.35 8.92
9/3/2023 6:30:00 PM 18.76 65.768 0.043 7.08 3.21 8.92
9/3/2023 6:45:00 PM 18.72 65.696 0.043 7.06 3.17 8.9
9/3/2023 7:00:00 PM 18.67 65.606 0.043 7.04 3.24 8.88
9/3/2023 7:15:00 PM 18.63 65.534 0.043 7.03 3.17 8.87
9/3/2023 7:30:00 PM 18.58 65.444 0.043 7 3.06 8.85
9/3/2023 7:45:00 PM 18.53 65.354 0.043 7.01 3.18 8.85
9/3/2023 8:00:00 PM 18.47 65.246 0.043 7 3.19 8.85
9/3/2023 8:15:00 PM 18.41 65.138 0.043 6.98 3.2 8.85
9/3/2023 8:30:00 PM 18.34 65.012 0.043 6.97 3.3 8.85
9/3/2023 8:45:00 PM 18.28 64.904 0.043 6.98 3.39 8.85
9/3/2023 9:00:00 PM 18.22 64.796 0.044 6.97 3.84 8.85
9/3/2023 9:15:00 PM 18.17 64.706 0.044 6.98 3.48 8.88
9/3/2023 9:30:00 PM 18.12 64.616 0.044 6.96 3.32 8.87
9/3/2023 9:45:00 PM 18.07 64.526 0.044 6.97 3.15 8.88
9/3/2023 10:00:00 PM 18.03 64.454 0.044 6.96 3.02 8.89
9/3/2023 10:15:00 PM 17.98 64.364 0.044 6.96 3.08 8.9
9/3/2023 10:30:00 PM 17.95 64.31 0.044 6.95 3.17 8.9
9/3/2023 10:45:00 PM 17.91 64.238 0.044 6.97 3.12 8.92
9/3/2023 11:00:00 PM 17.88 64.184 0.044 6.95 3.19 8.93
9/3/2023 11:15:00 PM 17.85 64.13 0.044 6.96 3.12 8.93
9/3/2023 11:30:00 PM 17.82 64.076 0.044 6.95 3.26 8.94
9/3/2023 11:45:00 PM 17.79 64.022 0.044 6.95 3.21 8.92
9/4/2023 12:00:00 AM 17.76 63.968 0.044 6.94 3.26 8.94
9/4/2023 12:15:00 AM 17.73 63.914 0.044 6.94 3.03 8.94
9/4/2023 12:30:00 AM 17.7 63.86 0.044 6.95 3.27 8.94
9/4/2023 12:45:00 AM 17.68 63.824 0.044 6.94 3.09 8.96
9/4/2023 1:00:00 AM 17.65 63.77 0.044 6.9 3.13 8.95
9/4/2023 1:15:00 AM 17.62 63.716 0.044 6.95 3.2 8.98
9/4/2023 1:30:00 AM 17.6 63.68 0.044 6.95 3.35 8.98
9/4/2023 1:45:00 AM 17.57 63.626 0.044 6.93 3.23 8.97
9/4/2023 2:00:00 AM 17.54 63.572 0.044 6.93 3.18 8.98
9/4/2023 2:15:00 AM 17.52 63.536 0.044 6.94 3.21 8.99
9/4/2023 2:30:00 AM 17.49 63.482 0.044 6.94 3.18 9
9/4/2023 2:45:00 AM 17.47 63.446 0.044 6.94 3.26 8.98
9/4/2023 3:00:00 AM 17.44 63.392 0.044 6.94 3.01 8.99
9/4/2023 3:15:00 AM 17.42 63.356 0.044 6.94 3.63 9
9/4/2023 3:30:00 AM 17.39 63.302 0.044 6.93 3.23 8.99
9/4/2023 3:45:00 AM 17.36 63.248 0.044 6.94 3.16 9.01
9/4/2023 4:00:00 AM 17.34 63.212 0.044 6.93 3.65 9
9/4/2023 4:15:00 AM 17.31 63.158 0.044 6.94 4.19 9.02
9/4/2023 4:30:00 AM 17.29 63.122 0.044 6.93 3.2 9.02
9/4/2023 4:45:00 AM 17.26 63.068 0.044 6.93 3.07 9.02
9/4/2023 5:00:00 AM 17.22 62.996 0.044 6.92 3.05 9.03
9/4/2023 5:15:00 AM 17.19 62.942 0.044 6.93 3.22 9.04
9/4/2023 5:30:00 AM 17.16 62.888 0.044 6.93 3.21 9.04
9/4/2023 5:45:00 AM 17.13 62.834 0.044 6.93 3.2 9.06
9/4/2023 6:00:00 AM 17.1 62.78 0.044 6.92 3.19 9.06
9/4/2023 6:15:00 AM 17.06 62.708 0.044 6.92 3.09 9.08
9/4/2023 6:30:00 AM 17.03 62.654 0.044 6.92 3.26 9.07
9/4/2023 6:45:00 AM 17 62.6 0.044 6.91 3.07 9.1
9/4/2023 7:00:00 AM 16.97 62.546 0.044 6.93 3.26 9.1
9/4/2023 7:15:00 AM 16.93 62.474 0.044 6.93 3.2 9.12
9/4/2023 7:30:00 AM 16.91 62.438 0.044 6.92 3.03 9.16
9/4/2023 7:45:00 AM 16.89 62.402 0.044 6.93 3.14 9.17
9/4/2023 8:00:00 AM 16.87 62.366 0.044 6.93 3.17 9.21
9/4/2023 8:15:00 AM 16.85 62.33 0.044 6.94 3.27 9.23
9/4/2023 8:30:00 AM 16.83 62.294 0.044 6.9 3.11 9.24
9/4/2023 8:45:00 AM 16.82 62.276 0.044 6.95 3.19 9.27
9/4/2023 9:00:00 AM 16.82 62.276 0.044 6.95 3.09 9.32
9/4/2023 9:15:00 AM 16.82 62.276 0.044 6.9 3.07 9.34
9/4/2023 9:30:00 AM 16.84 62.312 0.044 6.96 3.11 9.39
9/4/2023 9:45:00 AM 16.86 62.348 0.044 6.97 3.17 9.43
9/4/2023 10:00:00 AM 16.88 62.384 0.044 6.97 3.14 9.43
9/4/2023 10:15:00 AM 16.9 62.42 0.044 6.97 3.16 9.42
9/4/2023 10:30:00 AM 16.94 62.492 0.044 6.96 3.12 9.41
9/4/2023 10:45:00 AM 17.03 62.654 0.044 7 3.14 9.46
9/4/2023 11:00:00 AM 17.1 62.78 0.044 7.01 3.81 9.44
9/4/2023 11:15:00 AM 17.19 62.942 0.044 7.04 3.06 9.44
9/4/2023 11:30:00 AM 17.31 63.158 0.043 7.04 3.08 9.43
9/4/2023 11:45:00 AM 17.43 63.374 0.043 7.05 3.06 9.43
9/4/2023 12:00:00 PM 17.58 63.644 0.043 7.07 3.13 9.42
9/4/2023 12:15:00 PM 17.77 63.986 0.043 7.08 3.18 9.41
9/4/2023 12:30:00 PM 17.96 64.328 0.043 7.12 3.04 9.4
9/4/2023 12:45:00 PM 18.18 64.724 0.043 7.14 3.26 9.39
9/4/2023 1:00:00 PM 18.4 65.12 0.043 7.13 3.01 9.4
9/4/2023 1:15:00 PM 18.64 65.552 0.043 7.18 3.14 9.39
9/4/2023 1:30:00 PM 18.83 65.894 0.043 7.19 3.22 9.38
9/4/2023 1:45:00 PM 19.07 66.326 0.043 7.21 3.01 9.34
9/4/2023 2:00:00 PM 19.3 66.74 0.043 7.23 3.06 9.31
9/4/2023 2:15:00 PM 19.52 67.136 0.043 7.24 3.02 9.29
9/4/2023 2:30:00 PM 19.71 67.478 0.043 7.25 3.76 9.23
9/4/2023 2:45:00 PM 19.87 67.766 0.043 7.26 3.03 9.19
9/4/2023 3:00:00 PM 19.98 67.964 0.043 7.26 3.11 9.15
9/4/2023 3:15:00 PM 20.04 68.07201 0.043 7.26 3 9.13
9/4/2023 3:30:00 PM 20.07 68.126 0.043 7.24 3.11 9.09
9/4/2023 3:45:00 PM 20.07 68.126 0.043 7.25 3.26 9.04
9/4/2023 4:00:00 PM 19.99 67.982 0.043 7.23 3.22 8.98
9/4/2023 4:15:00 PM 19.96 67.92799 0.043 7.16 3.09 8.94
9/4/2023 4:30:00 PM 19.96 67.92799 0.043 7.19 3.1 8.9
9/4/2023 4:45:00 PM 19.95 67.91 0.043 7.16 3.1 8.85
9/4/2023 5:00:00 PM 19.95 67.91 0.043 7.17 3.55 8.83
9/4/2023 5:15:00 PM 19.95 67.91 0.043 7.1 3.62 8.76
9/4/2023 5:30:00 PM 19.94 67.892 0.043 7.06 3.19 8.73
9/4/2023 5:45:00 PM 19.92 67.856 0.043 7.07 3.11 8.69
9/4/2023 6:00:00 PM 19.9 67.82 0.043 7.07 3.37 8.67
9/4/2023 6:15:00 PM 19.86 67.748 0.043 7 3.25 8.65
9/4/2023 6:30:00 PM 19.83 67.694 0.043 7.04 3.33 8.62
9/4/2023 6:45:00 PM 19.79 67.622 0.043 7 3.09 8.61
9/4/2023 7:00:00 PM 19.75 67.55 0.044 7.02 3.25 8.59
9/4/2023 7:15:00 PM 19.7 67.46 0.044 6.99 3.85 8.6
9/4/2023 7:30:00 PM 19.65 67.37 0.044 6.98 3.34 8.58
9/4/2023 7:45:00 PM 19.6 67.28 0.044 6.96 3.31 8.58
9/4/2023 8:00:00 PM 19.54 67.172 0.044 6.96 3.44 8.56
9/4/2023 8:15:00 PM 19.48 67.064 0.044 6.94 3.4 8.55
9/4/2023 8:30:00 PM 19.42 66.956 0.044 6.94 3.26 8.57
9/4/2023 8:45:00 PM 19.36 66.848 0.044 6.94 5.36 8.58
9/4/2023 9:00:00 PM 19.3 66.74 0.044 6.93 3.2 8.59
9/4/2023 9:15:00 PM 19.24 66.632 0.044 6.92 3.2 8.61
9/4/2023 9:30:00 PM 19.18 66.524 0.044 6.92 3.54 8.61
9/4/2023 9:45:00 PM 19.13 66.434 0.044 6.92 3.21 8.62
9/4/2023 10:00:00 PM 19.08 66.344 0.044 6.92 3.42 8.62
9/4/2023 10:15:00 PM 19.03 66.254 0.044 6.86 3.59 8.65
9/4/2023 10:30:00 PM 18.98 66.164 0.044 6.92 3.36 8.64
9/4/2023 10:45:00 PM 18.94 66.092 0.044 6.88 3.5 8.65
9/4/2023 11:00:00 PM 18.9 66.02 0.044 6.93 3.42 8.68
9/4/2023 11:15:00 PM 18.86 65.948 0.045 6.93 3.36 8.66
9/4/2023 11:30:00 PM 18.82 65.876 0.045 6.92 3.46 8.68
9/4/2023 11:45:00 PM 18.78 65.804 0.045 6.92 3.78 8.68
9/5/2023 12:00:00 AM 18.75 65.75 0.045 6.92 3.53 8.69
9/5/2023 12:15:00 AM 18.71 65.67799 0.045 6.88 3.57 8.69
9/5/2023 12:30:00 AM 18.67 65.606 0.045 6.89 3.33 8.7
9/5/2023 12:45:00 AM 18.63 65.534 0.045 6.94 3.44 8.7
9/5/2023 1:00:00 AM 18.59 65.462 0.045 6.92 3.68 8.73
9/5/2023 1:15:00 AM 18.55 65.39 0.045 6.94 3.46 8.71
9/5/2023 1:30:00 AM 18.51 65.318 0.045 6.93 3.3 8.73
9/5/2023 1:45:00 AM 18.47 65.246 0.045 6.93 3.34 8.75
9/5/2023 2:00:00 AM 18.42 65.156 0.045 6.92 3.2 8.74
9/5/2023 2:15:00 AM 18.38 65.084 0.045 6.9 3.39 8.75
9/5/2023 2:30:00 AM 18.33 64.994 0.045 6.92 3.48 8.77
9/5/2023 2:45:00 AM 18.29 64.922 0.045 6.89 3.3 8.77
9/5/2023 3:00:00 AM 18.24 64.832 0.045 6.92 4.04 8.78
9/5/2023 3:15:00 AM 18.19 64.742 0.045 6.92 3.69 8.78
9/5/2023 3:30:00 AM 18.14 64.652 0.045 6.89 3.29 8.8
9/5/2023 3:45:00 AM 18.09 64.562 0.045 6.92 3.47 8.81
9/5/2023 4:00:00 AM 18.04 64.472 0.045 6.87 3.29 8.81
9/5/2023 4:15:00 AM 17.98 64.364 0.045 6.92 3.34 8.83
9/5/2023 4:30:00 AM 17.94 64.292 0.045 6.92 3.25 8.82
9/5/2023 4:45:00 AM 17.89 64.202 0.045 6.86 3.28 8.86
9/5/2023 5:00:00 AM 17.83 64.094 0.045 6.91 3.2 8.86
9/5/2023 5:15:00 AM 17.78 64.004 0.045 6.88 3.35 8.88
9/5/2023 5:30:00 AM 17.72 63.896 0.045 6.91 3.28 8.89
9/5/2023 5:45:00 AM 17.67 63.806 0.045 6.91 3.36 8.89
9/5/2023 6:00:00 AM 17.62 63.716 0.045 6.9 3.26 8.91
9/5/2023 6:15:00 AM 17.57 63.626 0.045 6.88 3.32 8.91
9/5/2023 6:30:00 AM 17.52 63.536 0.045 6.89 4.07 8.92
9/5/2023 6:45:00 AM 17.47 63.446 0.045 6.85 3.39 8.96
9/5/2023 7:00:00 AM 17.43 63.374 0.045 6.87 3.57 8.98
9/5/2023 7:15:00 AM 17.38 63.284 0.045 6.91 3.38 8.99
9/5/2023 7:30:00 AM 17.34 63.212 0.045 6.89 3.28 9.03
9/5/2023 7:45:00 AM 17.3 63.14 0.045 6.89 3.24 9.03
9/5/2023 8:00:00 AM 17.27 63.086 0.045 6.9 3.24 9.06
9/5/2023 8:15:00 AM 17.24 63.032 0.045 6.9 3.2 9.08
9/5/2023 8:30:00 AM 17.2 62.96 0.045 6.91 3.2 9.12
9/5/2023 8:45:00 AM 17.18 62.924 0.045 6.91 3.13 9.14
9/5/2023 9:00:00 AM 17.15 62.87 0.045 6.91 3.16 9.17
9/5/2023 9:15:00 AM 17.13 62.834 0.045 6.92 3.21 9.2
9/5/2023 9:30:00 AM 17.12 62.816 0.045 6.92 3.14 9.2
9/5/2023 9:45:00 AM 17.12 62.816 0.045 6.92 3.37 9.23
9/5/2023 10:00:00 AM 17.14 62.852 0.045 6.92 3.45 9.24
9/5/2023 10:15:00 AM 17.15 62.87 0.045 6.93 3.19 9.25
9/5/2023 10:30:00 AM 17.18 62.924 0.045 6.93 3.19 9.26
9/5/2023 10:45:00 AM 17.24 63.032 0.044 6.92 3.59 9.28
9/5/2023 11:00:00 AM 17.31 63.158 0.044 6.94 3.31 9.29
9/5/2023 11:15:00 AM 17.42 63.356 0.044 6.97 3.22 9.33
9/5/2023 11:30:00 AM 17.53 63.554 0.044 6.99 3.16 9.33
9/5/2023 11:45:00 AM 17.66 63.788 0.044 7.01 3.2 9.33
9/5/2023 12:00:00 PM 17.81 64.058 0.044 7.01 3.13 9.32
9/5/2023 12:15:00 PM 17.99 64.382 0.044 7.02 3.33 9.31
9/5/2023 12:30:00 PM 18.22 64.796 0.044 7.06 3.24 9.34
9/5/2023 12:45:00 PM 18.44 65.192 0.044 7.08 3.13 9.33
9/5/2023 1:00:00 PM 18.62 65.516 0.043 7.1 3.24 9.32
9/5/2023 1:15:00 PM 18.83 65.894 0.043 7.13 3.14 9.33
9/5/2023 1:30:00 PM 19.07 66.326 0.043 7.17 3.23 9.29
9/5/2023 1:45:00 PM 19.32 66.776 0.043 7.18 3.36 9.28
9/5/2023 2:00:00 PM 19.55 67.19 0.043 7.2 3.06 9.23
9/5/2023 2:15:00 PM 19.79 67.622 0.043 7.17 3.27 9.21
9/5/2023 2:30:00 PM 20.01 68.018 0.043 7.2 3.12 9.17
9/5/2023 2:45:00 PM 20.18 68.324 0.043 7.23 3.15 9.15
9/5/2023 3:00:00 PM 20.27 68.486 0.043 7.17 3.19 9.08
9/5/2023 3:15:00 PM 20.34 68.612 0.043 7.18 3.11 9.08
9/5/2023 3:30:00 PM 20.34 68.612 0.043 7.23 3.13 9.05
9/5/2023 3:45:00 PM 20.31 68.558 0.043 7.21 3.19 9.02
9/5/2023 4:00:00 PM 20.24 68.432 0.043 7.2 3.35 8.96
9/5/2023 4:15:00 PM 20.22 68.396 0.043 7.18 3.09 8.9
9/5/2023 4:30:00 PM 20.18 68.324 0.043 7.12 3.22 8.86
9/5/2023 4:45:00 PM 20.16 68.288 0.043 7.15 3.16 8.81
9/5/2023 5:00:00 PM 20.15 68.27 0.043 7.06 3.21 8.77
9/5/2023 5:15:00 PM 20.14 68.252 0.043 7.12 3.35 8.71
9/5/2023 5:30:00 PM 20.12 68.216 0.043 7.09 3.53 8.68
9/5/2023 5:45:00 PM 20.1 68.18 0.044 7.06 5.17 8.63
9/5/2023 6:00:00 PM 20.07 68.126 0.044 7.04 3.69 8.62
9/5/2023 6:15:00 PM 20.04 68.07201 0.044 7.03 3.29 8.59
9/5/2023 6:30:00 PM 19.99 67.982 0.044 6.95 3.39 8.58
9/5/2023 6:45:00 PM 19.95 67.91 0.044 7 3.19 8.56
9/5/2023 7:00:00 PM 19.9 67.82 0.044 6.97 3.33 8.54
9/5/2023 7:15:00 PM 19.85 67.73 0.044 6.96 3.25 8.55
9/5/2023 7:30:00 PM 19.8 67.64 0.044 6.95 3.27 8.53
9/5/2023 7:45:00 PM 19.75 67.55 0.044 6.94 3.14 8.53
9/5/2023 8:00:00 PM 19.7 67.46 0.044 6.94 3.28 8.53
9/5/2023 8:15:00 PM 19.64 67.352 0.044 6.91 3.22 8.51
9/5/2023 8:30:00 PM 19.58 67.244 0.044 6.92 3.43 8.52
9/5/2023 8:45:00 PM 19.52 67.136 0.045 6.91 3.31 8.52
9/5/2023 9:00:00 PM 19.46 67.028 0.045 6.92 3.19 8.54
9/5/2023 9:15:00 PM 19.4 66.92 0.045 6.91 3.22 8.54
9/5/2023 9:30:00 PM 19.34 66.812 0.045 6.89 3.36 8.56
9/5/2023 9:45:00 PM 19.29 66.722 0.045 6.89 3.41 8.57
9/5/2023 10:00:00 PM 19.24 66.632 0.045 6.91 3.3 8.59
9/5/2023 10:15:00 PM 19.19 66.542 0.045 6.91 3.13 8.6
9/5/2023 10:30:00 PM 19.15 66.47 0.045 6.84 3.33 8.6
9/5/2023 10:45:00 PM 19.11 66.398 0.045 6.91 3.32 8.6
9/5/2023 11:00:00 PM 19.07 66.326 0.045 6.91 3.48 8.6
9/5/2023 11:15:00 PM 19.03 66.254 0.045 6.92 3.36 8.62
9/5/2023 11:30:00 PM 19 66.2 0.045 6.92 3.41 8.62
9/5/2023 11:45:00 PM 18.97 66.146 0.045 6.92 3.22 8.64
9/6/2023 12:00:00 AM 18.93 66.074 0.045 6.9 3.44 8.64
9/6/2023 12:15:00 AM 18.9 66.02 0.045 6.92 3.25 8.64
9/6/2023 12:30:00 AM 18.87 65.966 0.045 6.91 3.54 8.65
9/6/2023 12:45:00 AM 18.84 65.912 0.045 6.91 3.56 8.66
9/6/2023 1:00:00 AM 18.8 65.84 0.045 6.91 3.63 8.63
9/6/2023 1:15:00 AM 18.77 65.786 0.045 6.9 3.47 8.66
9/6/2023 1:30:00 AM 18.74 65.732 0.045 6.92 3.39 8.68
9/6/2023 1:45:00 AM 18.71 65.67799 0.045 6.91 3.86 8.67
9/6/2023 2:00:00 AM 18.68 65.624 0.045 6.86 3.51 8.68
9/6/2023 2:15:00 AM 18.64 65.552 0.045 6.92 3.47 8.7
9/6/2023 2:30:00 AM 18.61 65.498 0.045 6.86 3.36 8.7
9/6/2023 2:45:00 AM 18.57 65.426 0.045 6.91 3.33 8.72
9/6/2023 3:00:00 AM 18.54 65.372 0.045 6.9 3.19 8.71
9/6/2023 3:15:00 AM 18.49 65.282 0.045 6.9 3.23 8.71
9/6/2023 3:30:00 AM 18.45 65.21 0.045 6.91 3.27 8.72
9/6/2023 3:45:00 AM 18.41 65.138 0.045 6.91 3.29 8.73
9/6/2023 4:00:00 AM 18.38 65.084 0.045 6.88 3.34 8.75
9/6/2023 4:15:00 AM 18.33 64.994 0.045 6.9 3.29 8.74
9/6/2023 4:30:00 AM 18.29 64.922 0.045 6.88 3.33 8.76
9/6/2023 4:45:00 AM 18.26 64.868 0.045 6.92 3.23 8.77
9/6/2023 5:00:00 AM 18.21 64.778 0.045 6.87 3.41 8.78
9/6/2023 5:15:00 AM 18.17 64.706 0.045 6.91 3.3 8.79
9/6/2023 5:30:00 AM 18.13 64.634 0.045 6.86 3.35 8.8
9/6/2023 5:45:00 AM 18.1 64.58 0.045 6.9 3.57 8.8
9/6/2023 6:00:00 AM 18.07 64.526 0.045 6.89 3.36 8.82
9/6/2023 6:15:00 AM 18.03 64.454 0.045 6.9 3.39 8.82
9/6/2023 6:30:00 AM 18 64.4 0.045 6.9 3.31 8.83
9/6/2023 6:45:00 AM 17.97 64.346 0.045 6.89 3.66 8.83
9/6/2023 7:00:00 AM 17.94 64.292 0.045 6.89 3.3 8.85
9/6/2023 7:15:00 AM 17.91 64.238 0.045 6.9 3.78 8.89
9/6/2023 7:30:00 AM 17.89 64.202 0.045 6.9 3.45 8.88
9/6/2023 7:45:00 AM 17.87 64.166 0.045 6.91 3.44 8.94
9/6/2023 8:00:00 AM 17.85 64.13 0.045 6.9 3.4 8.97
9/6/2023 8:15:00 AM 17.84 64.112 0.045 6.92 3.42 9.01
9/6/2023 8:30:00 AM 17.84 64.112 0.045 6.93 3.88 9.02
9/6/2023 8:45:00 AM 17.84 64.112 0.045 6.91 3.61 9.05
9/6/2023 9:00:00 AM 17.84 64.112 0.045 6.95 3.49 9.08
9/6/2023 9:15:00 AM 17.84 64.112 0.045 6.94 3.4 9.08
9/6/2023 9:30:00 AM 17.83 64.094 0.045 6.93 3.58 9.07
9/6/2023 9:45:00 AM 17.83 64.094 0.045 6.91 3.54 9.09
9/6/2023 10:00:00 AM 17.83 64.094 0.045 6.94 3.4 9.08
9/6/2023 10:15:00 AM 17.84 64.112 0.045 6.95 3.59 9.07
9/6/2023 10:30:00 AM 17.87 64.166 0.045 6.95 3.22 9.1
9/6/2023 10:45:00 AM 17.92 64.256 0.045 6.94 3.52 9.1
9/6/2023 11:00:00 AM 17.98 64.364 0.045 6.96 3.4 9.11
9/6/2023 11:15:00 AM 18.06 64.508 0.045 6.96 3.55 9.11
9/6/2023 11:30:00 AM 18.16 64.688 0.045 6.99 3.5 9.12
9/6/2023 11:45:00 AM 18.28 64.904 0.044 7 3.27 9.14
9/6/2023 12:00:00 PM 18.4 65.12 0.044 7.01 3.53 9.13
9/6/2023 12:15:00 PM 18.6 65.48 0.044 7.05 3.67 9.16
9/6/2023 12:30:00 PM 18.79 65.82201 0.044 7.07 3.5 9.17
9/6/2023 12:45:00 PM 18.83 65.894 0.044 7.08 3.28 9.1
9/6/2023 1:00:00 PM 18.98 66.164 0.044 7.08 3.41 9.09
9/6/2023 1:15:00 PM 19.21 66.578 0.044 7.09 3.32 9.09
9/6/2023 1:30:00 PM 19.47 67.046 0.044 7.11 3.31 9.13
9/6/2023 1:45:00 PM 19.66 67.388 0.044 7.15 4.98 9.1
9/6/2023 2:00:00 PM 19.85 67.73 0.043 7.16 3.54 9.11
9/6/2023 2:15:00 PM 20.06 68.108 0.043 7.14 3.34 9.11
9/6/2023 2:30:00 PM 20.25 68.45 0.043 7.19 3.58 9.09
9/6/2023 2:45:00 PM 20.45 68.81 0.043 7.21 3.52 9.04
9/6/2023 3:00:00 PM 20.58 69.044 0.043 7.23 3.53 9.03
9/6/2023 3:15:00 PM 20.66 69.188 0.043 7.21 3.37 9
9/6/2023 3:30:00 PM 20.75 69.35 0.043 7.23 3.38 8.97
9/6/2023 3:45:00 PM 20.63 69.134 0.043 7.21 3.75 8.88
9/6/2023 4:00:00 PM 20.6 69.08 0.043 7.16 3.22 8.87
9/6/2023 4:15:00 PM 20.56 69.008 0.043 7.13 3.71 8.83
9/6/2023 4:30:00 PM 20.53 68.954 0.043 7.18 3.4 8.79
9/6/2023 4:45:00 PM 20.5 68.9 0.044 7.16 3.41 8.73
9/6/2023 5:00:00 PM 20.48 68.864 0.044 7.13 3.35 8.71
9/6/2023 5:15:00 PM 20.48 68.864 0.044 7.06 3.34 8.67
9/6/2023 5:30:00 PM 20.46 68.828 0.044 7.11 3.5 8.63
9/6/2023 5:45:00 PM 20.42 68.756 0.044 7.05 3.44 8.6
9/6/2023 6:00:00 PM 20.38 68.684 0.044 7.06 3.27 8.59
9/6/2023 6:15:00 PM 20.34 68.612 0.044 7.04 3.37 8.53
9/6/2023 6:30:00 PM 20.29 68.522 0.044 6.96 3.57 8.51
9/6/2023 6:45:00 PM 20.23 68.414 0.044 7.01 3.38 8.49
9/6/2023 7:00:00 PM 20.18 68.324 0.044 6.93 3.4 8.49
9/6/2023 7:15:00 PM 20.13 68.234 0.044 6.97 3.36 8.46
9/6/2023 7:30:00 PM 20.08 68.144 0.045 6.94 3.33 8.43
9/6/2023 7:45:00 PM 20.02 68.036 0.045 6.94 3.33 8.43
9/6/2023 8:00:00 PM 19.97 67.946 0.045 6.94 3.31 8.4
9/6/2023 8:15:00 PM 19.91 67.838 0.045 6.93 3.36 8.41
9/6/2023 8:30:00 PM 19.85 67.73 0.045 6.89 3.35 8.42
9/6/2023 8:45:00 PM 19.79 67.622 0.045 6.93 3.29 8.42
9/6/2023 9:00:00 PM 19.73 67.514 0.045 6.87 3.48 8.44
9/6/2023 9:15:00 PM 19.67 67.406 0.045 6.87 3.37 8.42
9/6/2023 9:30:00 PM 19.61 67.298 0.045 6.92 3.29 8.46
9/6/2023 9:45:00 PM 19.56 67.208 0.045 6.87 3.34 8.46
9/6/2023 10:00:00 PM 19.5 67.1 0.045 6.91 3.34 8.47
9/6/2023 10:15:00 PM 19.45 67.01 0.045 6.87 3.45 8.5
9/6/2023 10:30:00 PM 19.4 66.92 0.045 6.9 4.24 8.49
9/6/2023 10:45:00 PM 19.36 66.848 0.045 6.88 3.4 8.47
9/6/2023 11:00:00 PM 19.31 66.758 0.045 6.92 3.41 8.52
9/6/2023 11:15:00 PM 19.27 66.686 0.045 6.88 3.33 8.54
9/6/2023 11:30:00 PM 19.23 66.614 0.045 6.93 3.31 8.53
9/6/2023 11:45:00 PM 19.2 66.56 0.045 6.93 3.4 8.55
9/7/2023 12:00:00 AM 19.16 66.488 0.045 6.93 3.24 8.54
9/7/2023 12:15:00 AM 19.12 66.416 0.045 6.91 3.4 8.57
9/7/2023 12:30:00 AM 19.09 66.362 0.045 6.9 3.46 8.58
9/7/2023 12:45:00 AM 19.06 66.308 0.045 6.91 3.6 8.57
9/7/2023 1:00:00 AM 19.03 66.254 0.045 6.92 3.39 8.59
9/7/2023 1:15:00 AM 18.99 66.182 0.045 6.87 3.42 8.58
9/7/2023 1:30:00 AM 18.96 66.128 0.045 6.91 3.48 8.59
9/7/2023 1:45:00 AM 18.93 66.074 0.045 6.92 3.63 8.62
9/7/2023 2:00:00 AM 18.9 66.02 0.045 6.92 3.7 8.58
9/7/2023 2:15:00 AM 18.86 65.948 0.045 6.91 3.62 8.59
9/7/2023 2:30:00 AM 18.83 65.894 0.045 6.92 3.36 8.62
9/7/2023 2:45:00 AM 18.79 65.82201 0.045 6.93 3.45 8.63
9/7/2023 3:00:00 AM 18.75 65.75 0.045 6.9 3.64 8.65
9/7/2023 3:15:00 AM 18.72 65.696 0.045 6.87 3.46 8.63
9/7/2023 3:30:00 AM 18.68 65.624 0.045 6.91 3.41 8.66
9/7/2023 3:45:00 AM 18.65 65.57 0.045 6.91 3.59 8.67
9/7/2023 4:00:00 AM 18.61 65.498 0.045 6.91 3.49 8.67
9/7/2023 4:15:00 AM 18.57 65.426 0.045 6.91 3.5 8.66
9/7/2023 4:30:00 AM 18.54 65.372 0.045 6.91 3.99 8.68
9/7/2023 4:45:00 AM 18.51 65.318 0.045 6.91 3.69 8.69
9/7/2023 5:00:00 AM 18.48 65.264 0.045 6.9 3.5 8.68
9/7/2023 5:15:00 AM 18.46 65.228 0.045 6.9 3.66 8.71
9/7/2023 5:30:00 AM 18.43 65.174 0.045 6.87 3.54 8.71
9/7/2023 5:45:00 AM 18.4 65.12 0.045 6.9 3.48 8.71
9/7/2023 6:00:00 AM 18.38 65.084 0.046 6.86 3.42 8.71
9/7/2023 6:15:00 AM 18.36 65.048 0.045 6.91 3.41 8.73
9/7/2023 6:30:00 AM 18.33 64.994 0.046 6.86 3.42 8.72
9/7/2023 6:45:00 AM 18.3 64.94 0.046 6.87 4.23 8.76
9/7/2023 7:00:00 AM 18.28 64.904 0.046 6.91 3.7 8.74
9/7/2023 7:15:00 AM 18.26 64.868 0.046 6.89 3.52 8.76
9/7/2023 7:30:00 AM 18.24 64.832 0.046 6.92 3.42 8.79
9/7/2023 7:45:00 AM 18.22 64.796 0.046 6.92 3.45 8.82
9/7/2023 8:00:00 AM 18.21 64.778 0.045 6.87 3.7 8.83
9/7/2023 8:15:00 AM 18.2 64.76 0.045 6.89 3.98 8.88
9/7/2023 8:30:00 AM 18.2 64.76 0.045 6.94 3.6 8.93
9/7/2023 8:45:00 AM 18.19 64.742 0.045 6.92 3.58 8.95
9/7/2023 9:00:00 AM 18.18 64.724 0.045 6.95 3.57 8.96
9/7/2023 9:15:00 AM 18.17 64.706 0.045 6.94 3.43 8.96
9/7/2023 9:30:00 AM 18.17 64.706 0.045 6.95 3.48 8.97
9/7/2023 9:45:00 AM 18.18 64.724 0.045 6.94 3.47 9
9/7/2023 10:00:00 AM 18.2 64.76 0.045 6.95 3.42 9.02
9/7/2023 10:15:00 AM 18.23 64.814 0.045 6.95 3.5 9.01
9/7/2023 10:30:00 AM 18.27 64.886 0.045 6.97 3.44 9.01
9/7/2023 10:45:00 AM 18.32 64.976 0.045 6.97 3.51 9.02
9/7/2023 11:00:00 AM 18.38 65.084 0.045 6.98 3.56 9.03
9/7/2023 11:15:00 AM 18.47 65.246 0.045 6.98 3.99 9.07
9/7/2023 11:30:00 AM 18.57 65.426 0.045 7 5.21 9.12
9/7/2023 11:45:00 AM 18.67 65.606 0.044 7.04 3.9 9.12
9/7/2023 12:00:00 PM 18.8 65.84 0.044 7.06 3.51 9.11
9/7/2023 12:15:00 PM 18.93 66.074 0.044 7.08 4.38 9.13
9/7/2023 12:30:00 PM 19.07 66.326 0.044 7.1 3.64 9.15
9/7/2023 12:45:00 PM 19.29 66.722 0.044 7.13 3.43 9.16
9/7/2023 1:00:00 PM 19.44 66.992 0.044 7.14 3.42 9.13
9/7/2023 1:15:00 PM 19.57 67.226 0.044 7.14 3.45 9.1
9/7/2023 1:30:00 PM 19.61 67.298 0.044 7.16 5.01 9.05
9/7/2023 1:45:00 PM 19.63 67.334 0.044 7.16 4.42 9
9/7/2023 2:00:00 PM 19.62 67.316 0.044 7.13 3.75 8.91
9/7/2023 2:15:00 PM 19.61 67.298 0.044 7.06 4.07 8.83
9/7/2023 2:30:00 PM 19.6 67.28 0.044 7.05 3.74 8.77
9/7/2023 2:45:00 PM 19.55 67.19 0.044 7.07 3.54 8.7
9/7/2023 3:00:00 PM 19.49 67.082 0.044 7.02 4.2 8.64
9/7/2023 3:15:00 PM 19.43 66.974 0.044 7.04 3.7 8.62
9/7/2023 3:30:00 PM 19.38 66.884 0.044 7 3.72 8.58
9/7/2023 3:45:00 PM 19.33 66.794 0.044 6.99 3.93 8.56
9/7/2023 4:00:00 PM 19.29 66.722 0.044 7.01 3.69 8.53
9/7/2023 4:15:00 PM 19.26 66.668 0.044 6.99 3.63 8.55
9/7/2023 4:30:00 PM 19.24 66.632 0.044 6.97 3.83 8.57
9/7/2023 4:45:00 PM 19.22 66.596 0.044 6.99 3.58 8.58
9/7/2023 5:00:00 PM 19.21 66.578 0.044 6.95 3.76 8.63
9/7/2023 5:15:00 PM 19.2 66.56 0.044 7 3.63 8.65
9/7/2023 5:30:00 PM 19.2 66.56 0.044 6.99 3.6 8.67
9/7/2023 5:45:00 PM 19.19 66.542 0.044 6.98 3.67 8.7
9/7/2023 6:00:00 PM 19.17 66.506 0.044 7.01 3.61 8.69
9/7/2023 6:15:00 PM 19.16 66.488 0.044 7 3.76 8.72
9/7/2023 6:30:00 PM 19.14 66.452 0.044 6.97 3.73 8.75
9/7/2023 6:45:00 PM 19.1 66.38 0.044 7.02 3.63 8.75
9/7/2023 7:00:00 PM 19.07 66.326 0.044 7 3.7 8.75
9/7/2023 7:15:00 PM 19.04 66.272 0.044 6.99 3.68 8.73
9/7/2023 7:30:00 PM 19 66.2 0.045 7.01 3.86 8.7
9/7/2023 7:45:00 PM 18.95 66.11 0.045 6.98 4.16 8.66
9/7/2023 8:00:00 PM 18.91 66.038 0.045 6.98 4.16 8.66
9/7/2023 8:15:00 PM 18.87 65.966 0.045 6.96 3.78 8.65
9/7/2023 8:30:00 PM 18.84 65.912 0.045 6.97 3.9 8.65
9/7/2023 8:45:00 PM 18.81 65.858 0.045 6.95 3.81 8.63
9/7/2023 9:00:00 PM 18.78 65.804 0.045 6.96 3.86 8.64
9/7/2023 9:15:00 PM 18.75 65.75 0.045 6.96 3.81 8.65
9/7/2023 9:30:00 PM 18.73 65.714 0.045 6.94 3.96 8.65
9/7/2023 9:45:00 PM 18.7 65.66 0.045 6.94 3.82 8.65
9/7/2023 10:00:00 PM 18.68 65.624 0.045 6.91 3.8 8.66
9/7/2023 10:15:00 PM 18.66 65.588 0.045 6.94 3.73 8.67
9/7/2023 10:30:00 PM 18.65 65.57 0.045 6.89 3.94 8.66
9/7/2023 10:45:00 PM 18.63 65.534 0.045 6.89 3.78 8.68
9/7/2023 11:00:00 PM 18.61 65.498 0.045 6.91 3.84 8.68
9/7/2023 11:15:00 PM 18.6 65.48 0.045 6.87 3.81 8.67
9/7/2023 11:30:00 PM 18.59 65.462 0.045 6.9 3.84 8.68
9/7/2023 11:45:00 PM 18.57 65.426 0.045 6.9 3.93 8.67
9/8/2023 12:00:00 AM 18.55 65.39 0.045 6.9 3.86 8.66
9/8/2023 12:15:00 AM 18.53 65.354 0.045 6.86 4 8.66
9/8/2023 12:30:00 AM 18.51 65.318 0.045 6.85 4.21 8.68
9/8/2023 12:45:00 AM 18.49 65.282 0.045 6.89 3.95 8.68
9/8/2023 1:00:00 AM 18.47 65.246 0.045 6.89 4.09 8.68
9/8/2023 1:15:00 AM 18.45 65.21 0.045 6.89 3.89 8.71
9/8/2023 1:30:00 AM 18.44 65.192 0.045 6.89 3.88 8.71
9/8/2023 1:45:00 AM 18.42 65.156 0.045 6.89 3.82 8.72
9/8/2023 2:00:00 AM 18.4 65.12 0.045 6.89 3.97 8.73
9/8/2023 2:15:00 AM 18.39 65.102 0.045 6.87 3.8 8.74
9/8/2023 2:30:00 AM 18.37 65.066 0.045 6.87 3.88 8.73
9/8/2023 2:45:00 AM 18.35 65.03 0.045 6.88 3.99 8.73
9/8/2023 3:00:00 AM 18.34 65.012 0.045 6.93 3.85 8.74
9/8/2023 3:15:00 AM 18.32 64.976 0.045 6.88 3.96 8.76
9/8/2023 3:30:00 AM 18.31 64.958 0.045 6.93 3.97 8.75
9/8/2023 3:45:00 AM 18.29 64.922 0.045 6.89 3.9 8.77
9/8/2023 4:00:00 AM 18.27 64.886 0.045 6.9 3.88 8.77
9/8/2023 4:15:00 AM 18.26 64.868 0.045 6.94 4 8.78
9/8/2023 4:30:00 AM 18.24 64.832 0.045 6.93 3.89 8.79
9/8/2023 4:45:00 AM 18.22 64.796 0.045 6.9 3.8 8.78
9/8/2023 5:00:00 AM 18.2 64.76 0.045 6.94 4.09 8.79
9/8/2023 5:15:00 AM 18.19 64.742 0.045 6.93 4.07 8.8
9/8/2023 5:30:00 AM 18.17 64.706 0.045 6.93 4.02 8.81
9/8/2023 5:45:00 AM 18.15 64.67 0.045 6.93 3.95 8.81
9/8/2023 6:00:00 AM 18.13 64.634 0.045 6.93 3.97 8.83
9/8/2023 6:15:00 AM 18.12 64.616 0.045 6.89 4 8.83
9/8/2023 6:30:00 AM 18.1 64.58 0.045 6.93 3.95 8.81
9/8/2023 6:45:00 AM 18.08 64.544 0.045 6.93 4.4 8.83
9/8/2023 7:00:00 AM 18.07 64.526 0.045 6.94 4.03 8.84
9/8/2023 7:15:00 AM 18.05 64.49 0.045 6.93 3.98 8.84
9/8/2023 7:30:00 AM 18.03 64.454 0.046 6.93 3.89 8.85
9/8/2023 7:45:00 AM 18.02 64.436 0.045 6.92 3.94 8.86
9/8/2023 8:00:00 AM 18.01 64.418 0.045 6.92 4.08 8.88
9/8/2023 8:15:00 AM 18 64.4 0.045 6.93 3.98 8.92
9/8/2023 8:30:00 AM 17.99 64.382 0.045 6.93 3.97 8.97
9/8/2023 8:45:00 AM 17.99 64.382 0.045 6.94 4.3 8.98
9/8/2023 9:00:00 AM 17.99 64.382 0.045 6.93 4 9.03
9/8/2023 9:15:00 AM 18.01 64.418 0.045 6.96 3.83 9.09
9/8/2023 9:30:00 AM 18.03 64.454 0.045 6.96 3.81 9.16
9/8/2023 9:45:00 AM 18.06 64.508 0.045 6.98 3.81 9.19
9/8/2023 10:00:00 AM 18.08 64.544 0.045 7.02 3.97 9.23
9/8/2023 10:15:00 AM 18.11 64.598 0.045 7.02 4.25 9.25
9/8/2023 10:30:00 AM 18.13 64.634 0.045 6.98 4.03 9.25
9/8/2023 10:45:00 AM 18.17 64.706 0.045 7.02 3.93 9.26
9/8/2023 11:00:00 AM 18.22 64.796 0.045 7.02 4.21 9.28
9/8/2023 11:15:00 AM 18.26 64.868 0.044 7.07 4.38 9.31
9/8/2023 11:30:00 AM 18.29 64.922 0.044 7.08 3.86 9.3
9/8/2023 11:45:00 AM 18.33 64.994 0.044 7.09 3.85 9.32
9/8/2023 12:00:00 PM 18.37 65.066 0.044 7.1 3.79 9.32
9/8/2023 12:15:00 PM 18.43 65.174 0.044 7.11 3.84 9.33
9/8/2023 12:30:00 PM 18.51 65.318 0.044 7.11 3.86 9.34
9/8/2023 12:45:00 PM 18.55 65.39 0.044 7.12 4.11 9.33
9/8/2023 1:00:00 PM 18.58 65.444 0.044 7.13 3.87 9.27
9/8/2023 1:15:00 PM 18.82 65.876 0.044 7.14 3.86 9.31
9/8/2023 1:30:00 PM 19.05 66.29 0.044 7.13 3.85 9.29
9/8/2023 1:45:00 PM 19.18 66.524 0.044 7.17 3.82 9.29
9/8/2023 2:00:00 PM 19.26 66.668 0.044 7.16 3.74 9.28
9/8/2023 2:15:00 PM 19.48 67.064 0.043 7.2 3.88 9.29
9/8/2023 2:30:00 PM 19.68 67.424 0.043 7.21 3.81 9.26
9/8/2023 2:45:00 PM 19.72 67.496 0.043 7.22 3.88 9.23
9/8/2023 3:00:00 PM 19.72 67.496 0.043 7.21 4.08 9.19
9/8/2023 3:15:00 PM 19.71 67.478 0.043 7.23 3.68 9.17
9/8/2023 3:30:00 PM 19.68 67.424 0.043 7.16 3.83 9.15
9/8/2023 3:45:00 PM 19.73 67.514 0.043 7.21 3.59 9.16
9/8/2023 4:00:00 PM 19.7 67.46 0.044 7.2 3.81 9.08
9/8/2023 4:15:00 PM 19.72 67.496 0.044 7.19 3.71 9.04
9/8/2023 4:30:00 PM 19.74 67.532 0.044 7.15 3.84 8.97
9/8/2023 4:45:00 PM 19.75 67.55 0.044 7.15 3.69 8.91
9/8/2023 5:00:00 PM 19.76 67.568 0.044 7.14 3.74 8.85
9/8/2023 5:15:00 PM 19.75 67.55 0.044 7.11 3.68 8.81
9/8/2023 5:30:00 PM 19.74 67.532 0.044 7.08 3.73 8.76
9/8/2023 5:45:00 PM 19.72 67.496 0.044 7.08 3.89 8.73
9/8/2023 6:00:00 PM 19.71 67.478 0.044 7.03 3.97 8.68
9/8/2023 6:15:00 PM 19.68 67.424 0.044 7.05 3.68 8.67
9/8/2023 6:30:00 PM 19.65 67.37 0.044 7.02 3.97 8.63
9/8/2023 6:45:00 PM 19.62 67.316 0.044 7.01 3.68 8.65
9/8/2023 7:00:00 PM 19.59 67.262 0.044 7 3.81 8.61
9/8/2023 7:15:00 PM 19.55 67.19 0.045 6.98 3.81 8.59
9/8/2023 7:30:00 PM 19.51 67.118 0.045 6.97 3.71 8.56
9/8/2023 7:45:00 PM 19.48 67.064 0.045 6.96 3.83 8.55
9/8/2023 8:00:00 PM 19.44 66.992 0.045 6.96 3.87 8.55
9/8/2023 8:15:00 PM 19.4 66.92 0.045 6.96 4.15 8.52
9/8/2023 8:30:00 PM 19.35 66.83 0.045 6.94 3.7 8.53
9/8/2023 8:45:00 PM 19.3 66.74 0.045 6.97 3.86 8.55
9/8/2023 9:00:00 PM 19.25 66.65 0.045 6.95 3.83 8.54
9/8/2023 9:15:00 PM 19.2 66.56 0.045 6.94 3.76 8.55
9/8/2023 9:30:00 PM 19.16 66.488 0.045 6.94 3.78 8.58
9/8/2023 9:45:00 PM 19.11 66.398 0.045 6.95 3.75 8.55
9/8/2023 10:00:00 PM 19.07 66.326 0.045 6.92 3.88 8.58
9/8/2023 10:15:00 PM 19.04 66.272 0.045 6.91 3.94 8.59
9/8/2023 10:30:00 PM 19 66.2 0.045 6.93 5.16 8.59
9/8/2023 10:45:00 PM 18.97 66.146 0.045 6.92 3.87 8.61
9/8/2023 11:00:00 PM 18.94 66.092 0.045 6.93 3.83 8.61
9/8/2023 11:15:00 PM 18.91 66.038 0.045 6.89 3.94 8.62
9/8/2023 11:30:00 PM 18.88 65.984 0.045 6.93 4.19 8.63
9/8/2023 11:45:00 PM 18.86 65.948 0.045 6.93 3.92 8.64
9/9/2023 12:00:00 AM 18.83 65.894 0.045 6.91 3.99 8.62
9/9/2023 12:15:00 AM 18.81 65.858 0.045 6.93 3.83 8.65
9/9/2023 12:30:00 AM 18.79 65.82201 0.046 6.93 3.99 8.65
9/9/2023 12:45:00 AM 18.77 65.786 0.045 6.92 4.03 8.64
9/9/2023 1:00:00 AM 18.75 65.75 0.045 6.87 4.05 8.67
9/9/2023 1:15:00 AM 18.73 65.714 0.045 6.92 3.9 8.67
9/9/2023 1:30:00 AM 18.71 65.67799 0.046 6.92 3.87 8.66
9/9/2023 1:45:00 AM 18.69 65.642 0.045 6.92 3.9 8.67
9/9/2023 2:00:00 AM 18.67 65.606 0.046 6.87 4.06 8.66
9/9/2023 2:15:00 AM 18.66 65.588 0.046 6.91 3.77 8.67
9/9/2023 2:30:00 AM 18.64 65.552 0.046 6.9 4 8.69
9/9/2023 2:45:00 AM 18.62 65.516 0.046 6.88 4.11 8.68
9/9/2023 3:00:00 AM 18.61 65.498 0.046 6.9 4.05 8.7
9/9/2023 3:15:00 AM 18.59 65.462 0.046 6.92 3.9 8.71
9/9/2023 3:30:00 AM 18.58 65.444 0.046 6.91 4.03 8.7
9/9/2023 3:45:00 AM 18.56 65.408 0.046 6.91 3.96 8.71
9/9/2023 4:00:00 AM 18.55 65.39 0.046 6.9 4.11 8.71
9/9/2023 4:15:00 AM 18.53 65.354 0.046 6.88 4.1 8.72
9/9/2023 4:30:00 AM 18.52 65.336 0.046 6.91 3.81 8.74
9/9/2023 4:45:00 AM 18.51 65.318 0.046 6.91 3.88 8.74
9/9/2023 5:00:00 AM 18.49 65.282 0.046 6.91 3.85 8.73
9/9/2023 5:15:00 AM 18.48 65.264 0.046 6.89 4.03 8.73
9/9/2023 5:30:00 AM 18.46 65.228 0.046 6.88 3.9 8.74
9/9/2023 5:45:00 AM 18.45 65.21 0.046 6.89 3.91 8.76
9/9/2023 6:00:00 AM 18.43 65.174 0.046 6.85 3.99 8.74
9/9/2023 6:15:00 AM 18.42 65.156 0.046 6.89 3.85 8.75
9/9/2023 6:30:00 AM 18.4 65.12 0.046 6.9 4.09 8.76
9/9/2023 6:45:00 AM 18.38 65.084 0.046 6.9 4.01 8.75
9/9/2023 7:00:00 AM 18.37 65.066 0.046 6.9 3.91 8.76
9/9/2023 7:15:00 AM 18.36 65.048 0.046 6.85 3.98 8.78
9/9/2023 7:30:00 AM 18.34 65.012 0.046 6.9 4.01 8.8
9/9/2023 7:45:00 AM 18.33 64.994 0.046 6.9 3.88 8.81
9/9/2023 8:00:00 AM 18.32 64.976 0.046 6.91 4.33 8.81
9/9/2023 8:15:00 AM 18.31 64.958 0.046 6.9 3.93 8.83
9/9/2023 8:30:00 AM 18.31 64.958 0.046 6.9 3.87 8.88
9/9/2023 8:45:00 AM 18.31 64.958 0.046 6.91 3.96 8.92
9/9/2023 9:00:00 AM 18.32 64.976 0.046 6.91 4 8.94
9/9/2023 9:15:00 AM 18.32 64.976 0.046 6.94 3.87 8.97
9/9/2023 9:30:00 AM 18.33 64.994 0.046 6.93 3.86 9.04
9/9/2023 9:45:00 AM 18.34 65.012 0.046 6.98 6.08 9.06
9/9/2023 10:00:00 AM 18.36 65.048 0.045 6.94 4.09 9.09
9/9/2023 10:15:00 AM 18.37 65.066 0.045 7 3.82 9.1
9/9/2023 10:30:00 AM 18.39 65.102 0.045 6.95 3.87 9.11
9/9/2023 10:45:00 AM 18.4 65.12 0.045 7.02 3.87 9.11
9/9/2023 11:00:00 AM 18.43 65.174 0.045 7.02 3.79 9.17
9/9/2023 11:15:00 AM 18.46 65.228 0.045 7.01 3.9 9.19
9/9/2023 11:30:00 AM 18.49 65.282 0.045 7.06 3.96 9.21
9/9/2023 11:45:00 AM 18.53 65.354 0.045 7.08 3.9 9.24
9/9/2023 12:00:00 PM 18.56 65.408 0.045 7.07 4.09 9.22
9/9/2023 12:15:00 PM 18.58 65.444 0.045 7.06 4.17 9.2
9/9/2023 12:30:00 PM 18.59 65.462 0.045 7.08 3.96 9.18
9/9/2023 12:45:00 PM 18.62 65.516 0.045 7.1 3.9 9.19
9/9/2023 1:00:00 PM 18.65 65.57 0.044 7.1 4.42 9.21
9/9/2023 1:15:00 PM 18.7 65.66 0.044 7.11 4.21 9.24
9/9/2023 1:30:00 PM 18.74 65.732 0.044 7.07 3.87 9.23
9/9/2023 1:45:00 PM 18.85 65.93 0.044 7.13 3.91 9.29
9/9/2023 2:00:00 PM 18.85 65.93 0.044 7.14 4.04 9.24
9/9/2023 2:15:00 PM 18.87 65.966 0.044 7.12 3.95 9.23
9/9/2023 2:30:00 PM 18.87 65.966 0.044 7.13 3.87 9.16
9/9/2023 2:45:00 PM 18.86 65.948 0.044 7.11 3.88 9.05
9/9/2023 3:00:00 PM 18.88 65.984 0.042 7.01 5.08 8.97
9/9/2023 3:15:00 PM 18.87 65.966 0.042 7.03 6.96 8.96
9/9/2023 3:30:00 PM 18.89 66.002 0.042 7.04 7.68 9.06
9/9/2023 3:45:00 PM 18.89 66.002 0.042 7.05 6.31 9.07
9/9/2023 4:00:00 PM 18.86 65.948 0.042 7.01 5.74 8.97
9/9/2023 4:15:00 PM 18.84 65.912 0.042 7.01 5.79 8.98
9/9/2023 4:30:00 PM 18.81 65.858 0.042 7 5.78 8.96
9/9/2023 4:45:00 PM 18.8 65.84 0.042 7.02 5.6 8.92
9/9/2023 5:00:00 PM 18.77 65.786 0.042 7.01 5.64 8.88
9/9/2023 5:15:00 PM 18.74 65.732 0.042 7 5.67 8.88
9/9/2023 5:30:00 PM 18.7 65.66 0.042 7 5.67 8.85
9/9/2023 5:45:00 PM 18.67 65.606 0.042 6.95 5.67 8.85
9/9/2023 6:00:00 PM 18.65 65.57 0.042 6.97 6 8.84
9/9/2023 6:15:00 PM 18.61 65.498 0.042 6.95 6.15 8.86
9/9/2023 6:30:00 PM 18.58 65.444 0.042 6.95 6.05 8.87
9/9/2023 6:45:00 PM 18.54 65.372 0.042 6.96 6.41 8.9
9/9/2023 7:00:00 PM 18.51 65.318 0.042 6.94 6.27 8.9
9/9/2023 7:15:00 PM 18.48 65.264 0.042 6.93 6.59 8.9
9/9/2023 7:30:00 PM 18.44 65.192 0.042 6.93 6.06 8.88
9/9/2023 7:45:00 PM 18.4 65.12 0.042 6.94 6.31 8.91
9/9/2023 8:00:00 PM 18.37 65.066 0.042 6.91 6.31 8.92
9/9/2023 8:15:00 PM 18.33 64.994 0.042 6.93 6.27 8.91
9/9/2023 8:30:00 PM 18.3 64.94 0.042 6.93 6.53 8.92
9/9/2023 8:45:00 PM 18.27 64.886 0.043 6.91 6.99 8.95
9/9/2023 9:00:00 PM 18.23 64.814 0.043 6.95 7.84 8.96
9/9/2023 9:15:00 PM 18.2 64.76 0.043 6.95 7.21 8.98
9/9/2023 9:30:00 PM 18.17 64.706 0.043 6.95 7.39 8.99
9/9/2023 9:45:00 PM 18.13 64.634 0.043 6.95 7.4 9
9/9/2023 10:00:00 PM 18.1 64.58 0.043 6.94 6.99 9.01
9/9/2023 10:15:00 PM 18.06 64.508 0.044 6.94 6.81 9.01
9/9/2023 10:30:00 PM 18.03 64.454 0.044 6.95 6.61 9.03
9/9/2023 10:45:00 PM 17.99 64.382 0.044 6.96 6.9 9.03
9/9/2023 11:00:00 PM 17.96 64.328 0.043 6.94 6.46 9.03
9/9/2023 11:15:00 PM 17.93 64.274 0.043 6.96 6.41 9.03
9/9/2023 11:30:00 PM 17.89 64.202 0.043 6.95 6.48 9.02
9/9/2023 11:45:00 PM 17.86 64.148 0.043 6.95 6.4 8.98
9/10/2023 12:00:00 AM 17.83 64.094 0.043 6.94 5.11 9.06
9/10/2023 12:15:00 AM 17.8 64.04 0.043 6.96 4.89 9.07
9/10/2023 12:30:00 AM 17.76 63.968 0.043 6.96 4.72 9.08
9/10/2023 12:45:00 AM 17.73 63.914 0.044 6.95 5.13 9.09
9/10/2023 1:00:00 AM 17.69 63.842 0.044 6.98 4.6 9.1
9/10/2023 1:15:00 AM 17.65 63.77 0.044 6.97 6.75 9.11
9/10/2023 1:30:00 AM 17.62 63.716 0.043 6.97 4.68 9.12
9/10/2023 1:45:00 AM 17.59 63.662 0.043 6.95 5.11 9.12
9/10/2023 2:00:00 AM 17.56 63.608 0.043 6.96 4.68 9.12
9/10/2023 2:15:00 AM 17.52 63.536 0.043 6.94 4.53 9.14
9/10/2023 2:30:00 AM 17.5 63.5 0.043 6.96 4.43 9.14
9/10/2023 2:45:00 AM 17.47 63.446 0.043 6.94 4.62 9.16
9/10/2023 3:00:00 AM 17.44 63.392 0.043 6.94 4.33 9.15
9/10/2023 3:15:00 AM 17.41 63.338 0.043 6.95 4.47 9.16
9/10/2023 3:30:00 AM 17.39 63.302 0.043 6.91 4.65 9.14
9/10/2023 3:45:00 AM 17.36 63.248 0.043 6.95 4.2 9.16
9/10/2023 4:00:00 AM 17.33 63.194 0.043 6.91 4.17 9.16
9/10/2023 4:15:00 AM 17.3 63.14 0.043 6.94 4.24 9.16
9/10/2023 4:30:00 AM 17.28 63.104 0.043 6.94 4.12 9.17
9/10/2023 4:45:00 AM 17.25 63.05 0.043 6.94 4.13 9.17
9/10/2023 5:00:00 AM 17.22 62.996 0.043 6.91 4.19 9.17
9/10/2023 5:15:00 AM 17.2 62.96 0.043 6.94 4.06 9.18
9/10/2023 5:30:00 AM 17.18 62.924 0.043 6.94 3.92 9.17
9/10/2023 5:45:00 AM 17.15 62.87 0.043 6.94 4.08 9.17
9/10/2023 6:00:00 AM 17.13 62.834 0.043 6.94 4.15 9.18
9/10/2023 6:15:00 AM 17.11 62.798 0.043 6.94 3.98 9.18
9/10/2023 6:30:00 AM 17.09 62.762 0.043 6.94 4.13 9.21
9/10/2023 6:45:00 AM 17.07 62.726 0.043 6.93 3.94 9.2
9/10/2023 7:00:00 AM 17.05 62.69 0.043 6.93 4.01 9.2
9/10/2023 7:15:00 AM 17.03 62.654 0.043 6.94 3.86 9.21
9/10/2023 7:30:00 AM 17.02 62.636 0.044 6.94 3.94 9.21
9/10/2023 7:45:00 AM 17 62.6 0.044 6.95 3.87 9.22
9/10/2023 8:00:00 AM 17 62.6 0.044 6.95 3.93 9.25
9/10/2023 8:15:00 AM 16.99 62.582 0.044 6.94 3.83 9.27
9/10/2023 8:30:00 AM 16.98 62.564 0.044 6.92 3.65 9.31
9/10/2023 8:45:00 AM 16.98 62.564 0.044 6.97 3.6 9.33
9/10/2023 9:00:00 AM 16.99 62.582 0.044 6.97 3.65 9.35
9/10/2023 9:15:00 AM 16.99 62.582 0.044 6.98 3.59 9.35
9/10/2023 9:30:00 AM 16.99 62.582 0.044 6.99 3.57 9.37
9/10/2023 9:45:00 AM 16.99 62.582 0.044 6.99 3.53 9.37
9/10/2023 10:00:00 AM 17.01 62.618 0.044 7 3.52 9.4
9/10/2023 10:15:00 AM 17.02 62.636 0.044 7.01 3.73 9.39
9/10/2023 10:30:00 AM 17.02 62.636 0.044 7 3.76 9.42
9/10/2023 10:45:00 AM 17.03 62.654 0.044 7.01 3.52 9.41
9/10/2023 11:00:00 AM 17.05 62.69 0.044 7.03 3.55 9.45
9/10/2023 11:15:00 AM 17.08 62.744 0.044 7.02 3.63 9.47
9/10/2023 11:30:00 AM 17.1 62.78 0.044 7.04 3.45 9.47
9/10/2023 11:45:00 AM 17.12 62.816 0.044 7.05 3.63 9.51
9/10/2023 12:00:00 PM 17.14 62.852 0.044 7.05 3.47 9.47
9/10/2023 12:15:00 PM 17.16 62.888 0.044 7.06 3.75 9.49
9/10/2023 12:30:00 PM 17.19 62.942 0.044 7.07 3.55 9.52
9/10/2023 12:45:00 PM 17.22 62.996 0.043 7.08 3.6 9.52
9/10/2023 1:00:00 PM 17.25 63.05 0.043 7.09 3.57 9.54
9/10/2023 1:15:00 PM 17.3 63.14 0.043 7.07 3.46 9.57
9/10/2023 1:30:00 PM 17.37 63.266 0.043 7.12 3.53 9.57
9/10/2023 1:45:00 PM 17.5 63.5 0.043 7.15 3.47 9.63
9/10/2023 2:00:00 PM 17.53 63.554 0.043 7.17 3.43 9.58
9/10/2023 2:15:00 PM 17.59 63.662 0.043 7.17 3.34 9.58
9/10/2023 2:30:00 PM 17.62 63.716 0.043 7.17 3.43 9.56
9/10/2023 2:45:00 PM 17.67 63.806 0.043 7.19 3.84 9.58
9/10/2023 3:00:00 PM 17.75 63.95 0.043 7.2 3.52 9.57
9/10/2023 3:15:00 PM 17.83 64.094 0.043 7.21 3.43 9.58
9/10/2023 3:30:00 PM 17.87 64.166 0.043 7.21 3.41 9.57
9/10/2023 3:45:00 PM 17.93 64.274 0.043 7.22 3.48 9.56
9/10/2023 4:00:00 PM 17.92 64.256 0.043 7.2 3.44 9.48
9/10/2023 4:15:00 PM 17.95 64.31 0.043 7.19 3.38 9.44
9/10/2023 4:30:00 PM 17.96 64.328 0.043 7.16 3.41 9.4
9/10/2023 4:45:00 PM 17.97 64.346 0.043 7.18 3.33 9.39
9/10/2023 5:00:00 PM 17.98 64.364 0.043 7.17 3.66 9.36
9/10/2023 5:15:00 PM 18 64.4 0.043 7.13 3.33 9.35
9/10/2023 5:30:00 PM 18 64.4 0.043 7.14 3.33 9.29
9/10/2023 5:45:00 PM 17.99 64.382 0.043 7.11 3.52 9.24
9/10/2023 6:00:00 PM 17.99 64.382 0.043 7.1 3.33 9.21
9/10/2023 6:15:00 PM 17.98 64.364 0.043 7.08 3.45 9.2
9/10/2023 6:30:00 PM 17.97 64.346 0.044 7.04 3.67 9.12
9/10/2023 6:45:00 PM 17.95 64.31 0.044 7.05 3.64 9.09
9/10/2023 7:00:00 PM 17.94 64.292 0.044 7.04 3.64 9.05
9/10/2023 7:15:00 PM 17.92 64.256 0.044 7.01 3.73 9.01
9/10/2023 7:30:00 PM 17.91 64.238 0.044 7.01 3.4 8.99
9/10/2023 7:45:00 PM 17.92 64.256 0.044 7 3.7 8.98
9/10/2023 8:00:00 PM 17.89 64.202 0.044 6.97 3.52 8.96
9/10/2023 8:15:00 PM 17.86 64.148 0.044 6.96 3.42 8.97
9/10/2023 8:30:00 PM 17.84 64.112 0.044 6.96 3.44 8.95
9/10/2023 8:45:00 PM 17.82 64.076 0.044 6.98 3.55 8.96
9/10/2023 9:00:00 PM 17.8 64.04 0.045 6.97 3.43 8.97
9/10/2023 9:15:00 PM 17.78 64.004 0.045 6.98 3.31 8.97
9/10/2023 9:30:00 PM 17.77 63.986 0.045 6.97 3.56 8.98
9/10/2023 9:45:00 PM 17.76 63.968 0.045 6.92 3.52 8.98
9/10/2023 10:00:00 PM 17.74 63.932 0.045 6.95 3.35 8.98
9/10/2023 10:15:00 PM 17.73 63.914 0.045 6.97 3.34 8.98
9/10/2023 10:30:00 PM 17.72 63.896 0.045 6.95 3.34 8.99
9/10/2023 10:45:00 PM 17.71 63.878 0.045 6.94 3.35 8.97
9/10/2023 11:00:00 PM 17.7 63.86 0.045 6.95 3.4 8.99
9/10/2023 11:15:00 PM 17.69 63.842 0.045 6.95 3.28 8.98
9/10/2023 11:30:00 PM 17.71 63.878 0.044 6.94 3.73 8.97
9/10/2023 11:45:00 PM 17.72 63.896 0.044 6.92 3.76 8.94
9/11/2023 12:00:00 AM 17.71 63.878 0.044 6.91 3.61 8.93
9/11/2023 12:15:00 AM 17.7 63.86 0.045 6.91 3.7 8.9
9/11/2023 12:30:00 AM 17.68 63.824 0.045 6.9 3.66 8.92
9/11/2023 12:45:00 AM 17.67 63.806 0.045 6.9 3.78 8.91
9/11/2023 1:00:00 AM 17.66 63.788 0.045 6.91 3.51 8.92
9/11/2023 1:15:00 AM 17.65 63.77 0.045 6.9 3.44 8.93
9/11/2023 1:30:00 AM 17.63 63.734 0.045 6.9 3.5 8.95
9/11/2023 1:45:00 AM 17.62 63.716 0.045 6.91 3.32 8.96
9/11/2023 2:00:00 AM 17.61 63.698 0.045 6.9 3.66 8.96
9/11/2023 2:15:00 AM 17.6 63.68 0.045 6.9 3.46 8.97
9/11/2023 2:30:00 AM 17.58 63.644 0.045 6.89 3.35 8.98
9/11/2023 2:45:00 AM 17.57 63.626 0.045 6.9 3.48 8.98
9/11/2023 3:00:00 AM 17.56 63.608 0.045 6.89 3.72 8.99
9/11/2023 3:15:00 AM 17.54 63.572 0.046 6.89 3.41 9
9/11/2023 3:30:00 AM 17.53 63.554 0.046 6.89 3.45 9.01
9/11/2023 3:45:00 AM 17.52 63.536 0.046 6.9 3.6 9.02
9/11/2023 4:00:00 AM 17.51 63.518 0.046 6.94 3.46 9.02
9/11/2023 4:15:00 AM 17.49 63.482 0.046 6.93 3.41 9.02
9/11/2023 4:30:00 AM 17.48 63.464 0.046 6.94 3.36 9.03
9/11/2023 4:45:00 AM 17.46 63.428 0.046 6.95 3.39 9.03
9/11/2023 5:00:00 AM 17.45 63.41 0.045 6.95 3.36 9.04
9/11/2023 5:15:00 AM 17.43 63.374 0.045 6.95 3.37 9.06
9/11/2023 5:30:00 AM 17.41 63.338 0.045 6.95 3.34 9.07
9/11/2023 5:45:00 AM 17.4 63.32 0.045 6.95 3.57 9.06
9/11/2023 6:00:00 AM 17.38 63.284 0.045 6.96 3.87 9.08
9/11/2023 6:15:00 AM 17.36 63.248 0.045 6.96 3.9 9.1
9/11/2023 6:30:00 AM 17.34 63.212 0.045 6.97 3.8 9.11
9/11/2023 6:45:00 AM 17.32 63.176 0.045 6.97 4.74 9.05
9/11/2023 7:00:00 AM 17.3 63.14 0.045 6.96 4.05 9.09
9/11/2023 7:15:00 AM 17.28 63.104 0.045 6.97 3.84 9.09
9/11/2023 7:30:00 AM 17.25 63.05 0.045 6.98 3.92 9.14
9/11/2023 7:45:00 AM 17.24 63.032 0.045 6.99 3.8 9.18
9/11/2023 8:00:00 AM 17.22 62.996 0.045 6.99 3.83 9.15
9/11/2023 8:15:00 AM 17.2 62.96 0.045 6.99 3.85 9.19
9/11/2023 8:30:00 AM 17.17 62.906 0.045 7 3.8 9.22
9/11/2023 8:45:00 AM 17.15 62.87 0.044 7 3.57 9.19
9/11/2023 9:00:00 AM 17.13 62.834 0.044 7 3.57 9.25
9/11/2023 9:15:00 AM 17.11 62.798 0.044 7.01 3.58 9.26
9/11/2023 9:30:00 AM 17.1 62.78 0.044 7.03 3.46 9.31
9/11/2023 9:45:00 AM 17.1 62.78 0.044 7.03 3.48 9.34
9/11/2023 10:00:00 AM 17.1 62.78 0.044 7.04 3.67 9.35
9/11/2023 10:15:00 AM 17.14 62.852 0.044 7.06 3.48 9.43
9/11/2023 10:30:00 AM 17.16 62.888 0.044 7.07 3.38 9.44
9/11/2023 10:45:00 AM 17.18 62.924 0.044 7.08 3.41 9.45
9/11/2023 11:00:00 AM 17.19 62.942 0.044 7.08 3.59 9.44
9/11/2023 11:15:00 AM 17.23 63.014 0.044 7.09 3.46 9.43
9/11/2023 11:30:00 AM 17.24 63.032 0.044 7.09 3.35 9.46
9/11/2023 11:45:00 AM 17.27 63.086 0.044 7.1 3.36 9.49
9/11/2023 12:00:00 PM 17.32 63.176 0.044 7.13 3.34 9.51
9/11/2023 12:15:00 PM 17.37 63.266 0.043 7.14 3.47 9.55
9/11/2023 12:30:00 PM 17.4 63.32 0.043 7.14 3.41 9.52
9/11/2023 12:45:00 PM 17.43 63.374 0.043 7.14 3.38 9.51
9/11/2023 1:00:00 PM 17.46 63.428 0.043 7.1 3.4 9.48
9/11/2023 1:15:00 PM 17.59 63.662 0.043 7.16 3.42 9.56
9/11/2023 1:30:00 PM 17.67 63.806 0.043 7.18 3.35 9.57
9/11/2023 1:45:00 PM 17.73 63.914 0.043 7.18 3.4 9.52
9/11/2023 2:00:00 PM 17.88 64.184 0.043 7.2 3.45 9.54
9/11/2023 2:15:00 PM 18.03 64.454 0.043 7.22 3.28 9.55
9/11/2023 2:30:00 PM 18.07 64.526 0.043 7.2 3.43 9.51
9/11/2023 2:45:00 PM 18.17 64.706 0.043 7.22 3.51 9.5
9/11/2023 3:00:00 PM 18.14 64.652 0.043 7.21 3.5 9.47
9/11/2023 3:15:00 PM 18.18 64.724 0.043 7.22 3.38 9.44
9/11/2023 3:30:00 PM 18.17 64.706 0.043 7.22 3.4 9.44
9/11/2023 3:45:00 PM 18.24 64.832 0.043 7.2 3.69 9.39
9/11/2023 4:00:00 PM 18.24 64.832 0.043 7.21 3.91 9.37
9/11/2023 4:15:00 PM 18.27 64.886 0.043 7.2 3.49 9.34
9/11/2023 4:30:00 PM 18.28 64.904 0.043 7.19 3.6 9.29
9/11/2023 4:45:00 PM 18.31 64.958 0.043 7.19 3.54 9.29
9/11/2023 5:00:00 PM 18.34 65.012 0.043 7.18 3.63 9.27
9/11/2023 5:15:00 PM 18.34 65.012 0.043 7.17 3.52 9.23
9/11/2023 5:30:00 PM 18.33 64.994 0.043 7.15 3.44 9.17
9/11/2023 5:45:00 PM 18.31 64.958 0.043 7.13 3.42 9.14
9/11/2023 6:00:00 PM 18.27 64.886 0.043 7.1 3.4 9.11
9/11/2023 6:15:00 PM 18.24 64.832 0.043 7.09 3.62 9.09
9/11/2023 6:30:00 PM 18.21 64.778 0.043 7.1 4.98 9.1
9/11/2023 6:45:00 PM 18.18 64.724 0.043 7.08 3.32 9.07
9/11/2023 7:00:00 PM 18.14 64.652 0.044 7.06 3.41 9.02

These are provisional data and have not been subject to a quality assurance process, but rather are the raw data reported by the instrument.
H: value is above sensor operating range
L: value is below sensor operating range
Offline: station is not reporting data
NC: parameter is not collected at site

Data Availability & Limitations

Uncertainty and potential for error can be associated with environmental monitoring data. Provisional data have not been subject to a quality assurance process, but rather are the raw data reported by the instrument. Data users are cautioned to consider carefully the provisional nature of the information before using it for decisions that concern personal or public safety or the conduct of business that involves substantial monetary or operational consequences.

Approved data are currently available by request by emailing: [email protected]. Approved data have been subject to a quality assurance process to correct for equipment or fouling drift. Data recorded during equipment malfunctions have been removed.

View Historical Stations that have been discontinued.